Radiosonde details



Informationen :

Serial : V3010003
Type : Vaisala RS41-SGP
Date of production : 24.07.2023
Frequency : 403.000MHz
Launchsite : Galeao
Nearest town : Rio Bonito, BR (8km)

Altitude (Max) : 27815m at 2026-08-31 00:46:30
Speed (Max) : 143km/h at altitude 13058m

Average speed : 40km/h
Average ascent rate : 6m/s
Average descent rate : -11m/s
Ascent rate (Max) : 12.4m/s
Descent rate (Max): -31.5m/s

First frame :
PU1XMG-16 at 2026-08-30 23:31:26 at altitude 251m (OG: 209m)
Last frame :
PU1XMG-16 at 2026-08-31 01:25:23 at altitude 1729m (OG: 1687m)

Flighttime : 1h53m57s
Ascent time : 1h15m4s
Descent time : 38m53s
Uptime : -
Killtimer : 7h51m

Distance (Straight line distance): 67km

Distance (Route):


Frames : 1104


Measurement :

Temperature : 16.1°C
Humidity : 0%
Pressure : 830.8hPa


Vertical profile (SkewT) :


Elevation profile :



Receiving stations :


Receiver Frames First received Last received
PU1XMG-16 1104 2026-08-30 23:31:26 2026-08-31 01:25:23

Share per receiver :



All frames :


Receiver Date Latitude Longitude Direction Speed Altitude Climb Temperature Humidity Pressure Voltage Killtimer Uptime BKT XDATA
PU1XMG-162026-08-31 01:25:23-22.77762-42.58896106°22km/h1729m-7.2m/s16.1°C0%830.8hPa0V07:51:0000:00:0000:00:00
PU1XMG-162026-08-31 01:25:17-22.77755-42.58919114°16km/h1769m-10.3m/s16.1°C0%827.0hPa0V07:51:0000:00:0000:00:00
PU1XMG-162026-08-31 01:25:12-22.77744-42.58938133°15km/h1822m-10.0m/s16.0°C0%821.9hPa0V07:51:0000:00:0000:00:00
PU1XMG-162026-08-31 01:25:06-22.77731-42.58956137°13km/h1881m-10.3m/s15.8°C0%816.2hPa0V07:51:0000:00:0000:00:00
PU1XMG-162026-08-31 01:25:00-22.77716-42.58967171°11km/h1941m-12.1m/s15.7°C0%810.8hPa0V07:52:0000:00:0000:00:00
PU1XMG-162026-08-31 01:24:55-22.77698-42.58970183°15km/h2003m-8.9m/s15.4°C0%804.6hPa0V07:52:0000:00:0000:00:00
PU1XMG-162026-08-31 01:24:47-22.77673-42.58967190°15km/h2061m-8.2m/s15.2°C0%799.0hPa0V07:52:0000:00:0000:00:00
PU1XMG-162026-08-31 01:24:43-22.77655-42.58961199°15km/h2102m-8.4m/s15.0°C0%795.2hPa0V07:52:0000:00:0000:00:00
PU1XMG-162026-08-31 01:24:37-22.77632-42.58949209°20km/h2152m-8.8m/s14.7°C0%790.6hPa0V07:52:0000:00:0000:00:00
PU1XMG-162026-08-31 01:24:31-22.77605-42.58935201°20km/h2200m-8.4m/s14.5°C0%786.0hPa0V07:52:0000:00:0000:00:00
PU1XMG-162026-08-31 01:24:24-22.77577-42.58920214°22km/h2250m-8.7m/s14.2°C0%781.5hPa0V07:52:0000:00:0000:00:00
PU1XMG-162026-08-31 01:24:19-22.77551-42.58903214°24km/h2293m-9.0m/s14.0°C0%777.5hPa0V07:52:0000:00:0000:00:00
PU1XMG-162026-08-31 01:24:13-22.77520-42.58881216°26km/h2345m-8.8m/s13.6°C99.8%772.8hPa0V07:52:0000:00:0000:00:00
PU1XMG-162026-08-31 01:24:08-22.77488-42.58859218°24km/h2397m-8.9m/s14.1°C81.6%768.1hPa0V07:53:0000:00:0000:00:00
PU1XMG-162026-08-31 01:23:56-22.77433-42.58822210°22km/h2493m-9.3m/s14.1°C75.5%759.5hPa0V07:53:0000:00:0000:00:00
PU1XMG-162026-08-31 01:23:51-22.77410-42.58808208°20km/h2537m-8.7m/s13.9°C74.1%755.5hPa0V07:53:0000:00:0000:00:00
PU1XMG-162026-08-31 01:23:45-22.77385-42.58794212°18km/h2588m-9.0m/s13.5°C72.0%751.0hPa0V07:53:0000:00:0000:00:00
PU1XMG-162026-08-31 01:23:40-22.77365-42.58781208°18km/h2632m-8.8m/s13.2°C71.4%747.0hPa0V07:53:0000:00:0000:00:00
PU1XMG-162026-08-31 01:23:35-22.77346-42.58771205°16km/h2675m-8.9m/s12.8°C72.6%743.2hPa0V07:53:0000:00:0000:00:00
PU1XMG-162026-08-31 01:23:29-22.77326-42.58759211°13km/h2726m-8.8m/s12.2°C77.8%738.6hPa0V07:53:0000:00:0000:00:00
PU1XMG-162026-08-31 01:23:23-22.77308-42.58748218°13km/h2779m-8.9m/s11.6°C87.9%734.1hPa0V07:53:0000:00:0000:00:00
PU1XMG-162026-08-31 01:23:18-22.77293-42.58735217°11km/h2831m-9.0m/s11.1°C92.1%729.5hPa0V07:54:0000:00:0000:00:00
PU1XMG-162026-08-31 01:23:11-22.77278-42.58723215°11km/h2884m-9.0m/s10.7°C97.3%725.0hPa0V07:54:0000:00:0000:00:00
PU1XMG-162026-08-31 01:23:06-22.77263-42.58710215°15km/h2936m-8.9m/s10.3°C91.7%720.5hPa0V07:54:0000:00:0000:00:00
PU1XMG-162026-08-31 01:23:01-22.77249-42.58699217°15km/h2980m-9.0m/s10.0°C92.6%716.7hPa0V07:54:0000:00:0000:00:00
PU1XMG-162026-08-31 01:22:55-22.77233-42.58689217°15km/h3024m-9.0m/s9.7°C91.7%713.0hPa0V07:54:0000:00:0000:00:00
PU1XMG-162026-08-31 01:22:50-22.77216-42.58678217°15km/h3068m-9.4m/s9.4°C92.0%709.2hPa0V07:54:0000:00:0000:00:00
PU1XMG-162026-08-31 01:22:44-22.77197-42.58663214°15km/h3121m-9.0m/s9.2°C86.6%704.6hPa0V07:54:0000:00:0000:00:00
PU1XMG-162026-08-31 01:22:38-22.77181-42.58650217°13km/h3174m-8.9m/s8.8°C81.5%700.1hPa0V07:54:0000:00:0000:00:00
PU1XMG-162026-08-31 01:22:33-22.77168-42.58639224°13km/h3219m-9.4m/s8.6°C74.8%696.4hPa0V07:54:0000:00:0000:00:00
PU1XMG-162026-08-31 01:22:27-22.77156-42.58625226°11km/h3273m-9.3m/s8.1°C71.8%692.0hPa0V07:55:0000:00:0000:00:00
PU1XMG-162026-08-31 01:22:21-22.77145-42.58613233°11km/h3326m-9.0m/s7.7°C68.5%687.5hPa0V07:55:0000:00:0000:00:00
PU1XMG-162026-08-31 01:22:15-22.77134-42.58602237°9km/h3378m-9.0m/s7.4°C63.8%683.1hPa0V07:55:0000:00:0000:00:00
PU1XMG-162026-08-31 01:22:10-22.77126-42.58593220°9km/h3422m-8.9m/s7.0°C62.4%679.6hPa0V07:55:0000:00:0000:00:00
PU1XMG-162026-08-31 01:22:04-22.77116-42.58583218°9km/h3475m-8.7m/s6.6°C62.9%675.2hPa0V07:55:0000:00:0000:00:00
PU1XMG-162026-08-31 01:21:59-22.77108-42.58575213°9km/h3518m-8.8m/s6.3°C68.1%671.7hPa0V07:55:0000:00:0000:00:00
PU1XMG-162026-08-31 01:21:53-22.77097-42.58568207°7km/h3571m-9.3m/s5.8°C76.0%667.3hPa0V07:55:0000:00:0000:00:00
PU1XMG-162026-08-31 01:21:47-22.77086-42.58565190°7km/h3625m-9.2m/s5.4°C76.4%663.0hPa0V07:55:0000:00:0000:00:00
PU1XMG-162026-08-31 01:21:43-22.77076-42.58564183°9km/h3670m-9.1m/s5.0°C76.3%659.3hPa0V07:55:0000:00:0000:00:00
PU1XMG-162026-08-31 01:21:36-22.77063-42.58566155°7km/h3724m-9.4m/s4.6°C78.8%655.1hPa0V07:56:0000:00:0000:00:00
PU1XMG-162026-08-31 01:21:26-22.77038-42.58579149°11km/h3822m-9.2m/s3.8°C78.3%647.2hPa0V07:56:0000:00:0000:00:00
PU1XMG-162026-08-31 01:21:20-22.77027-42.58589143°11km/h3866m-9.4m/s3.4°C80.7%643.7hPa0V07:56:0000:00:0000:00:00
PU1XMG-162026-08-31 01:21:14-22.77014-42.58603138°13km/h3920m-9.1m/s2.9°C89.4%639.5hPa0V07:56:0000:00:0000:00:00
PU1XMG-162026-08-31 01:21:09-22.77003-42.58614134°11km/h3965m-8.9m/s2.6°C87.9%636.0hPa0V07:56:0000:00:0000:00:00
PU1XMG-162026-08-31 01:21:04-22.76993-42.58626137°11km/h4009m-9.3m/s2.2°C92.7%632.5hPa0V07:56:0000:00:0000:00:00
PU1XMG-162026-08-31 01:20:58-22.76981-42.58641128°11km/h4064m-9.4m/s1.7°C96.1%628.3hPa0V07:56:0000:00:0000:00:00
PU1XMG-162026-08-31 01:20:52-22.76968-42.58658126°13km/h4118m-9.4m/s1.4°C0%624.0hPa0V07:56:0000:00:0000:00:00
PU1XMG-162026-08-31 01:20:47-22.76957-42.58674127°15km/h4163m-9.0m/s1.2°C82.9%620.7hPa0V07:56:0000:00:0000:00:00
PU1XMG-162026-08-31 01:20:42-22.76943-42.58692135°13km/h4217m-9.1m/s1.0°C87.0%616.5hPa0V07:57:0000:00:0000:00:00
PU1XMG-162026-08-31 01:20:36-22.76929-42.58706142°16km/h4262m-9.3m/s0.7°C87.4%613.1hPa0V07:57:0000:00:0000:00:00
PU1XMG-162026-08-31 01:20:31-22.76912-42.58720137°16km/h4307m-9.2m/s0.3°C90.4%609.6hPa0V07:57:0000:00:0000:00:00
PU1XMG-162026-08-31 01:20:19-22.76873-42.58759134°18km/h4415m-9.2m/s-0.3°C82.0%601.4hPa0V07:57:0000:00:0000:00:00
PU1XMG-162026-08-31 01:20:14-22.76856-42.58779133°20km/h4460m-8.9m/s-0.6°C86.9%598.2hPa0V07:57:0000:00:0000:00:00
PU1XMG-162026-08-31 01:20:09-22.76838-42.58801133°20km/h4505m-9.3m/s-1.0°C89.6%594.9hPa0V07:57:0000:00:0000:00:00
PU1XMG-162026-08-31 01:20:03-22.76814-42.58830131°26km/h4559m-9.1m/s-1.3°C85.4%590.9hPa0V07:57:0000:00:0000:00:00
PU1XMG-162026-08-31 01:19:58-22.76792-42.58858132°27km/h4604m-9.3m/s-1.7°C85.1%587.5hPa0V07:57:0000:00:0000:00:00
PU1XMG-162026-08-31 01:19:47-22.76730-42.58934135°33km/h4712m-9.3m/s-2.2°C95.3%579.7hPa0V07:57:0000:00:0000:00:00
PU1XMG-162026-08-31 01:19:40-22.76693-42.58976136°35km/h4766m-9.3m/s-2.6°C94.9%575.7hPa0V07:57:0000:00:0000:00:00
PU1XMG-162026-08-31 01:19:34-22.76656-42.59020131°35km/h4819m-9.0m/s-2.9°C97.7%571.8hPa0V07:57:0000:00:0000:00:00
PU1XMG-162026-08-31 01:19:29-22.76627-42.59058131°37km/h4864m-9.2m/s-3.1°C99.3%568.7hPa0V07:57:0000:00:0000:00:00
PU1XMG-162026-08-31 01:19:24-22.76598-42.59096127°37km/h4908m-9.5m/s-3.1°C0%565.4hPa0V07:57:0000:00:0000:00:00
PU1XMG-162026-08-31 01:19:18-22.76564-42.59145124°37km/h4962m-9.5m/s-3.5°C98.7%561.6hPa0V07:57:0000:00:0000:00:00
PU1XMG-162026-08-31 01:19:13-22.76537-42.59187127°38km/h5008m-9.4m/s-3.8°C0%558.4hPa0V07:57:0000:00:0000:00:00
PU1XMG-162026-08-31 01:19:07-22.76501-42.59237129°38km/h5062m-9.3m/s-4.0°C96.1%554.6hPa0V07:57:0000:00:0000:00:00
PU1XMG-162026-08-31 01:19:01-22.76462-42.59286131°40km/h5116m-9.4m/s-4.2°C93.3%550.8hPa0V07:58:0000:00:0000:00:00
PU1XMG-162026-08-31 01:18:56-22.76427-42.59327135°42km/h5161m-9.1m/s-4.5°C90.8%547.7hPa0V07:58:0000:00:0000:00:00
PU1XMG-162026-08-31 01:18:51-22.76389-42.59370135°44km/h5208m-9.5m/s-4.8°C91.6%544.5hPa0V07:58:0000:00:0000:00:00
PU1XMG-162026-08-31 01:18:46-22.76342-42.59423135°44km/h5263m-9.5m/s-5.0°C98.0%540.8hPa0V07:58:0000:00:0000:00:00
PU1XMG-162026-08-31 01:18:40-22.76302-42.59470132°46km/h5310m-9.3m/s-5.1°C90.8%537.6hPa0V07:58:0000:00:0000:00:00
PU1XMG-162026-08-31 01:18:34-22.76256-42.59527130°47km/h5364m-9.3m/s-5.4°C90.0%533.9hPa0V07:58:0000:00:0000:00:00
PU1XMG-162026-08-31 01:18:29-22.76221-42.59577125°44km/h5410m-9.2m/s-5.5°C77.6%530.7hPa0V07:58:0000:00:0000:00:00
PU1XMG-162026-08-31 01:18:24-22.76185-42.59636125°42km/h5464m-9.5m/s-5.8°C69.0%527.1hPa0V07:58:0000:00:0000:00:00
PU1XMG-162026-08-31 01:18:18-22.76151-42.59693121°42km/h5520m-9.4m/s-6.1°C78.8%523.5hPa0V07:58:0000:00:0000:00:00
PU1XMG-162026-08-31 01:18:12-22.76123-42.59742125°40km/h5567m-9.8m/s-6.1°C61.1%520.3hPa0V07:59:0000:00:0000:00:00
PU1XMG-162026-08-31 01:18:08-22.76094-42.59789126°40km/h5613m-9.3m/s-6.5°C65.5%517.3hPa0V07:59:0000:00:0000:00:00
PU1XMG-162026-08-31 01:18:01-22.76055-42.59843129°40km/h5670m-9.9m/s-6.7°C56.1%513.6hPa0V07:59:0000:00:0000:00:00
PU1XMG-162026-08-31 01:17:56-22.76021-42.59884134°40km/h5717m-9.6m/s-6.9°C52.4%510.5hPa0V07:59:0000:00:0000:00:00
PU1XMG-162026-08-31 01:17:51-22.75978-42.59935132°42km/h5773m-9.2m/s-7.2°C51.0%506.8hPa0V07:59:0000:00:0000:00:00
PU1XMG-162026-08-31 01:17:45-22.75941-42.59980133°44km/h5815m-7.7m/s-7.6°C51.5%504.0hPa0V07:59:0000:00:0000:00:00
PU1XMG-162026-08-31 01:17:40-22.75901-42.60026134°47km/h5852m-7.9m/s-7.7°C47.9%501.6hPa0V07:59:0000:00:0000:00:00
PU1XMG-162026-08-31 01:17:35-22.75849-42.60086134°51km/h5899m-7.6m/s-7.7°C42.7%498.8hPa0V07:59:0000:00:0000:00:00
PU1XMG-162026-08-31 01:17:29-22.75805-42.60135135°49km/h5938m-7.8m/s-7.7°C38.8%496.3hPa0V07:59:0000:00:0000:00:00
PU1XMG-162026-08-31 01:17:23-22.75753-42.60195134°49km/h5985m-8.4m/s-8.6°C39.6%493.2hPa0V07:59:0000:00:0000:00:00
PU1XMG-162026-08-31 01:17:18-22.75710-42.60246134°51km/h6028m-7.9m/s-9.1°C43.0%490.5hPa0V08:00:0000:00:0000:00:00
PU1XMG-162026-08-31 01:17:12-22.75654-42.60306134°53km/h6075m-8.9m/s-8.9°C40.6%487.5hPa0V08:00:0000:00:0000:00:00
PU1XMG-162026-08-31 01:17:06-22.75596-42.60367137°53km/h6133m-10.0m/s-9.5°C41.6%484.0hPa0V08:00:0000:00:0000:00:00
PU1XMG-162026-08-31 01:17:01-22.75543-42.60412143°53km/h6183m-10.2m/s-9.8°C41.1%480.8hPa0V08:00:0000:00:0000:00:00
PU1XMG-162026-08-31 01:16:55-22.75480-42.60469141°55km/h6244m-9.7m/s-10.3°C41.8%477.1hPa0V08:00:0000:00:0000:00:00
PU1XMG-162026-08-31 01:16:50-22.75417-42.60530138°55km/h6303m-9.4m/s-10.9°C44.8%473.4hPa0V08:00:0000:00:0000:00:00
PU1XMG-162026-08-31 01:16:44-22.75367-42.60583135°57km/h6348m-9.2m/s-11.3°C45.1%470.6hPa0V08:00:0000:00:0000:00:00
PU1XMG-162026-08-31 01:16:38-22.75310-42.60650130°55km/h6402m-8.5m/s-11.9°C46.5%467.3hPa0V08:00:0000:00:0000:00:00
PU1XMG-162026-08-31 01:16:34-22.75267-42.60707130°53km/h6443m-7.8m/s-12.3°C47.6%464.9hPa0V08:00:0000:00:0000:00:00
PU1XMG-162026-08-31 01:16:28-22.75215-42.60777129°55km/h6491m-7.9m/s-12.7°C49.0%462.0hPa0V08:01:0000:00:0000:00:00
PU1XMG-162026-08-31 01:16:21-22.75164-42.60850127°57km/h6538m-8.1m/s-13.2°C50.4%459.1hPa0V08:01:0000:00:0000:00:00
PU1XMG-162026-08-31 01:16:17-22.75122-42.60910129°55km/h6575m-7.7m/s-13.5°C52.9%456.8hPa0V08:01:0000:00:0000:00:00
PU1XMG-162026-08-31 01:16:11-22.75067-42.60980133°55km/h6626m-8.7m/s-14.1°C54.8%453.9hPa0V08:01:0000:00:0000:00:00
PU1XMG-162026-08-31 01:16:05-22.75006-42.61044138°57km/h6676m-8.4m/s-14.5°C53.9%450.9hPa0V08:01:0000:00:0000:00:00
PU1XMG-162026-08-31 01:15:59-22.74952-42.61101137°58km/h6723m-9.9m/s-15.0°C59.1%448.3hPa0V08:01:0000:00:0000:00:00
PU1XMG-162026-08-31 01:15:53-22.74885-42.61172134°66km/h6781m-9.8m/s-15.3°C61.9%444.8hPa0V08:01:0000:00:0000:00:00
PU1XMG-162026-08-31 01:15:48-22.74824-42.61257123°64km/h6842m-10.4m/s-14.1°C72.4%441.2hPa0V08:01:0000:00:0000:00:00
PU1XMG-162026-08-31 01:15:41-22.74775-42.61344121°60km/h6903m-10.4m/s-14.1°C75.5%437.7hPa0V08:01:0000:00:0000:00:00
PU1XMG-162026-08-31 01:15:36-22.74731-42.61430119°60km/h6964m-11.0m/s-14.0°C77.9%434.1hPa0V08:02:0000:00:0000:00:00
PU1XMG-162026-08-31 01:15:30-22.74696-42.61500118°58km/h7017m-10.4m/s-14.4°C77.9%431.2hPa0V08:02:0000:00:0000:00:00
PU1XMG-162026-08-31 01:15:25-22.74653-42.61583120°58km/h7079m-10.3m/s-14.9°C79.0%427.7hPa0V08:02:0000:00:0000:00:00
PU1XMG-162026-08-31 01:15:21-22.74620-42.61649120°53km/h7131m-10.5m/s-15.3°C79.9%424.7hPa0V08:02:0000:00:0000:00:00
PU1XMG-162026-08-31 01:15:14-22.74583-42.61726119°51km/h7194m-10.7m/s-15.6°C78.8%421.3hPa0V08:02:0000:00:0000:00:00
PU1XMG-162026-08-31 01:15:08-22.74554-42.61788113°51km/h7245m-10.1m/s-16.0°C80.2%418.4hPa0V08:02:0000:00:0000:00:00
PU1XMG-162026-08-31 01:14:57-22.74503-42.61932107°51km/h7356m-10.0m/s-16.4°C80.5%412.3hPa0V08:02:0000:00:0000:00:00
PU1XMG-162026-08-31 01:14:51-22.74483-42.62017103°53km/h7417m-10.1m/s-16.6°C82.7%408.9hPa0V08:02:0000:00:0000:00:00
PU1XMG-162026-08-31 01:14:46-22.74470-42.62086101°53km/h7467m-10.1m/s-16.9°C83.4%406.2hPa0V08:03:0000:00:0000:00:00
PU1XMG-162026-08-31 01:14:35-22.74436-42.62255105°51km/h7587m-10.4m/s-17.6°C83.1%399.9hPa0V08:03:0000:00:0000:00:00
PU1XMG-162026-08-31 01:14:29-22.74420-42.62323109°49km/h7639m-10.0m/s-17.9°C82.3%397.2hPa0V08:03:0000:00:0000:00:00
PU1XMG-162026-08-31 01:14:24-22.74401-42.62388107°47km/h7689m-9.3m/s-18.2°C81.3%394.6hPa0V08:03:0000:00:0000:00:00
PU1XMG-162026-08-31 01:14:19-22.74385-42.62452106°47km/h7735m-9.6m/s-18.5°C81.8%392.0hPa0V08:03:0000:00:0000:00:00
PU1XMG-162026-08-31 01:14:14-22.74369-42.62516103°49km/h7784m-9.7m/s-18.9°C81.5%389.5hPa0V08:03:0000:00:0000:00:00
PU1XMG-162026-08-31 01:14:08-22.74349-42.62599106°53km/h7843m-9.8m/s-19.0°C81.2%386.4hPa0V08:03:0000:00:0000:00:00
PU1XMG-162026-08-31 01:14:03-22.74332-42.62671106°53km/h7891m-9.8m/s-19.3°C81.2%383.9hPa0V08:03:0000:00:0000:00:00
PU1XMG-162026-08-31 01:13:57-22.74311-42.62758102°57km/h7949m-10.0m/s-19.7°C80.7%380.9hPa0V08:03:0000:00:0000:00:00
PU1XMG-162026-08-31 01:13:52-22.74293-42.62835105°58km/h7998m-9.8m/s-20.1°C80.5%378.5hPa0V08:03:0000:00:0000:00:00
PU1XMG-162026-08-31 01:13:47-22.74271-42.62914109°58km/h8047m-9.6m/s-20.4°C79.9%375.9hPa0V08:03:0000:00:0000:00:00
PU1XMG-162026-08-31 01:13:41-22.74243-42.63006109°60km/h8105m-9.9m/s-20.8°C79.2%372.9hPa0V08:03:0000:00:0000:00:00
PU1XMG-162026-08-31 01:13:36-22.74215-42.63099110°58km/h8164m-10.1m/s-21.2°C78.6%370.0hPa0V08:03:0000:00:0000:00:00
PU1XMG-162026-08-31 01:13:30-22.74193-42.63173107°57km/h8214m-10.2m/s-21.6°C78.9%367.6hPa0V08:03:0000:00:0000:00:00
PU1XMG-162026-08-31 01:13:24-22.74169-42.63260108°55km/h8273m-9.9m/s-22.0°C78.3%364.6hPa0V08:03:0000:00:0000:00:00
PU1XMG-162026-08-31 01:13:19-22.74148-42.63330107°51km/h8322m-9.9m/s-22.3°C78.3%362.2hPa0V08:03:0000:00:0000:00:00
PU1XMG-162026-08-31 01:13:13-22.74127-42.63410105°49km/h8380m-9.8m/s-22.6°C78.2%359.3hPa0V08:03:0000:00:0000:00:00
PU1XMG-162026-08-31 01:13:08-22.74108-42.63482109°44km/h8441m-9.9m/s-22.9°C78.0%356.4hPa0V08:03:0000:00:0000:00:00
PU1XMG-162026-08-31 01:13:03-22.74092-42.63540109°42km/h8492m-10.1m/s-23.3°C78.9%353.9hPa0V08:04:0000:00:0000:00:00
PU1XMG-162026-08-31 01:12:56-22.74075-42.63601107°37km/h8550m-9.9m/s-23.8°C78.4%351.1hPa0V08:04:0000:00:0000:00:00
PU1XMG-162026-08-31 01:12:50-22.74066-42.6365696°35km/h8609m-9.7m/s-24.2°C78.3%348.2hPa0V08:04:0000:00:0000:00:00
PU1XMG-162026-08-31 01:12:44-22.74064-42.6371293°33km/h8669m-9.9m/s-24.6°C77.9%345.5hPa0V08:04:0000:00:0000:00:00
PU1XMG-162026-08-31 01:12:39-22.74066-42.6375887°37km/h8718m-10.4m/s-24.9°C76.7%343.1hPa0V08:04:0000:00:0000:00:00
PU1XMG-162026-08-31 01:12:34-22.74069-42.6381890°37km/h8778m-10.1m/s-25.4°C77.6%340.3hPa0V08:04:0000:00:0000:00:00
PU1XMG-162026-08-31 01:12:28-22.74070-42.6387088°40km/h8828m-10.4m/s-25.8°C77.0%337.9hPa0V08:04:0000:00:0000:00:00
PU1XMG-162026-08-31 01:12:17-22.74081-42.6399483°38km/h8937m-10.2m/s-26.6°C77.0%332.9hPa0V08:04:0000:00:0000:00:00
PU1XMG-162026-08-31 01:12:12-22.74093-42.6405978°44km/h8997m-10.6m/s-27.1°C76.3%330.1hPa0V08:05:0000:00:0000:00:00
PU1XMG-162026-08-31 01:12:06-22.74106-42.6411576°44km/h9049m-10.9m/s-27.5°C70.8%327.8hPa0V08:05:0000:00:0000:00:00
PU1XMG-162026-08-31 01:12:01-22.74123-42.6417174°44km/h9102m-10.5m/s-28.0°C73.1%325.4hPa0V08:05:0000:00:0000:00:00
PU1XMG-162026-08-31 01:11:57-22.74140-42.6422873°42km/h9153m-10.2m/s-28.4°C74.4%323.1hPa0V08:05:0000:00:0000:00:00
PU1XMG-162026-08-31 01:11:50-22.74162-42.6429471°42km/h9213m-10.0m/s-28.9°C76.0%320.3hPa0V08:05:0000:00:0000:00:00
PU1XMG-162026-08-31 01:11:46-22.74182-42.6435068°46km/h9263m-10.1m/s-29.4°C75.5%318.1hPa0V08:05:0000:00:0000:00:00
PU1XMG-162026-08-31 01:11:40-22.74203-42.6440769°46km/h9313m-10.0m/s-29.8°C74.9%315.9hPa0V08:05:0000:00:0000:00:00
PU1XMG-162026-08-31 01:11:34-22.74227-42.6447871°47km/h9373m-10.0m/s-30.2°C74.6%313.3hPa0V08:05:0000:00:0000:00:00
PU1XMG-162026-08-31 01:11:29-22.74245-42.6454075°47km/h9422m-9.8m/s-30.5°C74.4%311.1hPa0V08:05:0000:00:0000:00:00
PU1XMG-162026-08-31 01:11:24-22.74262-42.6460476°49km/h9472m-9.7m/s-30.8°C73.7%309.0hPa0V08:06:0000:00:0000:00:00
PU1XMG-162026-08-31 01:11:18-22.74284-42.6468374°51km/h9531m-10.0m/s-31.2°C71.8%306.5hPa0V08:06:0000:00:0000:00:00
PU1XMG-162026-08-31 01:11:13-22.74305-42.6475073°51km/h9571m-6.7m/s-31.6°C73.4%304.6hPa0V08:06:0000:00:0000:00:00
PU1XMG-162026-08-31 01:11:07-22.74329-42.6483173°53km/h9613m-6.7m/s-31.9°C73.4%302.9hPa0V08:06:0000:00:0000:00:00
PU1XMG-162026-08-31 01:11:01-22.74358-42.6491569°57km/h9652m-6.5m/s-32.2°C74.1%301.1hPa0V08:06:0000:00:0000:00:00
PU1XMG-162026-08-31 01:10:56-22.74391-42.6500067°55km/h9694m-7.2m/s-32.6°C73.6%299.4hPa0V08:06:0000:00:0000:00:00
PU1XMG-162026-08-31 01:10:49-22.74426-42.6508265°58km/h9736m-6.8m/s-32.9°C75.0%297.6hPa0V08:06:0000:00:0000:00:00
PU1XMG-162026-08-31 01:10:44-22.74460-42.6515663°62km/h9772m-7.2m/s-33.2°C76.1%296.1hPa0V08:06:0000:00:0000:00:00
PU1XMG-162026-08-31 01:10:38-22.74507-42.6524560°64km/h9815m-7.2m/s-33.6°C75.9%294.3hPa0V08:06:0000:00:0000:00:00
PU1XMG-162026-08-31 01:10:34-22.74549-42.6532059°64km/h9851m-7.0m/s-33.7°C74.1%292.8hPa0V08:07:0000:00:0000:00:00
PU1XMG-162026-08-31 01:10:27-22.74601-42.6541059°64km/h9892m-7.1m/s-34.0°C73.8%291.1hPa0V08:07:0000:00:0000:00:00
PU1XMG-162026-08-31 01:10:21-22.74654-42.6549556°62km/h9933m-7.0m/s-34.3°C73.6%289.4hPa0V08:07:0000:00:0000:00:00
PU1XMG-162026-08-31 01:10:15-22.74708-42.6557956°62km/h9976m-7.1m/s-34.7°C73.4%287.7hPa0V08:07:0000:00:0000:00:00
PU1XMG-162026-08-31 01:10:11-22.74751-42.6564656°60km/h10012m-7.2m/s-35.0°C73.0%286.2hPa0V08:07:0000:00:0000:00:00
PU1XMG-162026-08-31 01:10:05-22.74796-42.6571456°60km/h10048m-7.3m/s-35.3°C73.0%284.7hPa0V08:07:0000:00:0000:00:00
PU1XMG-162026-08-31 01:09:59-22.74849-42.6579555°60km/h10092m-7.4m/s-35.7°C73.1%282.9hPa0V08:07:0000:00:0000:00:00
PU1XMG-162026-08-31 01:09:54-22.74895-42.6586456°62km/h10129m-7.4m/s-36.0°C73.3%281.4hPa0V08:07:0000:00:0000:00:00
PU1XMG-162026-08-31 01:09:48-22.74949-42.6594856°64km/h10172m-7.0m/s-36.4°C73.4%279.7hPa0V08:07:0000:00:0000:00:00
PU1XMG-162026-08-31 01:09:43-22.74995-42.6602057°64km/h10208m-7.3m/s-36.7°C72.5%278.3hPa0V08:07:0000:00:0000:00:00
PU1XMG-162026-08-31 01:09:38-22.75048-42.6610857°64km/h10250m-7.1m/s-37.0°C71.9%276.5hPa0V08:08:0000:00:0000:00:00
PU1XMG-162026-08-31 01:09:32-22.75096-42.6618055°66km/h10287m-7.7m/s-37.4°C72.3%275.1hPa0V08:08:0000:00:0000:00:00
PU1XMG-162026-08-31 01:09:27-22.75145-42.6625456°68km/h10324m-7.5m/s-37.7°C72.6%273.6hPa0V08:08:0000:00:0000:00:00
PU1XMG-162026-08-31 01:09:22-22.75206-42.6634455°68km/h10369m-7.7m/s-38.1°C71.9%271.8hPa0V08:08:0000:00:0000:00:00
PU1XMG-162026-08-31 01:09:15-22.75267-42.6643455°69km/h10414m-7.9m/s-38.5°C71.7%270.0hPa0V08:08:0000:00:0000:00:00
PU1XMG-162026-08-31 01:09:10-22.75319-42.6651256°71km/h10451m-7.4m/s-38.9°C71.9%268.6hPa0V08:08:0000:00:0000:00:00
PU1XMG-162026-08-31 01:09:05-22.75382-42.6660856°73km/h10496m-7.5m/s-39.2°C72.2%266.8hPa0V08:08:0000:00:0000:00:00
PU1XMG-162026-08-31 01:08:58-22.75448-42.6670754°77km/h10540m-7.8m/s-39.6°C72.4%265.1hPa0V08:08:0000:00:0000:00:00
PU1XMG-162026-08-31 01:08:53-22.75506-42.6679054°77km/h10578m-7.9m/s-39.9°C72.4%263.6hPa0V08:08:0000:00:0000:00:00
PU1XMG-162026-08-31 01:08:48-22.75564-42.6687555°78km/h10616m-7.3m/s-40.1°C71.7%262.2hPa0V08:08:0000:00:0000:00:00
PU1XMG-162026-08-31 01:08:42-22.75636-42.6697954°78km/h10661m-7.5m/s-40.5°C71.2%260.5hPa0V08:08:0000:00:0000:00:00
PU1XMG-162026-08-31 01:08:37-22.75696-42.6706655°78km/h10698m-7.6m/s-40.8°C70.9%259.1hPa0V08:08:0000:00:0000:00:00
PU1XMG-162026-08-31 01:08:31-22.75765-42.6716955°77km/h10744m-7.5m/s-41.2°C70.3%257.4hPa0V08:08:0000:00:0000:00:00
PU1XMG-162026-08-31 01:08:25-22.75832-42.6727457°77km/h10788m-7.2m/s-41.6°C69.5%255.7hPa0V08:08:0000:00:0000:00:00
PU1XMG-162026-08-31 01:08:20-22.75885-42.6736258°77km/h10825m-7.5m/s-41.9°C68.8%254.3hPa0V08:08:0000:00:0000:00:00
PU1XMG-162026-08-31 01:08:16-22.75938-42.6744857°75km/h10862m-7.4m/s-42.3°C68.7%252.9hPa0V08:08:0000:00:0000:00:00
PU1XMG-162026-08-31 01:08:09-22.75999-42.6755159°75km/h10908m-7.7m/s-42.7°C68.1%251.2hPa0V08:08:0000:00:0000:00:00
PU1XMG-162026-08-31 01:08:03-22.76059-42.6765258°71km/h10954m-7.7m/s-43.1°C67.2%249.5hPa0V08:08:0000:00:0000:00:00
PU1XMG-162026-08-31 01:07:58-22.76107-42.6773559°73km/h10991m-7.6m/s-43.4°C67.6%248.1hPa0V08:09:0000:00:0000:00:00
PU1XMG-162026-08-31 01:07:53-22.76155-42.6782162°75km/h11030m-7.7m/s-43.8°C67.5%246.7hPa0V08:09:0000:00:0000:00:00
PU1XMG-162026-08-31 01:07:47-22.76209-42.6792862°75km/h11077m-7.9m/s-44.0°C66.9%245.0hPa0V08:09:0000:00:0000:00:00
PU1XMG-162026-08-31 01:07:42-22.76256-42.6802062°78km/h11115m-7.8m/s-44.3°C66.4%243.6hPa0V08:09:0000:00:0000:00:00
PU1XMG-162026-08-31 01:07:37-22.76305-42.6811863°82km/h11154m-7.7m/s-44.5°C65.4%242.2hPa0V08:09:0000:00:0000:00:00
PU1XMG-162026-08-31 01:07:31-22.76361-42.6823564°80km/h11200m-8.1m/s-44.8°C64.7%240.5hPa0V08:09:0000:00:0000:00:00
PU1XMG-162026-08-31 01:07:25-22.76415-42.6835365°80km/h11246m-7.7m/s-45.1°C64.1%238.9hPa0V08:09:0000:00:0000:00:00
PU1XMG-162026-08-31 01:07:19-22.76469-42.6847465°82km/h11291m-7.6m/s-45.4°C63.9%237.3hPa0V08:09:0000:00:0000:00:00
PU1XMG-162026-08-31 01:07:14-22.76514-42.6857665°84km/h11330m-7.9m/s-45.6°C63.5%235.9hPa0V08:09:0000:00:0000:00:00
PU1XMG-162026-08-31 01:07:08-22.76569-42.6870166°82km/h11375m-7.6m/s-46.0°C63.3%234.3hPa0V08:10:0000:00:0000:00:00
PU1XMG-162026-08-31 01:07:04-22.76612-42.6880568°86km/h11412m-7.7m/s-46.4°C63.4%233.0hPa0V08:10:0000:00:0000:00:00
PU1XMG-162026-08-31 01:06:58-22.76653-42.6891470°86km/h11450m-7.6m/s-46.7°C63.3%231.7hPa0V08:10:0000:00:0000:00:00
PU1XMG-162026-08-31 01:06:52-22.76696-42.6904773°86km/h11495m-7.4m/s-46.9°C63.3%230.1hPa0V08:10:0000:00:0000:00:00
PU1XMG-162026-08-31 01:06:48-22.76730-42.6916273°88km/h11532m-7.4m/s-47.0°C62.6%228.8hPa0V08:10:0000:00:0000:00:00
PU1XMG-162026-08-31 01:06:42-22.76763-42.6927675°86km/h11569m-7.4m/s-47.3°C62.8%227.6hPa0V08:10:0000:00:0000:00:00
PU1XMG-162026-08-31 01:06:36-22.76797-42.6941176°86km/h11613m-7.4m/s-47.7°C64.4%226.1hPa0V08:10:0000:00:0000:00:00
PU1XMG-162026-08-31 01:06:31-22.76824-42.6952577°86km/h11649m-7.3m/s-48.0°C64.4%224.9hPa0V08:10:0000:00:0000:00:00
PU1XMG-162026-08-31 01:06:25-22.76855-42.6966078°86km/h11692m-7.1m/s-48.4°C63.8%223.4hPa0V08:10:0000:00:0000:00:00
PU1XMG-162026-08-31 01:06:20-22.76883-42.6979780°86km/h11738m-7.7m/s-48.8°C61.7%221.9hPa0V08:10:0000:00:0000:00:00
PU1XMG-162026-08-31 01:06:13-22.76907-42.6993680°86km/h11783m-7.7m/s-49.2°C60.0%220.4hPa0V08:11:0000:00:0000:00:00
PU1XMG-162026-08-31 01:06:08-22.76929-42.7005179°86km/h11822m-7.6m/s-49.5°C60.2%219.1hPa0V08:11:0000:00:0000:00:00
PU1XMG-162026-08-31 01:06:03-22.76950-42.7016981°89km/h11860m-7.7m/s-49.8°C59.7%217.8hPa0V08:11:0000:00:0000:00:00
PU1XMG-162026-08-31 01:05:57-22.76975-42.7031481°89km/h11909m-8.6m/s-50.3°C58.5%216.2hPa0V08:11:0000:00:0000:00:00
PU1XMG-162026-08-31 01:05:52-22.76998-42.7046382°95km/h11959m-8.4m/s-50.8°C58.9%214.5hPa0V08:11:0000:00:0000:00:00
PU1XMG-162026-08-31 01:05:46-22.77015-42.7059183°95km/h11999m-7.8m/s-51.1°C59.8%213.2hPa0V08:11:0000:00:0000:00:00
PU1XMG-162026-08-31 01:05:40-22.77039-42.7074681°97km/h12045m-7.7m/s-51.6°C59.2%211.7hPa0V08:11:0000:00:0000:00:00
PU1XMG-162026-08-31 01:05:36-22.77061-42.7087881°99km/h12084m-7.7m/s-51.8°C58.2%210.5hPa0V08:11:0000:00:0000:00:00
PU1XMG-162026-08-31 01:05:30-22.77082-42.7101082°97km/h12122m-7.8m/s-52.2°C57.5%209.3hPa0V08:11:0000:00:0000:00:00
PU1XMG-162026-08-31 01:05:25-22.77102-42.7114481°100km/h12162m-7.9m/s-52.5°C56.5%208.0hPa0V08:12:0000:00:0000:00:00
PU1XMG-162026-08-31 01:05:20-22.77123-42.7127982°99km/h12202m-8.5m/s-52.9°C54.3%206.6hPa0V08:12:0000:00:0000:00:00
PU1XMG-162026-08-31 01:05:15-22.77140-42.7141284°100km/h12242m-7.8m/s-53.3°C53.1%205.3hPa0V08:12:0000:00:0000:00:00
PU1XMG-162026-08-31 01:05:09-22.77159-42.7157984°102km/h12291m-8.5m/s-53.7°C53.0%203.8hPa0V08:12:0000:00:0000:00:00
PU1XMG-162026-08-31 01:05:04-22.77175-42.7171883°102km/h12331m-7.9m/s-54.1°C51.9%202.6hPa0V08:12:0000:00:0000:00:00
PU1XMG-162026-08-31 01:04:59-22.77193-42.7185883°104km/h12372m-7.9m/s-54.3°C49.4%201.3hPa0V08:12:0000:00:0000:00:00
PU1XMG-162026-08-31 01:04:53-22.77216-42.7203283°108km/h12419m-8.4m/s-54.6°C47.6%199.8hPa0V08:12:0000:00:0000:00:00
PU1XMG-162026-08-31 01:04:47-22.77242-42.7220782°110km/h12469m-8.1m/s-54.9°C47.2%198.2hPa0V08:12:0000:00:0000:00:00
PU1XMG-162026-08-31 01:04:42-22.77263-42.7236082°117km/h12509m-8.2m/s-55.1°C45.3%197.0hPa0V08:12:0000:00:0000:00:00
PU1XMG-162026-08-31 01:04:36-22.77289-42.7255282°120km/h12559m-8.1m/s-55.3°C41.7%195.5hPa0V08:13:0000:00:0000:00:00
PU1XMG-162026-08-31 01:04:30-22.77321-42.7274980°122km/h12609m-8.5m/s-55.2°C37.5%194.0hPa0V08:13:0000:00:0000:00:00
PU1XMG-162026-08-31 01:04:25-22.77352-42.7291479°122km/h12651m-8.4m/s-55.2°C35.4%192.8hPa0V08:13:0000:00:0000:00:00
PU1XMG-162026-08-31 01:04:20-22.77385-42.7307978°122km/h12694m-8.4m/s-55.3°C34.5%191.5hPa0V08:13:0000:00:0000:00:00
PU1XMG-162026-08-31 01:04:15-22.77421-42.7324177°120km/h12736m-9.0m/s-55.6°C33.4%190.2hPa0V08:13:0000:00:0000:00:00
PU1XMG-162026-08-31 01:04:09-22.77468-42.7343176°120km/h12788m-8.9m/s-55.8°C32.1%188.6hPa0V08:13:0000:00:0000:00:00
PU1XMG-162026-08-31 01:04:03-22.77521-42.7362072°119km/h12841m-9.2m/s-55.8°C28.2%187.1hPa0V08:13:0000:00:0000:00:00
PU1XMG-162026-08-31 01:03:58-22.77571-42.7377372°117km/h12884m-8.1m/s-56.0°C27.5%185.8hPa0V08:13:0000:00:0000:00:00
PU1XMG-162026-08-31 01:03:52-22.77629-42.7394670°110km/h12932m-8.6m/s-55.1°C24.5%184.4hPa0V08:13:0000:00:0000:00:00
PU1XMG-162026-08-31 01:03:46-22.77687-42.7410870°100km/h12984m-8.4m/s-54.7°C23.5%182.9hPa0V08:13:0000:00:0000:00:00
PU1XMG-162026-08-31 01:03:40-22.77738-42.7425471°89km/h13034m-8.7m/s-54.4°C20.6%181.5hPa0V08:14:0000:00:0000:00:00
PU1XMG-162026-08-31 01:03:34-22.77785-42.7439271°88km/h13088m-9.2m/s-54.6°C19.3%180.0hPa0V08:14:0000:00:0000:00:00
PU1XMG-162026-08-31 01:03:28-22.77832-42.7452671°88km/h13142m-8.8m/s-54.9°C18.8%178.5hPa0V08:14:0000:00:0000:00:00
PU1XMG-162026-08-31 01:03:22-22.77875-42.7466172°86km/h13193m-8.8m/s-55.3°C18.6%177.0hPa0V08:14:0000:00:0000:00:00
PU1XMG-162026-08-31 01:03:17-22.77912-42.7477370°86km/h13237m-8.8m/s-55.7°C18.1%175.9hPa0V08:14:0000:00:0000:00:00
PU1XMG-162026-08-31 01:03:11-22.77958-42.7490270°82km/h13289m-9.2m/s-56.2°C17.6%174.4hPa0V08:14:0000:00:0000:00:00
PU1XMG-162026-08-31 01:03:05-22.78005-42.7502769°82km/h13341m-8.8m/s-56.4°C17.0%173.0hPa0V08:14:0000:00:0000:00:00
PU1XMG-162026-08-31 01:02:59-22.78053-42.7514966°80km/h13392m-8.8m/s-56.7°C16.3%171.6hPa0V08:14:0000:00:0000:00:00
PU1XMG-162026-08-31 01:02:53-22.78105-42.7526767°82km/h13444m-8.5m/s-57.0°C15.6%170.3hPa0V08:14:0000:00:0000:00:00
PU1XMG-162026-08-31 01:02:42-22.78186-42.7549672°80km/h13536m-8.6m/s-57.4°C11.7%167.8hPa0V08:14:0000:00:0000:00:00
PU1XMG-162026-08-31 01:02:37-22.78225-42.7562173°80km/h13586m-8.6m/s-57.0°C10.0%166.5hPa0V08:14:0000:00:0000:00:00
PU1XMG-162026-08-31 01:02:31-22.78257-42.7572674°80km/h13629m-8.6m/s-57.1°C10.2%165.3hPa0V08:14:0000:00:0000:00:00
PU1XMG-162026-08-31 01:02:27-22.78287-42.7583074°78km/h13672m-8.5m/s-57.2°C10.4%164.2hPa0V08:14:0000:00:0000:00:00
PU1XMG-162026-08-31 01:02:20-22.78321-42.7595476°80km/h13723m-8.3m/s-57.3°C10.8%162.9hPa0V08:14:0000:00:0000:00:00
PU1XMG-162026-08-31 01:02:15-22.78343-42.7605879°75km/h13764m-8.4m/s-57.6°C11.4%161.8hPa0V08:14:0000:00:0000:00:00
PU1XMG-162026-08-31 01:02:09-22.78369-42.7617377°69km/h13815m-9.1m/s-58.0°C12.5%160.5hPa0V08:14:0000:00:0000:00:00
PU1XMG-162026-08-31 01:02:05-22.78386-42.7626582°69km/h13860m-8.8m/s-58.3°C13.9%159.4hPa0V08:14:0000:00:0000:00:00
PU1XMG-162026-08-31 01:01:59-22.78398-42.7636083°69km/h13906m-9.5m/s-58.5°C14.9%158.2hPa0V08:15:0000:00:0000:00:00
PU1XMG-162026-08-31 01:01:53-22.78414-42.7647283°68km/h13961m-8.5m/s-59.2°C16.8%156.8hPa0V08:15:0000:00:0000:00:00
PU1XMG-162026-08-31 01:01:47-22.78426-42.7657885°62km/h14013m-8.8m/s-59.5°C18.7%155.6hPa0V08:15:0000:00:0000:00:00
PU1XMG-162026-08-31 01:01:42-22.78432-42.7665988°58km/h14056m-8.9m/s-59.8°C20.0%154.5hPa0V08:15:0000:00:0000:00:00
PU1XMG-162026-08-31 01:01:36-22.78434-42.7675792°62km/h14110m-9.0m/s-59.8°C18.1%153.1hPa0V08:15:0000:00:0000:00:00
PU1XMG-162026-08-31 01:01:32-22.78432-42.7684293°64km/h14156m-9.1m/s-60.0°C16.8%152.1hPa0V08:15:0000:00:0000:00:00
PU1XMG-162026-08-31 01:01:25-22.78429-42.7694892°64km/h14210m-9.3m/s-60.4°C15.4%150.7hPa0V08:15:0000:00:0000:00:00
PU1XMG-162026-08-31 01:01:20-22.78428-42.7705691°68km/h14266m-8.9m/s-60.9°C14.6%149.4hPa0V08:15:0000:00:0000:00:00
PU1XMG-162026-08-31 01:01:14-22.78426-42.7714893°66km/h14311m-9.0m/s-61.4°C13.8%148.3hPa0V08:15:0000:00:0000:00:00
PU1XMG-162026-08-31 01:01:09-22.78424-42.7723693°64km/h14355m-8.1m/s-61.8°C12.8%147.2hPa0V08:16:0000:00:0000:00:00
PU1XMG-162026-08-31 01:01:03-22.78424-42.7734589°68km/h14408m-9.2m/s-62.3°C12.6%146.0hPa0V08:16:0000:00:0000:00:00
PU1XMG-162026-08-31 01:00:58-22.78427-42.7743989°71km/h14456m-9.8m/s-62.7°C12.0%144.9hPa0V08:16:0000:00:0000:00:00
PU1XMG-162026-08-31 01:00:53-22.78430-42.7755590°71km/h14515m-9.9m/s-63.3°C12.2%143.5hPa0V08:16:0000:00:0000:00:00
PU1XMG-162026-08-31 01:00:47-22.78432-42.7765388°73km/h14566m-10.5m/s-63.8°C12.3%142.3hPa0V08:16:0000:00:0000:00:00
PU1XMG-162026-08-31 01:00:42-22.78438-42.7777387°73km/h14626m-9.2m/s-64.4°C13.0%141.0hPa0V08:16:0000:00:0000:00:00
PU1XMG-162026-08-31 01:00:36-22.78444-42.7787386°75km/h14675m-10.4m/s-64.9°C13.1%139.8hPa0V08:16:0000:00:0000:00:00
PU1XMG-162026-08-31 01:00:31-22.78455-42.7797984°80km/h14726m-10.8m/s-65.3°C13.5%138.7hPa0V08:16:0000:00:0000:00:00
PU1XMG-162026-08-31 01:00:25-22.78473-42.7811783°89km/h14790m-11.1m/s-65.6°C13.9%137.2hPa0V08:16:0000:00:0000:00:00
PU1XMG-162026-08-31 01:00:20-22.78495-42.7826680°93km/h14857m-11.3m/s-65.9°C14.1%135.7hPa0V08:17:0000:00:0000:00:00
PU1XMG-162026-08-31 01:00:15-22.78519-42.7839179°93km/h14913m-11.2m/s-65.6°C13.6%134.4hPa0V08:17:0000:00:0000:00:00
PU1XMG-162026-08-31 00:59:57-22.78610-42.7880076°89km/h15102m-11.0m/s-66.8°C14.3%130.3hPa0V08:17:0000:00:0000:00:00
PU1XMG-162026-08-31 00:59:51-22.78644-42.7893675°86km/h15168m-11.0m/s-67.2°C14.5%128.9hPa0V08:17:0000:00:0000:00:00
PU1XMG-162026-08-31 00:59:46-22.78675-42.7904674°82km/h15223m-10.8m/s-67.6°C14.9%127.7hPa0V08:17:0000:00:0000:00:00
PU1XMG-162026-08-31 00:59:41-22.78705-42.7915375°80km/h15277m-10.6m/s-68.1°C15.0%126.6hPa0V08:17:0000:00:0000:00:00
PU1XMG-162026-08-31 00:59:35-22.78740-42.7928074°78km/h15340m-10.1m/s-68.6°C15.1%125.3hPa0V08:17:0000:00:0000:00:00
PU1XMG-162026-08-31 00:59:29-22.78776-42.7940173°78km/h15403m-10.7m/s-69.2°C15.1%124.0hPa0V08:18:0000:00:0000:00:00
PU1XMG-162026-08-31 00:59:24-22.78806-42.7950173°75km/h15455m-10.5m/s-69.6°C15.1%122.9hPa0V08:18:0000:00:0000:00:00
PU1XMG-162026-08-31 00:59:19-22.78835-42.7959874°75km/h15509m-10.5m/s-70.1°C15.0%121.8hPa0V08:18:0000:00:0000:00:00
PU1XMG-162026-08-31 00:59:14-22.78863-42.7969575°73km/h15560m-10.6m/s-70.6°C14.9%120.7hPa0V08:18:0000:00:0000:00:00
PU1XMG-162026-08-31 00:59:08-22.78893-42.7981176°73km/h15623m-10.4m/s-71.0°C14.6%119.5hPa0V08:18:0000:00:0000:00:00
PU1XMG-162026-08-31 00:59:02-22.78921-42.7992777°73km/h15686m-10.4m/s-71.6°C14.3%118.2hPa0V08:18:0000:00:0000:00:00
PU1XMG-162026-08-31 00:58:56-22.78945-42.8004079°69km/h15749m-10.8m/s-72.1°C14.1%116.9hPa0V08:18:0000:00:0000:00:00
PU1XMG-162026-08-31 00:58:50-22.78963-42.8015183°66km/h15814m-10.8m/s-72.6°C13.9%115.6hPa0V08:18:0000:00:0000:00:00
PU1XMG-162026-08-31 00:58:47-22.78977-42.8023878°64km/h15868m-11.2m/s-73.1°C13.6%114.6hPa0V08:18:0000:00:0000:00:00
PU1XMG-162026-08-31 00:58:40-22.78998-42.8032073°60km/h15923m-10.8m/s-73.3°C13.1%113.5hPa0V08:18:0000:00:0000:00:00
PU1XMG-162026-08-31 00:58:34-22.79029-42.8040968°53km/h15988m-10.7m/s-73.3°C11.9%112.3hPa0V08:19:0000:00:0000:00:00
PU1XMG-162026-08-31 00:58:28-22.79059-42.8048568°49km/h16051m-10.3m/s-73.4°C11.4%111.1hPa0V08:19:0000:00:0000:00:00
PU1XMG-162026-08-31 00:58:23-22.79083-42.8054566°46km/h16105m-10.6m/s-73.5°C10.7%110.1hPa0V08:19:0000:00:0000:00:00
PU1XMG-162026-08-31 00:58:18-22.79107-42.8059462°37km/h16159m-10.7m/s-73.9°C10.3%109.0hPa0V08:19:0000:00:0000:00:00
PU1XMG-162026-08-31 00:58:12-22.79131-42.8064262°29km/h16225m-11.0m/s-74.2°C10.1%107.8hPa0V08:19:0000:00:0000:00:00
PU1XMG-162026-08-31 00:58:06-22.79151-42.8068261°26km/h16292m-11.1m/s-73.7°C8.7%106.6hPa0V08:19:0000:00:0000:00:00
PU1XMG-162026-08-31 00:58:01-22.79166-42.8070964°20km/h16349m-11.2m/s-74.2°C8.7%105.5hPa0V08:19:0000:00:0000:00:00
PU1XMG-162026-08-31 00:57:55-22.79178-42.8073766°20km/h16416m-10.7m/s-74.7°C8.8%104.3hPa0V08:19:0000:00:0000:00:00
PU1XMG-162026-08-31 00:57:50-22.79187-42.8076681°26km/h16472m-11.3m/s-74.9°C8.4%103.3hPa0V08:19:0000:00:0000:00:00
PU1XMG-162026-08-31 00:57:44-22.79186-42.80813102°31km/h16540m-11.0m/s-75.2°C8.1%102.1hPa0V08:20:0000:00:0000:00:00
PU1XMG-162026-08-31 00:57:39-22.79175-42.80857111°35km/h16595m-11.2m/s-74.8°C7.5%101.1hPa0V08:20:0000:00:0000:00:00
PU1XMG-162026-08-31 00:57:33-22.79157-42.80911109°35km/h16662m-11.1m/s-74.8°C7.1%100.0hPa0V08:20:0000:00:0000:00:00
PU1XMG-162026-08-31 00:57:28-22.79142-42.80958110°37km/h16719m-11.2m/s-74.9°C7.2%99.0hPa0V08:20:0000:00:0000:00:00
PU1XMG-162026-08-31 00:57:22-22.79128-42.81011103°29km/h16787m-11.4m/s-75.1°C7.2%97.9hPa0V08:20:0000:00:0000:00:00
PU1XMG-162026-08-31 00:57:17-22.79121-42.81049105°29km/h16845m-11.3m/s-74.7°C6.6%96.9hPa0V08:20:0000:00:0000:00:00
PU1XMG-162026-08-31 00:57:12-22.79111-42.81098103°31km/h16915m-11.5m/s-72.4°C5.2%95.7hPa0V08:20:0000:00:0000:00:00
PU1XMG-162026-08-31 00:57:07-22.79103-42.8114099°31km/h16972m-11.5m/s-72.3°C5.0%94.8hPa0V08:20:0000:00:0000:00:00
PU1XMG-162026-08-31 00:57:01-22.79099-42.8118795°38km/h17031m-11.6m/s-72.6°C5.2%93.9hPa0V08:20:0000:00:0000:00:00
PU1XMG-162026-08-31 00:56:55-22.79095-42.8126194°49km/h17101m-11.6m/s-72.6°C5.4%92.8hPa0V08:20:0000:00:0000:00:00
PU1XMG-162026-08-31 00:56:50-22.79095-42.8133287°53km/h17160m-11.5m/s-72.0°C5.2%91.8hPa0V08:20:0000:00:0000:00:00
PU1XMG-162026-08-31 00:56:45-22.79106-42.8140076°47km/h17218m-11.9m/s-71.3°C4.9%90.9hPa0V08:20:0000:00:0000:00:00
PU1XMG-162026-08-31 00:56:39-22.79129-42.8146864°42km/h17289m-11.8m/s-69.1°C4.1%89.9hPa0V08:20:0000:00:0000:00:00
PU1XMG-162026-08-31 00:56:35-22.79156-42.8151759°40km/h17348m-11.9m/s-68.0°C3.7%89.0hPa0V08:20:0000:00:0000:00:00
PU1XMG-162026-08-31 00:56:28-22.79184-42.8156355°27km/h17420m-11.8m/s-66.9°C3.3%87.9hPa0V08:20:0000:00:0000:00:00
PU1XMG-162026-08-31 00:56:23-22.79202-42.8158544°18km/h17479m-11.8m/s-66.3°C3.0%87.1hPa0V08:20:0000:00:0000:00:00
PU1XMG-162026-08-31 00:56:17-22.79217-42.8160044°9km/h17550m-11.8m/s-65.8°C2.8%86.1hPa0V08:20:0000:00:0000:00:00
PU1XMG-162026-08-31 00:56:12-22.79224-42.8160643°5km/h17609m-11.9m/s-65.6°C2.7%85.2hPa0V08:20:0000:00:0000:00:00
PU1XMG-162026-08-31 00:56:06-22.79227-42.8161594°5km/h17680m-12.1m/s-66.0°C2.6%84.2hPa0V08:21:0000:00:0000:00:00
PU1XMG-162026-08-31 00:56:01-22.79227-42.81623101°5km/h17740m-11.8m/s-66.4°C2.7%83.4hPa0V08:21:0000:00:0000:00:00
PU1XMG-162026-08-31 00:55:55-22.79223-42.81636117°11km/h17811m-12.0m/s-67.0°C2.8%82.4hPa0V08:21:0000:00:0000:00:00
PU1XMG-162026-08-31 00:55:49-22.79213-42.81652122°13km/h17884m-12.3m/s-67.5°C3.0%81.5hPa0V08:21:0000:00:0000:00:00
PU1XMG-162026-08-31 00:55:43-22.79213-42.8167368°18km/h17956m-12.3m/s-67.1°C2.8%80.5hPa0V08:21:0000:00:0000:00:00
PU1XMG-162026-08-31 00:55:38-22.79229-42.8170156°27km/h18017m-12.3m/s-67.0°C2.8%79.6hPa0V08:21:0000:00:0000:00:00
PU1XMG-162026-08-31 00:55:31-22.79249-42.8174676°24km/h18106m-13.0m/s-66.2°C2.6%78.5hPa0V08:21:0000:00:0000:00:00
PU1XMG-162026-08-31 00:55:25-22.79262-42.8178562°27km/h18181m-12.5m/s-66.3°C2.8%77.5hPa0V08:21:0000:00:0000:00:00
PU1XMG-162026-08-31 00:55:18-22.79291-42.8183262°29km/h18269m-12.7m/s-65.1°C2.4%76.4hPa0V08:21:0000:00:0000:00:00
PU1XMG-162026-08-31 00:55:13-22.79305-42.8187381°26km/h18347m-13.1m/s-64.5°C2.3%75.5hPa0V08:22:0000:00:0000:00:00
PU1XMG-162026-08-31 00:55:07-22.79305-42.81908100°29km/h18412m-12.9m/s-63.9°C2.2%74.6hPa0V08:22:0000:00:0000:00:00
PU1XMG-162026-08-31 00:54:56-22.79275-42.81997116°37km/h18558m-13.8m/s-63.3°C2.1%72.9hPa0V08:22:0000:00:0000:00:00
PU1XMG-162026-08-31 00:54:51-22.79253-42.82046116°42km/h18624m-13.5m/s-63.6°C1.9%72.1hPa0V08:22:0000:00:0000:00:00
PU1XMG-162026-08-31 00:54:46-22.79224-42.82108118°44km/h18706m-13.7m/s-62.4°C1.9%71.1hPa0V08:22:0000:00:0000:00:00
PU1XMG-162026-08-31 00:54:34-22.79196-42.8223286°35km/h18871m-13.9m/s-62.7°C1.9%69.3hPa0V08:22:0000:00:0000:00:00
PU1XMG-162026-08-31 00:54:27-22.79206-42.8228070°27km/h18956m-13.9m/s-62.6°C1.9%68.3hPa0V08:22:0000:00:0000:00:00
PU1XMG-162026-08-31 00:54:22-22.79223-42.8231253°26km/h19027m-13.9m/s-62.5°C1.9%67.5hPa0V08:23:0000:00:0000:00:00
PU1XMG-162026-08-31 00:54:16-22.79253-42.8234034°26km/h19114m-14.2m/s-62.6°C1.9%66.6hPa0V08:23:0000:00:0000:00:00
PU1XMG-162026-08-31 00:54:11-22.79278-42.8235421°20km/h19187m-14.4m/s-62.6°C1.8%65.8hPa0V08:23:0000:00:0000:00:00
PU1XMG-162026-08-31 00:54:07-22.79299-42.8236223°15km/h19260m-14.7m/s-62.6°C1.8%65.0hPa0V08:23:0000:00:0000:00:00
PU1XMG-162026-08-31 00:54:00-22.79313-42.8237348°11km/h19350m-15.0m/s-63.1°C2.0%64.1hPa0V08:23:0000:00:0000:00:00
PU1XMG-162026-08-31 00:53:54-22.79328-42.8238210°13km/h19440m-15.0m/s-63.5°C2.0%63.1hPa0V08:23:0000:00:0000:00:00
PU1XMG-162026-08-31 00:53:49-22.79345-42.82378335°15km/h19516m-15.3m/s-62.1°C1.7%62.4hPa0V08:23:0000:00:0000:00:00
PU1XMG-162026-08-31 00:53:44-22.79358-42.82367303°11km/h19593m-15.6m/s-62.1°C1.8%61.5hPa0V08:23:0000:00:0000:00:00
PU1XMG-162026-08-31 00:53:39-22.79359-42.82354245°7km/h19686m-15.3m/s-61.7°C1.6%60.7hPa0V08:23:0000:00:0000:00:00
PU1XMG-162026-08-31 00:53:32-22.79350-42.82342227°11km/h19780m-15.9m/s-62.4°C1.7%59.8hPa0V08:24:0000:00:0000:00:00
PU1XMG-162026-08-31 00:53:27-22.79338-42.82333205°15km/h19859m-15.7m/s-62.9°C1.6%59.0hPa0V08:24:0000:00:0000:00:00
PU1XMG-162026-08-31 00:53:22-22.79312-42.82325194°20km/h19953m-15.6m/s-63.5°C1.7%58.1hPa0V08:24:0000:00:0000:00:00
PU1XMG-162026-08-31 00:53:16-22.79286-42.82322182°22km/h20032m-16.0m/s-63.9°C1.9%57.3hPa0V08:24:0000:00:0000:00:00
PU1XMG-162026-08-31 00:53:11-22.79259-42.82327156°20km/h20112m-15.6m/s-64.4°C1.9%56.6hPa0V08:24:0000:00:0000:00:00
PU1XMG-162026-08-31 00:53:05-22.79237-42.82347132°16km/h20205m-16.0m/s-64.9°C1.9%55.7hPa0V08:24:0000:00:0000:00:00
PU1XMG-162026-08-31 00:52:59-22.79228-42.8236346°4km/h20317m-15.9m/s-64.6°C1.9%54.7hPa0V08:24:0000:00:0000:00:00
PU1XMG-162026-08-31 00:52:53-22.79233-42.8236433°2km/h20413m-16.0m/s-64.3°C1.8%53.9hPa0V08:24:0000:00:0000:00:00
PU1XMG-162026-08-31 00:52:47-22.79232-42.82368148°4km/h20494m-15.8m/s-63.8°C1.6%53.1hPa0V08:24:0000:00:0000:00:00
PU1XMG-162026-08-31 00:52:42-22.79229-42.823680km/h20575m-16.4m/s-64.0°C1.8%52.5hPa0V08:25:0000:00:0000:00:00
PU1XMG-162026-08-31 00:52:36-22.79230-42.8237056°5km/h20672m-16.5m/s-63.5°C1.8%51.6hPa0V08:25:0000:00:0000:00:00
PU1XMG-162026-08-31 00:52:30-22.79231-42.82376105°4km/h20769m-16.3m/s-63.7°C1.8%50.8hPa0V08:25:0000:00:0000:00:00
PU1XMG-162026-08-31 00:52:24-22.79223-42.82378177°11km/h20867m-16.4m/s-63.5°C1.7%50.0hPa0V08:25:0000:00:0000:00:00
PU1XMG-162026-08-31 00:52:19-22.79208-42.82385145°15km/h20949m-16.2m/s-63.7°C1.8%49.3hPa0V08:25:0000:00:0000:00:00
PU1XMG-162026-08-31 00:52:14-22.79197-42.82402102°16km/h21030m-16.5m/s-63.0°C1.7%48.7hPa0V08:25:0000:00:0000:00:00
PU1XMG-162026-08-31 00:52:09-22.79199-42.8242269°11km/h21112m-16.5m/s-62.8°C1.6%48.1hPa0V08:25:0000:00:0000:00:00
PU1XMG-162026-08-31 00:52:03-22.79210-42.82428348°9km/h21209m-16.0m/s-62.4°C1.5%47.3hPa0V08:25:0000:00:0000:00:00
PU1XMG-162026-08-31 00:51:58-22.79216-42.82424272°4km/h21289m-16.1m/s-62.2°C1.5%46.7hPa0V08:25:0000:00:0000:00:00
PU1XMG-162026-08-31 00:51:53-22.79217-42.82416315°5km/h21386m-15.9m/s-61.7°C1.6%45.9hPa0V08:25:0000:00:0000:00:00
PU1XMG-162026-08-31 00:51:47-22.79225-42.82410335°9km/h21467m-16.6m/s-61.7°C1.6%45.3hPa0V08:25:0000:00:0000:00:00
PU1XMG-162026-08-31 00:51:41-22.79240-42.8240713°9km/h21564m-16.3m/s-61.4°C1.5%44.6hPa0V08:25:0000:00:0000:00:00
PU1XMG-162026-08-31 00:51:36-22.79246-42.8241470°4km/h21661m-16.2m/s-60.3°C1.4%43.9hPa0V08:25:0000:00:0000:00:00
PU1XMG-162026-08-31 00:51:30-22.79254-42.82414353°13km/h21742m-16.4m/s-59.3°C1.4%43.3hPa0V08:25:0000:00:0000:00:00
PU1XMG-162026-08-31 00:51:25-22.79275-42.8241211km/h21840m-16.6m/s-59.1°C1.4%42.7hPa0V08:25:0000:00:0000:00:00
PU1XMG-162026-08-31 00:51:19-22.79286-42.8241310°7km/h21923m-16.4m/s-58.8°C1.3%42.1hPa0V08:25:0000:00:0000:00:00
PU1XMG-162026-08-31 00:51:13-22.79301-42.8241621°13km/h22023m-16.7m/s-57.4°C1.1%41.4hPa0V08:25:0000:00:0000:00:00
PU1XMG-162026-08-31 00:51:08-22.79318-42.8242212°16km/h22107m-16.8m/s-57.5°C1.2%40.9hPa0V08:25:0000:00:0000:00:00
PU1XMG-162026-08-31 00:51:03-22.79341-42.82420348°15km/h22208m-16.8m/s-58.0°C1.2%40.2hPa0V08:25:0000:00:0000:00:00
PU1XMG-162026-08-31 00:50:57-22.79355-42.82417342°7km/h22293m-17.2m/s-58.0°C1.2%39.7hPa0V08:26:0000:00:0000:00:00
PU1XMG-162026-08-31 00:50:51-22.79358-42.824130km/h22395m-17.1m/s-57.5°C1.0%39.0hPa0V08:26:0000:00:0000:00:00
PU1XMG-162026-08-31 00:50:46-22.79355-42.82413202°5km/h22479m-16.7m/s-57.6°C1.2%38.6hPa0V08:26:0000:00:0000:00:00
PU1XMG-162026-08-31 00:50:40-22.79343-42.82403225°13km/h22580m-17.0m/s-57.2°C1.2%37.9hPa0V08:26:0000:00:0000:00:00
PU1XMG-162026-08-31 00:50:35-22.79332-42.82392211°11km/h22665m-17.2m/s-57.2°C1.2%37.4hPa0V08:26:0000:00:0000:00:00
PU1XMG-162026-08-31 00:50:30-22.79316-42.82389177°15km/h22751m-17.2m/s-57.3°C1.1%36.9hPa0V08:26:0000:00:0000:00:00
PU1XMG-162026-08-31 00:50:24-22.79301-42.82398113°11km/h22855m-17.3m/s-57.4°C1.2%36.3hPa0V08:26:0000:00:0000:00:00
PU1XMG-162026-08-31 00:50:18-22.79297-42.82413133°7km/h22960m-17.8m/s-57.5°C1.1%35.7hPa0V08:26:0000:00:0000:00:00
PU1XMG-162026-08-31 00:50:12-22.79282-42.82414181°16km/h23065m-18.0m/s-57.7°C1.0%35.1hPa0V08:26:0000:00:0000:00:00
PU1XMG-162026-08-31 00:50:07-22.79262-42.82419160°16km/h23156m-18.5m/s-57.7°C1.0%34.6hPa0V08:27:0000:00:0000:00:00
PU1XMG-162026-08-31 00:49:56-22.79240-42.8246294°18km/h23358m-18.8m/s-57.8°C1.2%33.5hPa0V08:27:0000:00:0000:00:00
PU1XMG-162026-08-31 00:49:51-22.79243-42.8248671°22km/h23452m-18.9m/s-58.1°C1.1%33.0hPa0V08:27:0000:00:0000:00:00
PU1XMG-162026-08-31 00:49:46-22.79257-42.8251555°24km/h23545m-18.7m/s-58.8°C1.2%32.5hPa0V08:27:0000:00:0000:00:00
PU1XMG-162026-08-31 00:49:40-22.79276-42.8253630°11km/h23657m-18.6m/s-59.4°C1.3%31.9hPa0V08:27:0000:00:0000:00:00
PU1XMG-162026-08-31 00:49:34-22.79285-42.8254587°15km/h23770m-19.6m/s-59.4°C1.3%31.3hPa0V08:27:0000:00:0000:00:00
PU1XMG-162026-08-31 00:49:28-22.79281-42.8258198°27km/h23886m-19.4m/s-59.2°C1.3%30.8hPa0V08:27:0000:00:0000:00:00
PU1XMG-162026-08-31 00:49:22-22.79277-42.8261281°13km/h24001m-19.4m/s-59.2°C1.4%30.2hPa0V08:27:0000:00:0000:00:00
PU1XMG-162026-08-31 00:49:16-22.79277-42.82632114°15km/h24119m-19.2m/s-59.3°C1.4%29.6hPa0V08:28:0000:00:0000:00:00
PU1XMG-162026-08-31 00:49:11-22.79263-42.82653131°22km/h24214m-19.9m/s-58.9°C1.2%29.2hPa0V08:28:0000:00:0000:00:00
PU1XMG-162026-08-31 00:49:05-22.79245-42.82687113°26km/h24332m-19.9m/s-57.9°C1.1%28.6hPa0V08:28:0000:00:0000:00:00
PU1XMG-162026-08-31 00:48:59-22.79236-42.82726107°22km/h24450m-20.1m/s-57.2°C1.0%28.1hPa0V08:28:0000:00:0000:00:00
PU1XMG-162026-08-31 00:48:53-22.79229-42.8274797°11km/h24571m-20.6m/s-56.6°C1.1%27.6hPa0V08:28:0000:00:0000:00:00
PU1XMG-162026-08-31 00:48:47-22.79227-42.8277789°24km/h24693m-20.7m/s-55.2°C1.0%27.0hPa0V08:28:0000:00:0000:00:00
PU1XMG-162026-08-31 00:48:42-22.79232-42.8280158°15km/h24794m-20.4m/s-54.4°C1.0%26.6hPa0V08:28:0000:00:0000:00:00
PU1XMG-162026-08-31 00:48:37-22.79244-42.8281655°13km/h24897m-21.0m/s-53.7°C0.9%26.2hPa0V08:28:0000:00:0000:00:00
PU1XMG-162026-08-31 00:48:31-22.79250-42.8283494°11km/h25021m-20.7m/s-53.8°C0.9%25.7hPa0V08:28:0000:00:0000:00:00
PU1XMG-162026-08-31 00:48:25-22.79247-42.828420km/h25146m-21.0m/s-53.8°C0.9%25.2hPa0V08:29:0000:00:0000:00:00
PU1XMG-162026-08-31 00:48:20-22.79246-42.82845121°7km/h25251m-21.3m/s-53.7°C1.0%24.8hPa0V08:29:0000:00:0000:00:00
PU1XMG-162026-08-31 00:48:16-22.79235-42.82852169°13km/h25355m-21.4m/s-53.5°C0.8%24.3hPa0V08:29:0000:00:0000:00:00
PU1XMG-162026-08-31 00:48:09-22.79214-42.82852181°11km/h25482m-20.8m/s-53.7°C0.9%23.9hPa0V08:29:0000:00:0000:00:00
PU1XMG-162026-08-31 00:48:04-22.79200-42.82859158°15km/h25587m-21.0m/s-53.9°C0.9%23.5hPa0V08:29:0000:00:0000:00:00
PU1XMG-162026-08-31 00:47:58-22.79178-42.82873152°18km/h25714m-21.6m/s-54.3°C1.1%23.0hPa0V08:29:0000:00:0000:00:00
PU1XMG-162026-08-31 00:47:52-22.79155-42.82890139°18km/h25843m-21.7m/s-54.3°C1.0%22.5hPa0V08:29:0000:00:0000:00:00
PU1XMG-162026-08-31 00:47:46-22.79126-42.82911146°27km/h25972m-22.0m/s-54.1°C1.0%22.1hPa0V08:29:0000:00:0000:00:00
PU1XMG-162026-08-31 00:47:41-22.79097-42.82933140°27km/h26081m-22.1m/s-54.1°C1.0%21.7hPa0V08:29:0000:00:0000:00:00
PU1XMG-162026-08-31 00:47:36-22.79069-42.82956154°31km/h26190m-22.2m/s-53.6°C0.9%21.3hPa0V00:00:0000:00:0000:00:00
PU1XMG-162026-08-31 00:47:30-22.79019-42.82986149°42km/h26323m-22.9m/s-52.8°C0.9%20.9hPa0V00:00:0000:00:0000:00:00
PU1XMG-162026-08-31 00:47:24-22.78969-42.83031136°38km/h26458m-22.9m/s-52.2°C0.8%20.4hPa0V00:00:0000:00:0000:00:00
PU1XMG-162026-08-31 00:47:18-22.78934-42.83060142°20km/h26593m-23.0m/s-51.7°C0.7%20.0hPa0V00:00:0000:00:0000:00:00
PU1XMG-162026-08-31 00:47:13-22.78918-42.83075134°15km/h26708m-23.5m/s-51.1°C0.8%19.7hPa0V00:00:0000:00:0000:00:00
PU1XMG-162026-08-31 00:47:09-22.78902-42.83099124°27km/h26827m-23.8m/s-51.0°C0.8%19.3hPa0V00:00:0000:00:0000:00:00
PU1XMG-162026-08-31 00:47:02-22.78880-42.83134123°24km/h26971m-24.1m/s-51.7°C0.9%18.9hPa0V00:00:0000:00:0000:00:00
PU1XMG-162026-08-31 00:46:57-22.78861-42.83163129°33km/h27090m-24.7m/s-51.2°C0.8%18.5hPa0V00:00:0000:00:0000:00:00
PU1XMG-162026-08-31 00:46:52-22.78834-42.83195136°26km/h27213m-25.4m/s-51.2°C0.9%18.2hPa0V00:00:0000:00:0000:00:00
PU1XMG-162026-08-31 00:46:46-22.78809-42.83244114°46km/h27365m-26.7m/s-50.4°C0.9%17.7hPa0V00:00:0000:00:0000:00:00
PU1XMG-162026-08-31 00:46:41-22.78795-42.8329797°38km/h27522m-31.5m/s-49.1°C0.7%17.3hPa0V00:00:0000:00:0000:00:00
PU1XMG-162026-08-31 00:46:35-22.78790-42.8337695°55km/h27685m-27.0m/s-47.9°C0.6%16.9hPa0V00:00:0000:00:0000:00:00
PU1XMG-162026-08-31 00:46:30-22.78790-42.8342486°27km/h27815m-10.3m/s-47.9°C0.7%16.4hPa0V00:00:0000:00:0000:00:00
PU1XMG-162026-08-31 00:46:24-22.78796-42.8347388°35km/h27788m6.0m/s-47.8°C0.6%16.5hPa0V00:00:0000:00:0000:00:00
PU1XMG-162026-08-31 00:46:19-22.78801-42.8352384°38km/h27757m5.6m/s-47.9°C0.7%16.6hPa0V00:00:0000:00:0000:00:00
PU1XMG-162026-08-31 00:46:13-22.78802-42.8358484°37km/h27719m5.5m/s-48.3°C0.7%16.7hPa0V00:00:0000:00:0000:00:00
PU1XMG-162026-08-31 00:46:08-22.78808-42.8363775°29km/h27681m5.0m/s-48.7°C0.7%16.8hPa0V00:00:0000:00:0000:00:00
PU1XMG-162026-08-31 00:46:02-22.78802-42.83693104°40km/h27645m5.7m/s-48.9°C0.7%16.9hPa0V00:00:0000:00:0000:00:00
PU1XMG-162026-08-31 00:45:56-22.78787-42.83747105°38km/h27615m6.4m/s-49.0°C0.7%17.0hPa0V00:00:0000:00:0000:00:00
PU1XMG-162026-08-31 00:45:51-22.78780-42.83792111°38km/h27586m5.8m/s-49.4°C0.7%17.1hPa0V00:00:0000:00:0000:00:00
PU1XMG-162026-08-31 00:45:46-22.78761-42.83852110°49km/h27559m6.0m/s-49.9°C0.7%17.1hPa0V00:00:0000:00:0000:00:00
PU1XMG-162026-08-31 00:45:40-22.78735-42.83927107°47km/h27524m3.9m/s-50.2°C0.8%17.2hPa0V00:00:0000:00:0000:00:00
PU1XMG-162026-08-31 00:45:34-22.78707-42.84002111°51km/h27490m4.6m/s-50.5°C0.8%17.3hPa0V00:00:0000:00:0000:00:00
PU1XMG-162026-08-31 00:45:29-22.78686-42.84058106°38km/h27462m6.0m/s-51.0°C0.8%17.4hPa0V00:00:0000:00:0000:00:00
PU1XMG-162026-08-31 00:45:23-22.78666-42.84100123°26km/h27429m6.7m/s-51.2°C0.8%17.5hPa0V00:00:0000:00:0000:00:00
PU1XMG-162026-08-31 00:45:19-22.78646-42.84138118°35km/h27403m5.1m/s-51.4°C0.8%17.6hPa0V00:00:0000:00:0000:00:00
PU1XMG-162026-08-31 00:45:12-22.78625-42.84181129°26km/h27369m5.4m/s-51.8°C0.8%17.7hPa0V00:00:0000:00:0000:00:00
PU1XMG-162026-08-31 00:45:07-22.78605-42.84216126°40km/h27343m5.2m/s-52.0°C0.8%17.7hPa0V00:00:0000:00:0000:00:00
PU1XMG-162026-08-31 00:45:01-22.78573-42.84280127°37km/h27311m5.0m/s-52.1°C0.8%17.8hPa0V00:00:0000:00:0000:00:00
PU1XMG-162026-08-31 00:44:55-22.78550-42.84312130°29km/h27281m6.1m/s-52.0°C0.8%17.9hPa0V00:00:0000:00:0000:00:00
PU1XMG-162026-08-31 00:44:50-22.78523-42.84359123°46km/h27254m5.7m/s-52.4°C0.9%18.0hPa0V00:00:0000:00:0000:00:00
PU1XMG-162026-08-31 00:44:45-22.78498-42.84391134°15km/h27228m4.3m/s-52.3°C0.9%18.0hPa0V00:00:0000:00:0000:00:00
PU1XMG-162026-08-31 00:44:39-22.78475-42.84406128°27km/h27198m6.6m/s-52.3°C0.8%18.1hPa0V00:00:0000:00:0000:00:00
PU1XMG-162026-08-31 00:44:34-22.78456-42.84443124°27km/h27171m4.8m/s-52.5°C0.9%18.2hPa0V00:00:0000:00:0000:00:00
PU1XMG-162026-08-31 00:44:30-22.78440-42.84473135°24km/h27146m6.6m/s-52.9°C0.9%18.3hPa0V00:00:0000:00:0000:00:00
PU1XMG-162026-08-31 00:44:23-22.78414-42.84501131°35km/h27113m5.8m/s-52.8°C0.9%18.4hPa0V00:00:0000:00:0000:00:00
PU1XMG-162026-08-31 00:44:19-22.78392-42.84550110°40km/h27085m6.2m/s-52.8°C0.9%18.5hPa0V00:00:0000:00:0000:00:00
PU1XMG-162026-08-31 00:44:12-22.78374-42.84593125°27km/h27052m5.8m/s-52.6°C0.9%18.5hPa0V00:00:0000:00:0000:00:00
PU1XMG-162026-08-31 00:44:07-22.78350-42.84627114°33km/h27023m4.6m/s-52.5°C0.9%18.6hPa0V00:00:0000:00:0000:00:00
PU1XMG-162026-08-31 00:44:02-22.78332-42.8468098°29km/h26989m4.4m/s-52.2°C0.9%18.8hPa0V00:00:0000:00:0000:00:00
PU1XMG-162026-08-31 00:43:55-22.78319-42.84711120°22km/h26956m5.1m/s-52.1°C0.9%18.8hPa0V00:00:0000:00:0000:00:00
PU1XMG-162026-08-31 00:43:50-22.78301-42.84746114°33km/h26928m6.5m/s-52.2°C0.9%18.9hPa0V00:00:0000:00:0000:00:00
PU1XMG-162026-08-31 00:43:45-22.78292-42.84781120°16km/h26898m5.6m/s-52.2°C0.8%19.0hPa0V00:00:0000:00:0000:00:00
PU1XMG-162026-08-31 00:43:39-22.78277-42.84801143°20km/h26863m5.4m/s-52.3°C0.9%19.1hPa0V00:00:0000:00:0000:00:00
PU1XMG-162026-08-31 00:43:34-22.78263-42.84825122°24km/h26833m6.9m/s-52.4°C0.8%19.2hPa0V00:00:0000:00:0000:00:00
PU1XMG-162026-08-31 00:43:28-22.78248-42.84857144°15km/h26796m6.0m/s-53.0°C0.9%19.3hPa0V00:00:0000:00:0000:00:00
PU1XMG-162026-08-31 00:43:22-22.78232-42.84868148°18km/h26760m6.0m/s-52.9°C0.9%19.4hPa0V00:00:0000:00:0000:00:00
PU1XMG-162026-08-31 00:43:17-22.78210-42.84896127°31km/h26730m5.7m/s-52.9°C0.9%19.5hPa0V00:00:0000:00:0000:00:00
PU1XMG-162026-08-31 00:43:12-22.78185-42.84927123°27km/h26699m6.3m/s-53.0°C0.9%19.6hPa0V00:00:0000:00:0000:00:00
PU1XMG-162026-08-31 00:43:06-22.78157-42.84966131°37km/h26663m6.8m/s-53.1°C0.9%19.7hPa0V00:00:0000:00:0000:00:00
PU1XMG-162026-08-31 00:42:56-22.78090-42.85050136°46km/h26597m6.2m/s-53.2°C0.9%19.9hPa0V00:00:0000:00:0000:00:00
PU1XMG-162026-08-31 00:42:51-22.78051-42.85093141°46km/h26565m7.8m/s-53.2°C0.9%20.0hPa0V00:00:0000:00:0000:00:00
PU1XMG-162026-08-31 00:42:45-22.77992-42.85145145°55km/h26525m6.8m/s-53.3°C0.9%20.2hPa0V00:00:0000:00:0000:00:00
PU1XMG-162026-08-31 00:42:35-22.77900-42.85230147°47km/h26452m7.8m/s-53.8°C0.9%20.4hPa0V00:00:0000:00:0000:00:00
PU1XMG-162026-08-31 00:42:29-22.77849-42.85269144°42km/h26420m6.2m/s-53.8°C0.9%20.5hPa0V00:00:0000:00:0000:00:00
PU1XMG-162026-08-31 00:42:24-22.77812-42.85303135°38km/h26386m5.2m/s-53.8°C0.9%20.6hPa0V00:00:0000:00:0000:00:00
PU1XMG-162026-08-31 00:42:19-22.77771-42.85335149°46km/h26352m5.4m/s-54.1°C0.9%20.7hPa0V00:00:0000:00:0000:00:00
PU1XMG-162026-08-31 00:42:14-22.77711-42.85366146°38km/h26315m8.6m/s-54.2°C1.0%20.8hPa0V00:00:0000:00:0000:00:00
PU1XMG-162026-08-31 00:42:08-22.77686-42.85398118°31km/h26280m9.0m/s-54.1°C1.0%21.0hPa0V00:00:0000:00:0000:00:00
PU1XMG-162026-08-31 00:42:02-22.77650-42.85442146°42km/h26237m6.3m/s-54.2°C0.9%21.1hPa0V00:00:0000:00:0000:00:00
PU1XMG-162026-08-31 00:41:57-22.77607-42.85468148°37km/h26205m7.7m/s-54.3°C1.0%21.2hPa0V00:00:0000:00:0000:00:00
PU1XMG-162026-08-31 00:41:51-22.77570-42.85509136°33km/h26166m5.4m/s-54.4°C1.0%21.4hPa0V00:00:0000:00:0000:00:00
PU1XMG-162026-08-31 00:41:47-22.77534-42.85541152°38km/h26133m5.4m/s-54.4°C1.0%21.5hPa0V00:00:0000:00:0000:00:00
PU1XMG-162026-08-31 00:41:41-22.77485-42.85572159°26km/h26094m6.5m/s-54.3°C1.0%21.6hPa0V00:00:0000:00:0000:00:00
PU1XMG-162026-08-31 00:41:35-22.77455-42.85586147°26km/h26062m6.7m/s-54.2°C1.0%21.7hPa0V00:00:0000:00:0000:00:00
PU1XMG-162026-08-31 00:41:30-22.77427-42.85611140°33km/h26027m5.5m/s-54.2°C1.0%21.8hPa0V00:00:0000:00:0000:00:00
PU1XMG-162026-08-31 00:41:24-22.77390-42.85640150°29km/h25987m6.2m/s-54.1°C1.0%22.0hPa0V00:00:0000:00:0000:00:00
PU1XMG-162026-08-31 00:41:19-22.77362-42.85659144°31km/h25954m7.4m/s-54.0°C0.9%22.1hPa0V00:00:0000:00:0000:00:00
PU1XMG-162026-08-31 00:41:15-22.77336-42.85685140°26km/h25920m8.0m/s-54.1°C1.0%22.2hPa0V00:00:0000:00:0000:00:00
PU1XMG-162026-08-31 00:41:08-22.77316-42.85704141°16km/h25880m7.7m/s-54.2°C1.0%22.3hPa0V00:00:0000:00:0000:00:00
PU1XMG-162026-08-31 00:41:03-22.77290-42.85730141°27km/h25842m7.7m/s-54.2°C1.0%22.5hPa0V00:00:0000:00:0000:00:00
PU1XMG-162026-08-31 00:40:58-22.77264-42.85748136°18km/h25809m6.4m/s-54.2°C1.0%22.6hPa0V00:00:0000:00:0000:00:00
PU1XMG-162026-08-31 00:40:52-22.77244-42.85765142°20km/h25778m7.9m/s-54.1°C1.0%22.7hPa0V00:00:0000:00:0000:00:00
PU1XMG-162026-08-31 00:40:46-22.77217-42.85784142°20km/h25737m7.6m/s-54.1°C1.0%22.9hPa0V00:00:0000:00:0000:00:00
PU1XMG-162026-08-31 00:40:41-22.77192-42.85804141°16km/h25699m7.6m/s-53.9°C1.0%23.0hPa0V00:00:0000:00:0000:00:00
PU1XMG-162026-08-31 00:40:36-22.77180-42.85812156°9km/h25666m7.3m/s-53.8°C1.0%23.1hPa0V00:00:0000:00:0000:00:00
PU1XMG-162026-08-31 00:40:30-22.77168-42.85822131°16km/h25633m5.4m/s-53.7°C1.0%23.3hPa0V00:00:0000:00:0000:00:00
PU1XMG-162026-08-31 00:40:25-22.77153-42.85847130°22km/h25600m4.5m/s-53.5°C1.0%23.4hPa0V00:00:0000:00:0000:00:00
PU1XMG-162026-08-31 00:40:20-22.77140-42.85864148°5km/h25559m8.4m/s-53.3°C1.0%23.5hPa0V00:00:0000:00:0000:00:00
PU1XMG-162026-08-31 00:40:14-22.77128-42.85871144°16km/h25527m7.3m/s-53.2°C0.9%23.6hPa0V00:00:0000:00:0000:00:00
PU1XMG-162026-08-31 00:40:09-22.77111-42.85889136°15km/h25494m7.2m/s-53.2°C0.9%23.8hPa0V00:00:0000:00:0000:00:00
PU1XMG-162026-08-31 00:40:03-22.77101-42.85887206°9km/h25454m7.2m/s-53.1°C0.9%23.9hPa0V00:00:0000:00:0000:00:00
PU1XMG-162026-08-31 00:39:58-22.77082-42.85894151°20km/h25422m7.2m/s-53.0°C0.9%24.0hPa0V00:00:0000:00:0000:00:00
PU1XMG-162026-08-31 00:39:52-22.77066-42.85901201°2km/h25384m7.9m/s-53.0°C0.9%24.2hPa0V00:00:0000:00:0000:00:00
PU1XMG-162026-08-31 00:39:47-22.77062-42.85899165°13km/h25353m4.8m/s-53.0°C0.9%24.3hPa0V00:00:0000:00:0000:00:00
PU1XMG-162026-08-31 00:39:41-22.77044-42.85916141°15km/h25314m5.6m/s-52.8°C0.9%24.5hPa0V00:00:0000:00:0000:00:00
PU1XMG-162026-08-31 00:39:36-22.77037-42.85928141°9km/h25282m5.6m/s-53.0°C0.9%24.6hPa0V00:00:0000:00:0000:00:00
PU1XMG-162026-08-31 00:39:31-22.77034-42.85943101°11km/h25243m7.3m/s-53.3°C0.9%24.7hPa0V00:00:0000:00:0000:00:00
PU1XMG-162026-08-31 00:39:24-22.77032-42.85954216°4km/h25205m6.5m/s-53.3°C1.0%24.8hPa0V00:00:0000:00:0000:00:00
PU1XMG-162026-08-31 00:39:19-22.77034-42.8595277°7km/h25171m7.0m/s-53.3°C1.0%25.0hPa0V00:00:0000:00:0000:00:00
PU1XMG-162026-08-31 00:39:14-22.77044-42.8596553°13km/h25140m7.5m/s-53.4°C1.0%25.1hPa0V00:00:0000:00:0000:00:00
PU1XMG-162026-08-31 00:39:08-22.77051-42.8598045°4km/h25104m7.0m/s-53.3°C1.0%25.3hPa0V00:00:0000:00:0000:00:00
PU1XMG-162026-08-31 00:39:01-22.77054-42.8598255°11km/h25066m7.0m/s-53.3°C1.0%25.4hPa0V00:00:0000:00:0000:00:00
PU1XMG-162026-08-31 00:38:56-22.77064-42.8600448°20km/h25036m4.5m/s-53.4°C1.0%25.5hPa0V00:00:0000:00:0000:00:00
PU1XMG-162026-08-31 00:38:51-22.77071-42.8601310°4km/h25005m7.4m/s-53.4°C1.0%25.6hPa0V00:00:0000:00:0000:00:00
PU1XMG-162026-08-31 00:38:46-22.77084-42.8602949°29km/h24968m5.9m/s-53.3°C1.0%25.8hPa0V00:00:0000:00:0000:00:00
PU1XMG-162026-08-31 00:38:39-22.77110-42.8606257°20km/h24930m5.4m/s-53.3°C1.0%26.0hPa0V00:00:0000:00:0000:00:00
PU1XMG-162026-08-31 00:38:34-22.77116-42.8608260°13km/h24895m5.5m/s-53.3°C1.0%26.1hPa0V00:00:0000:00:0000:00:00
PU1XMG-162026-08-31 00:38:29-22.77140-42.8609216°26km/h24855m5.6m/s-53.2°C1.0%26.3hPa0V00:00:0000:00:0000:00:00
PU1XMG-162026-08-31 00:38:23-22.77158-42.8611065°24km/h24823m6.9m/s-53.2°C1.0%26.4hPa0V00:00:0000:00:0000:00:00
PU1XMG-162026-08-31 00:38:18-22.77168-42.8613753°22km/h24790m7.4m/s-53.2°C1.0%26.6hPa0V00:00:0000:00:0000:00:00
PU1XMG-162026-08-31 00:38:13-22.77197-42.8615536°26km/h24759m5.2m/s-53.6°C1.0%26.7hPa0V00:00:0000:00:0000:00:00
PU1XMG-162026-08-31 00:38:08-22.77216-42.8620189°31km/h24720m6.7m/s-54.0°C1.0%26.9hPa0V00:00:0000:00:0000:00:00
PU1XMG-162026-08-31 00:38:01-22.77223-42.8624269°18km/h24682m6.1m/s-54.3°C1.0%27.0hPa0V00:00:0000:00:0000:00:00
PU1XMG-162026-08-31 00:37:56-22.77233-42.8627996°22km/h24645m5.7m/s-54.7°C1.0%27.2hPa0V00:00:0000:00:0000:00:00
PU1XMG-162026-08-31 00:37:50-22.77231-42.8630585°9km/h24615m7.4m/s-55.1°C1.0%0hPa0V00:00:0000:00:0000:00:00
PU1XMG-162026-08-31 00:37:44-22.77245-42.8631452°16km/h24578m6.5m/s-55.5°C1.0%27.5hPa0V00:00:0000:00:0000:00:00
PU1XMG-162026-08-31 00:37:39-22.77251-42.8634084°26km/h24546m5.5m/s-55.8°C1.1%27.6hPa0V00:00:0000:00:0000:00:00
PU1XMG-162026-08-31 00:37:33-22.77256-42.8636956°16km/h24508m5.1m/s-56.2°C1.1%27.8hPa0V00:00:0000:00:0000:00:00
PU1XMG-162026-08-31 00:37:27-22.77260-42.8638892°20km/h24471m7.1m/s-56.5°C1.2%27.9hPa0V00:00:0000:00:0000:00:00
PU1XMG-162026-08-31 00:37:23-22.77260-42.8641982°22km/h24439m7.0m/s-56.5°C1.2%28.1hPa0V00:00:0000:00:0000:00:00
PU1XMG-162026-08-31 00:37:17-22.77271-42.8643825°11km/h24409m5.4m/s-56.4°C1.1%28.2hPa0V00:00:0000:00:0000:00:00
PU1XMG-162026-08-31 00:37:13-22.77279-42.86460110°27km/h24372m4.5m/s-56.7°C1.2%28.4hPa0V00:00:0000:00:0000:00:00
PU1XMG-162026-08-31 00:37:06-22.77271-42.86502101°22km/h24340m5.8m/s-56.8°C1.1%28.5hPa0V00:00:0000:00:0000:00:00
PU1XMG-162026-08-31 00:37:00-22.77271-42.86524111°9km/h24302m5.1m/s-57.2°C1.1%28.7hPa0V00:00:0000:00:0000:00:00
PU1XMG-162026-08-31 00:36:55-22.77259-42.86555112°26km/h24265m6.5m/s-57.8°C1.2%28.9hPa0V00:00:0000:00:0000:00:00
PU1XMG-162026-08-31 00:36:49-22.77256-42.86581116°9km/h24234m4.9m/s-58.1°C1.3%29.0hPa0V00:00:0000:00:0000:00:00
PU1XMG-162026-08-31 00:36:43-22.77245-42.86600132°18km/h24198m5.0m/s-58.3°C1.3%29.2hPa0V00:00:0000:00:0000:00:00
PU1XMG-162026-08-31 00:36:37-22.77230-42.86627108°15km/h24161m7.1m/s-58.8°C1.3%29.3hPa0V00:00:0000:00:0000:00:00
PU1XMG-162026-08-31 00:36:31-22.77228-42.86638139°4km/h24126m6.2m/s-58.8°C1.3%29.5hPa0V00:00:0000:00:0000:00:00
PU1XMG-162026-08-31 00:36:26-22.77226-42.86647107°7km/h24097m5.9m/s-58.9°C1.3%29.7hPa0V00:00:0000:00:0000:00:00
PU1XMG-162026-08-31 00:36:21-22.77226-42.86652332°4km/h24065m5.4m/s-59.1°C1.4%29.8hPa0V00:00:0000:00:0000:00:00
PU1XMG-162026-08-31 00:36:16-22.77231-42.86650361°5km/h24036m2.9m/s-59.2°C1.3%30.0hPa0V00:00:0000:00:0000:00:00
PU1XMG-162026-08-31 00:36:11-22.77237-42.8666771°16km/h24000m5.7m/s-59.1°C1.4%30.1hPa0V00:00:0000:00:0000:00:00
PU1XMG-162026-08-31 00:36:06-22.77243-42.86680358°5km/h23972m4.3m/s-59.0°C1.3%30.3hPa0V00:00:0000:00:0000:00:00
PU1XMG-162026-08-31 00:36:00-22.77247-42.8668773°15km/h23942m5.0m/s-59.2°C1.3%30.4hPa0V00:00:0000:00:0000:00:00
PU1XMG-162026-08-31 00:35:55-22.77245-42.8672597°22km/h23907m4.7m/s-59.1°C1.3%30.6hPa0V00:00:0000:00:0000:00:00
PU1XMG-162026-08-31 00:35:50-22.77245-42.8674742°11km/h23877m5.4m/s-59.1°C1.3%30.7hPa0V00:00:0000:00:0000:00:00
PU1XMG-162026-08-31 00:35:44-22.77252-42.8675973°9km/h23848m6.7m/s-59.2°C1.3%30.9hPa0V00:00:0000:00:0000:00:00
PU1XMG-162026-08-31 00:35:39-22.77249-42.8677786°9km/h23816m6.3m/s-59.2°C1.4%31.0hPa0V00:00:0000:00:0000:00:00
PU1XMG-162026-08-31 00:35:33-22.77253-42.8678230°11km/h23788m5.4m/s-59.2°C1.4%31.2hPa0V00:00:0000:00:0000:00:00
PU1XMG-162026-08-31 00:35:28-22.77266-42.8678480°4km/h23755m4.5m/s-59.2°C1.4%31.3hPa0V00:00:0000:00:0000:00:00
PU1XMG-162026-08-31 00:35:23-22.77269-42.8678614°9km/h23726m4.3m/s-59.3°C1.4%31.5hPa0V00:00:0000:00:0000:00:00
PU1XMG-162026-08-31 00:35:16-22.77295-42.86778354°18km/h23691m5.5m/s-59.4°C1.4%31.7hPa0V00:00:0000:00:0000:00:00
PU1XMG-162026-08-31 00:35:11-22.77313-42.8677833°16km/h23663m5.8m/s-59.4°C1.4%31.8hPa0V00:00:0000:00:0000:00:00
PU1XMG-162026-08-31 00:35:06-22.77333-42.8678824°22km/h23635m9.3m/s-59.3°C1.4%32.0hPa0V00:00:0000:00:0000:00:00
PU1XMG-162026-08-31 00:35:00-22.77365-42.8680132°22km/h23598m5.2m/s-59.1°C1.4%32.1hPa0V00:00:0000:00:0000:00:00
PU1XMG-162026-08-31 00:34:56-22.77382-42.8681649°22km/h23567m6.1m/s-58.9°C1.4%32.3hPa0V00:00:0000:00:0000:00:00
PU1XMG-162026-08-31 00:34:50-22.77405-42.8683328°22km/h23538m5.5m/s-58.6°C1.4%32.5hPa0V00:00:0000:00:0000:00:00
PU1XMG-162026-08-31 00:34:45-22.77432-42.8685637°20km/h23502m5.2m/s-58.3°C1.3%32.6hPa0V00:00:0000:00:0000:00:00
PU1XMG-162026-08-31 00:34:39-22.77446-42.8687551°13km/h23470m5.5m/s-58.1°C1.3%32.8hPa0V00:00:0000:00:0000:00:00
PU1XMG-162026-08-31 00:34:33-22.77458-42.8689333°18km/h23434m4.6m/s-57.8°C1.3%33.0hPa0V00:00:0000:00:0000:00:00
PU1XMG-162026-08-31 00:34:28-22.77471-42.8691486°16km/h23405m6.0m/s-57.5°C1.3%33.2hPa0V00:00:0000:00:0000:00:00
PU1XMG-162026-08-31 00:34:22-22.77477-42.8693656°11km/h23365m8.0m/s-57.4°C1.2%33.4hPa0V00:00:0000:00:0000:00:00
PU1XMG-162026-08-31 00:34:17-22.77485-42.8695765°15km/h23326m6.4m/s-57.5°C1.3%33.6hPa0V00:00:0000:00:0000:00:00
PU1XMG-162026-08-31 00:34:11-22.77487-42.86977123°9km/h23294m6.1m/s-57.4°C1.3%33.7hPa0V00:00:0000:00:0000:00:00
PU1XMG-162026-08-31 00:34:06-22.77472-42.86987158°11km/h23261m6.8m/s-57.3°C1.3%33.9hPa0V00:00:0000:00:0000:00:00
PU1XMG-162026-08-31 00:34:00-22.77471-42.8700378°11km/h23221m5.3m/s-57.2°C1.3%34.1hPa0V00:00:0000:00:0000:00:00
PU1XMG-162026-08-31 00:33:54-22.77459-42.87016166°16km/h23181m8.1m/s-57.1°C1.3%34.3hPa0V00:00:0000:00:0000:00:00
PU1XMG-162026-08-31 00:33:49-22.77438-42.87020166°15km/h23147m8.1m/s-57.0°C1.3%34.6hPa0V00:00:0000:00:0000:00:00
PU1XMG-162026-08-31 00:33:44-22.77422-42.87027163°16km/h23107m6.8m/s-57.0°C1.3%34.8hPa0V00:00:0000:00:0000:00:00
PU1XMG-162026-08-31 00:33:39-22.77395-42.87029179°26km/h23072m6.4m/s-57.0°C1.3%35.0hPa0V00:00:0000:00:0000:00:00
PU1XMG-162026-08-31 00:33:32-22.77367-42.87025179°9km/h23032m5.4m/s-57.0°C1.2%35.2hPa0V00:00:0000:00:0000:00:00
PU1XMG-162026-08-31 00:33:26-22.77353-42.87020179°18km/h22992m6.0m/s-57.0°C1.2%35.4hPa0V00:00:0000:00:0000:00:00
PU1XMG-162026-08-31 00:33:21-22.77332-42.87017190°13km/h22959m7.6m/s-56.8°C1.2%35.6hPa0V00:00:0000:00:0000:00:00
PU1XMG-162026-08-31 00:33:16-22.77325-42.8701769°4km/h22926m6.2m/s-56.8°C1.2%35.8hPa0V00:00:0000:00:0000:00:00
PU1XMG-162026-08-31 00:33:10-22.77325-42.87034101°11km/h22888m4.7m/s-56.9°C1.3%36.0hPa0V00:00:0000:00:0000:00:00
PU1XMG-162026-08-31 00:33:04-22.77314-42.87049132°5km/h22850m6.2m/s-56.8°C1.2%36.2hPa0V00:00:0000:00:0000:00:00
PU1XMG-162026-08-31 00:32:58-22.77333-42.8706474°16km/h22808m7.6m/s-56.8°C1.2%36.5hPa0V00:00:0000:00:0000:00:00
PU1XMG-162026-08-31 00:32:52-22.77307-42.87089145°20km/h22768m9.2m/s-57.0°C1.2%36.7hPa0V00:00:0000:00:0000:00:00
PU1XMG-162026-08-31 00:32:46-22.77286-42.87098149°11km/h22726m6.1m/s-57.1°C1.2%37.0hPa0V00:00:0000:00:0000:00:00
PU1XMG-162026-08-31 00:32:41-22.77279-42.87110123°11km/h22687m5.7m/s-57.3°C1.3%37.1hPa0V00:00:0000:00:0000:00:00
PU1XMG-162026-08-31 00:32:35-22.77271-42.87116178°9km/h22651m6.2m/s-57.4°C1.3%37.4hPa0V00:00:0000:00:0000:00:00
PU1XMG-162026-08-31 00:32:29-22.77252-42.87112195°13km/h22610m6.9m/s-57.8°C1.3%37.6hPa0V00:00:0000:00:0000:00:00
PU1XMG-162026-08-31 00:32:24-22.77243-42.8711892°11km/h22576m7.6m/s-57.8°C1.3%37.8hPa0V00:00:0000:00:0000:00:00
PU1XMG-162026-08-31 00:32:18-22.77244-42.87130153°9km/h22538m6.9m/s-58.2°C1.3%38.1hPa0V00:00:0000:00:0000:00:00
PU1XMG-162026-08-31 00:32:13-22.77231-42.87136141°15km/h22504m5.8m/s-58.1°C1.3%38.3hPa0V00:00:0000:00:0000:00:00
PU1XMG-162026-08-31 00:32:08-22.77226-42.8714892°9km/h22470m5.1m/s-58.1°C1.4%38.5hPa0V00:00:0000:00:0000:00:00
PU1XMG-162026-08-31 00:32:02-22.77223-42.87152132°7km/h22432m5.5m/s-58.2°C1.4%38.7hPa0V00:00:0000:00:0000:00:00
PU1XMG-162026-08-31 00:31:57-22.77218-42.87160111°11km/h22400m6.0m/s-58.3°C1.4%38.9hPa0V00:00:0000:00:0000:00:00
PU1XMG-162026-08-31 00:31:52-22.77223-42.8717148°11km/h22367m7.4m/s-58.6°C1.4%39.2hPa0V00:00:0000:00:0000:00:00
PU1XMG-162026-08-31 00:31:46-22.77232-42.8717549°4km/h22328m4.3m/s-58.5°C1.4%39.4hPa0V00:00:0000:00:0000:00:00
PU1XMG-162026-08-31 00:31:41-22.77234-42.8717841°5km/h22295m5.6m/s-58.5°C1.5%39.6hPa0V00:00:0000:00:0000:00:00
PU1XMG-162026-08-31 00:31:35-22.77253-42.8718125°18km/h22256m5.3m/s-58.5°C1.5%39.8hPa0V00:00:0000:00:0000:00:00
PU1XMG-162026-08-31 00:31:30-22.77264-42.8719887°15km/h22220m6.6m/s-58.4°C1.5%40.1hPa0V00:00:0000:00:0000:00:00
PU1XMG-162026-08-31 00:31:24-22.77268-42.8721325°13km/h22187m7.8m/s-58.2°C1.4%40.3hPa0V00:00:0000:00:0000:00:00
PU1XMG-162026-08-31 00:31:18-22.77287-42.8721855°7km/h22149m5.5m/s-58.0°C1.4%40.5hPa0V00:00:0000:00:0000:00:00
PU1XMG-162026-08-31 00:31:13-22.77288-42.8723096°7km/h22118m4.5m/s-58.1°C1.3%40.7hPa0V00:00:0000:00:0000:00:00
PU1XMG-162026-08-31 00:31:08-22.77296-42.8724238°13km/h22087m5.1m/s-58.4°C1.4%40.9hPa0V00:00:0000:00:0000:00:00
PU1XMG-162026-08-31 00:31:02-22.77308-42.8725984°11km/h22051m6.5m/s-59.2°C1.5%41.1hPa0V00:00:0000:00:0000:00:00
PU1XMG-162026-08-31 00:30:57-22.77304-42.87273113°7km/h22024m6.6m/s-59.4°C1.5%41.3hPa0V00:00:0000:00:0000:00:00
PU1XMG-162026-08-31 00:30:52-22.77310-42.8728010°7km/h21987m6.2m/s-59.4°C1.5%41.6hPa0V00:00:0000:00:0000:00:00
PU1XMG-162026-08-31 00:30:46-22.77316-42.8728367°7km/h21958m6.0m/s-59.4°C1.5%41.8hPa0V00:00:0000:00:0000:00:00
PU1XMG-162026-08-31 00:30:40-22.77320-42.8728911°11km/h21926m4.2m/s-59.5°C1.6%42.0hPa0V00:00:0000:00:0000:00:00
PU1XMG-162026-08-31 00:30:35-22.77341-42.8729210°15km/h21895m5.7m/s-59.7°C1.6%42.2hPa0V00:00:0000:00:0000:00:00
PU1XMG-162026-08-31 00:30:28-22.77360-42.87292352°9km/h21863m7.1m/s-59.5°C1.6%42.4hPa0V00:00:0000:00:0000:00:00
PU1XMG-162026-08-31 00:30:23-22.77366-42.8729369°2km/h21832m7.3m/s-59.4°C1.5%42.6hPa0V00:00:0000:00:0000:00:00
PU1XMG-162026-08-31 00:30:17-22.77366-42.8729757°5km/h21802m5.7m/s-59.8°C1.5%42.8hPa0V00:00:0000:00:0000:00:00
PU1XMG-162026-08-31 00:30:12-22.77372-42.8730345°7km/h21774m5.3m/s-60.3°C1.6%43.1hPa0V00:00:0000:00:0000:00:00
PU1XMG-162026-08-31 00:30:07-22.77372-42.87314118°13km/h21747m5.1m/s-60.7°C1.6%43.3hPa0V00:00:0000:00:0000:00:00
PU1XMG-162026-08-31 00:30:02-22.77362-42.87326155°5km/h21713m6.7m/s-60.9°C1.7%43.5hPa0V00:00:0000:00:0000:00:00
PU1XMG-162026-08-31 00:29:56-22.77365-42.8732921°5km/h21687m7.1m/s-61.1°C1.7%43.6hPa0V00:00:0000:00:0000:00:00
PU1XMG-162026-08-31 00:29:50-22.77369-42.873350km/h21654m4.0m/s-61.5°C1.7%43.9hPa0V00:00:0000:00:0000:00:00
PU1XMG-162026-08-31 00:29:45-22.77370-42.8733898°4km/h21627m3.1m/s-61.9°C1.8%44.1hPa0V00:00:0000:00:0000:00:00
PU1XMG-162026-08-31 00:29:39-22.77371-42.873442km/h21595m6.6m/s-62.0°C1.8%44.3hPa0V00:00:0000:00:0000:00:00
PU1XMG-162026-08-31 00:29:35-22.77376-42.87340306°5km/h21566m5.8m/s-62.3°C1.8%44.5hPa0V00:00:0000:00:0000:00:00
PU1XMG-162026-08-31 00:29:29-22.77381-42.8733522°5km/h21533m7.3m/s-62.3°C1.9%44.7hPa0V00:00:0000:00:0000:00:00
PU1XMG-162026-08-31 00:29:22-22.77390-42.87337350°4km/h21498m3.2m/s-62.1°C1.9%45.0hPa0V00:00:0000:00:0000:00:00
PU1XMG-162026-08-31 00:29:17-22.77391-42.87326263°9km/h21469m4.8m/s-62.1°C1.9%45.2hPa0V00:00:0000:00:0000:00:00
PU1XMG-162026-08-31 00:29:12-22.77381-42.87319159°9km/h21441m6.0m/s-62.1°C1.9%45.4hPa0V00:00:0000:00:0000:00:00
PU1XMG-162026-08-31 00:29:06-22.77369-42.87317258°7km/h21405m4.1m/s-61.9°C1.9%45.7hPa0V00:00:0000:00:0000:00:00
PU1XMG-162026-08-31 00:29:00-22.77363-42.87306203°4km/h21369m5.4m/s-62.0°C1.8%45.9hPa0V00:00:0000:00:0000:00:00
PU1XMG-162026-08-31 00:28:55-22.77360-42.87305252°5km/h21340m6.8m/s-62.4°C1.9%46.2hPa0V00:00:0000:00:0000:00:00
PU1XMG-162026-08-31 00:28:50-22.77358-42.87292275°13km/h21307m5.8m/s-62.5°C1.9%46.4hPa0V00:00:0000:00:0000:00:00
PU1XMG-162026-08-31 00:28:44-22.77361-42.87284103°4km/h21268m6.0m/s-62.4°C2.0%46.7hPa0V00:00:0000:00:0000:00:00
PU1XMG-162026-08-31 00:28:38-22.77362-42.87284209°4km/h21231m5.0m/s-62.5°C1.9%47.0hPa0V00:00:0000:00:0000:00:00
PU1XMG-162026-08-31 00:28:33-22.77360-42.87284124°5km/h21198m4.3m/s-62.8°C2.0%47.3hPa0V00:00:0000:00:0000:00:00
PU1XMG-162026-08-31 00:28:28-22.77360-42.8729297°5km/h21167m5.5m/s-62.9°C2.0%47.5hPa0V00:00:0000:00:0000:00:00
PU1XMG-162026-08-31 00:28:23-22.77361-42.87309115°13km/h21130m4.1m/s-63.0°C2.0%47.8hPa0V00:00:0000:00:0000:00:00
PU1XMG-162026-08-31 00:28:16-22.77353-42.87329122°15km/h21091m6.5m/s-63.0°C2.0%48.1hPa0V00:00:0000:00:0000:00:00
PU1XMG-162026-08-31 00:28:11-22.77341-42.87351126°22km/h21057m7.5m/s-63.0°C2.1%48.4hPa0V00:00:0000:00:0000:00:00
PU1XMG-162026-08-31 00:27:44-22.77206-42.87437159°22km/h20867m4.5m/s-63.6°C2.2%49.9hPa0V00:00:0000:00:0000:00:00
PU1XMG-162026-08-31 00:27:35-22.77188-42.87448152°9km/h20830m5.1m/s-63.4°C2.1%50.2hPa0V00:00:0000:00:0000:00:00
PU1XMG-162026-08-31 00:27:27-22.77164-42.87456152°18km/h20777m7.8m/s-63.8°C2.3%50.6hPa0V00:00:0000:00:0000:00:00
PU1XMG-162026-08-31 00:27:13-22.77140-42.87479136°15km/h20689m6.9m/s-63.5°C2.2%51.3hPa0V00:00:0000:00:0000:00:00
PU1XMG-162026-08-31 00:27:07-22.77130-42.87497102°9km/h20652m7.6m/s-63.7°C2.2%51.6hPa0V00:00:0000:00:0000:00:00
PU1XMG-162026-08-31 00:27:02-22.77122-42.87497203°11km/h20614m6.0m/s-64.1°C2.3%51.9hPa0V00:00:0000:00:0000:00:00
PU1XMG-162026-08-31 00:26:55-22.77103-42.87501135°15km/h20586m4.9m/s-64.2°C2.3%52.2hPa0V00:00:0000:00:0000:00:00
PU1XMG-162026-08-31 00:26:49-22.77091-42.87515151°5km/h20550m5.4m/s-64.1°C2.3%52.5hPa0V00:00:0000:00:0000:00:00
PU1XMG-162026-08-31 00:26:37-22.77061-42.87532137°7km/h20478m8.9m/s-64.4°C2.3%53.2hPa0V00:00:0000:00:0000:00:00
PU1XMG-162026-08-31 00:26:31-22.77058-42.87531139°2km/h20441m3.3m/s-65.0°C2.4%53.5hPa0V00:00:0000:00:0000:00:00
PU1XMG-162026-08-31 00:26:26-22.77055-42.87538127°11km/h20411m4.5m/s-65.0°C2.5%53.7hPa0V00:00:0000:00:0000:00:00
PU1XMG-162026-08-31 00:26:21-22.77046-42.87547157°11km/h20380m6.7m/s-65.1°C2.4%54.0hPa0V00:00:0000:00:0000:00:00
PU1XMG-162026-08-31 00:26:15-22.77024-42.87561137°20km/h20342m5.2m/s-65.2°C2.5%54.4hPa0V00:00:0000:00:0000:00:00
PU1XMG-162026-08-31 00:26:10-22.77006-42.87582131°16km/h20313m4.3m/s-65.3°C2.5%54.6hPa0V00:00:0000:00:0000:00:00
PU1XMG-162026-08-31 00:26:05-22.76988-42.87598143°20km/h20285m4.0m/s-65.4°C2.6%54.8hPa0V00:00:0000:00:0000:00:00
PU1XMG-162026-08-31 00:26:00-22.76960-42.87619140°26km/h20257m3.5m/s-65.3°C2.6%55.1hPa0V00:00:0000:00:0000:00:00
PU1XMG-162026-08-31 00:25:55-22.76934-42.87645142°26km/h20227m3.9m/s-65.1°C2.6%55.4hPa0V00:00:0000:00:0000:00:00
PU1XMG-162026-08-31 00:25:49-22.76892-42.87665163°35km/h20191m8.0m/s-64.9°C2.5%55.7hPa0V00:00:0000:00:0000:00:00
PU1XMG-162026-08-31 00:25:44-22.76853-42.87679158°31km/h20163m4.3m/s-64.8°C2.5%56.0hPa0V00:00:0000:00:0000:00:00
PU1XMG-162026-08-31 00:25:39-22.76820-42.87692168°29km/h20134m5.1m/s-64.6°C2.5%56.3hPa0V00:00:0000:00:0000:00:00
PU1XMG-162026-08-31 00:25:33-22.76774-42.87699175°29km/h20098m7.2m/s-64.4°C2.5%56.6hPa0V00:00:0000:00:0000:00:00
PU1XMG-162026-08-31 00:25:28-22.76739-42.87701179°22km/h20069m5.9m/s-64.4°C2.5%56.9hPa0V00:00:0000:00:0000:00:00
PU1XMG-162026-08-31 00:25:24-22.76710-42.87704181°20km/h20044m7.2m/s-64.4°C2.5%57.1hPa0V00:00:0000:00:0000:00:00
PU1XMG-162026-08-31 00:25:18-22.76683-42.87703184°18km/h20016m6.6m/s-64.2°C2.5%57.4hPa0V00:00:0000:00:0000:00:00
PU1XMG-162026-08-31 00:25:13-22.76661-42.87700208°16km/h19988m5.4m/s-64.0°C2.5%57.6hPa0V00:00:0000:00:0000:00:00
PU1XMG-162026-08-31 00:25:07-22.76639-42.87684211°18km/h19951m4.3m/s-63.7°C2.5%58.0hPa0V00:00:0000:00:0000:00:00
PU1XMG-162026-08-31 00:25:02-22.76621-42.87676192°16km/h19923m5.4m/s-63.5°C2.4%58.2hPa0V00:00:0000:00:0000:00:00
PU1XMG-162026-08-31 00:24:57-22.76604-42.87670216°16km/h19895m5.5m/s-63.3°C2.5%58.5hPa0V00:00:0000:00:0000:00:00
PU1XMG-162026-08-31 00:24:53-22.76588-42.87660193°15km/h19867m4.9m/s-63.1°C2.4%58.8hPa0V00:00:0000:00:0000:00:00
PU1XMG-162026-08-31 00:24:46-22.76572-42.87663179°7km/h19834m6.7m/s-62.9°C2.5%59.1hPa0V00:00:0000:00:0000:00:00
PU1XMG-162026-08-31 00:24:41-22.76567-42.87654266°11km/h19806m5.4m/s-62.8°C2.4%59.4hPa0V00:00:0000:00:0000:00:00
PU1XMG-162026-08-31 00:24:35-22.76562-42.87643263°4km/h19773m3.6m/s-62.8°C2.3%59.6hPa0V00:00:0000:00:0000:00:00
PU1XMG-162026-08-31 00:24:30-22.76560-42.87638288°4km/h19747m4.3m/s-62.7°C2.3%59.9hPa0V00:00:0000:00:0000:00:00
PU1XMG-162026-08-31 00:24:25-22.76565-42.87628326°11km/h19720m5.3m/s-62.8°C2.5%60.2hPa0V00:00:0000:00:0000:00:00
PU1XMG-162026-08-31 00:24:19-22.76579-42.87612303°20km/h19689m4.1m/s-63.0°C2.4%60.5hPa0V00:00:0000:00:0000:00:00
PU1XMG-162026-08-31 00:24:14-22.76590-42.87588306°16km/h19662m4.8m/s-63.1°C2.4%60.8hPa0V00:00:0000:00:0000:00:00
PU1XMG-162026-08-31 00:24:08-22.76613-42.8758018km/h19628m6.2m/s-63.0°C2.4%61.1hPa0V00:00:0000:00:0000:00:00
PU1XMG-162026-08-31 00:24:02-22.76635-42.87577344°7km/h19597m4.0m/s-62.9°C2.4%61.4hPa0V00:00:0000:00:0000:00:00
PU1XMG-162026-08-31 00:23:55-22.76651-42.87573361°16km/h19554m5.5m/s-63.6°C2.5%61.9hPa0V00:00:0000:00:0000:00:00
PU1XMG-162026-08-31 00:23:50-22.76667-42.875759km/h19525m4.8m/s-64.5°C2.8%62.2hPa0V00:00:0000:00:0000:00:00
PU1XMG-162026-08-31 00:23:45-22.76674-42.8758068°7km/h19495m6.6m/s-64.4°C2.7%62.5hPa0V00:00:0000:00:0000:00:00
PU1XMG-162026-08-31 00:23:40-22.76682-42.8759354°13km/h19465m8.0m/s-64.2°C2.8%62.8hPa0V00:00:0000:00:0000:00:00
PU1XMG-162026-08-31 00:23:34-22.76694-42.8760138°7km/h19429m4.3m/s-63.9°C2.7%63.1hPa0V00:00:0000:00:0000:00:00
PU1XMG-162026-08-31 00:23:29-22.76706-42.8760938°13km/h19401m4.0m/s-63.6°C2.7%63.4hPa0V00:00:0000:00:0000:00:00
PU1XMG-162026-08-31 00:23:23-22.76728-42.8762324°18km/h19367m7.7m/s-63.3°C2.6%63.8hPa0V00:00:0000:00:0000:00:00
PU1XMG-162026-08-31 00:23:18-22.76743-42.8762911km/h19337m7.0m/s-63.4°C2.6%64.1hPa0V00:00:0000:00:0000:00:00
PU1XMG-162026-08-31 00:23:12-22.76765-42.8763212°24km/h19301m5.4m/s-63.6°C2.7%64.5hPa0V00:00:0000:00:0000:00:00
PU1XMG-162026-08-31 00:23:06-22.76797-42.8764211°18km/h19266m7.3m/s-63.6°C2.8%64.8hPa0V00:00:0000:00:0000:00:00
PU1XMG-162026-08-31 00:23:01-22.76821-42.8765127°22km/h19238m6.8m/s-63.6°C2.7%65.1hPa0V00:00:0000:00:0000:00:00
PU1XMG-162026-08-31 00:22:56-22.76844-42.8766943°20km/h19206m6.6m/s-63.3°C2.8%65.5hPa0V00:00:0000:00:0000:00:00
PU1XMG-162026-08-31 00:22:50-22.76866-42.8769461°24km/h19172m5.4m/s-63.2°C2.8%65.8hPa0V00:00:0000:00:0000:00:00
PU1XMG-162026-08-31 00:22:45-22.76884-42.8772356°22km/h19142m5.3m/s-63.4°C2.8%66.2hPa0V00:00:0000:00:0000:00:00
PU1XMG-162026-08-31 00:22:39-22.76906-42.8774758°22km/h19109m5.3m/s-63.5°C2.8%66.5hPa0V00:00:0000:00:0000:00:00
PU1XMG-162026-08-31 00:22:34-22.76918-42.8777874°26km/h19080m5.8m/s-63.4°C2.8%66.9hPa0V00:00:0000:00:0000:00:00
PU1XMG-162026-08-31 00:22:29-22.76932-42.8782671°29km/h19041m5.6m/s-63.4°C2.9%67.2hPa0V00:00:0000:00:0000:00:00
PU1XMG-162026-08-31 00:22:22-22.76944-42.8787379°35km/h19006m7.4m/s-63.5°C3.0%67.6hPa0V00:00:0000:00:0000:00:00
PU1XMG-162026-08-31 00:22:16-22.76954-42.8793583°33km/h18967m7.9m/s-63.5°C3.0%68.1hPa0V00:00:0000:00:0000:00:00
PU1XMG-162026-08-31 00:22:11-22.76951-42.87982100°38km/h18931m10.6m/s-63.6°C3.1%68.5hPa0V00:00:0000:00:0000:00:00
PU1XMG-162026-08-31 00:22:06-22.76940-42.88042103°47km/h18897m6.5m/s-63.5°C3.1%68.9hPa0V00:00:0000:00:0000:00:00
PU1XMG-162026-08-31 00:22:01-22.76924-42.88095113°37km/h18865m6.5m/s-63.5°C3.2%69.2hPa0V00:00:0000:00:0000:00:00
PU1XMG-162026-08-31 00:21:49-22.76874-42.88222118°42km/h18785m7.8m/s-63.3°C3.1%70.1hPa0V00:00:0000:00:0000:00:00
PU1XMG-162026-08-31 00:21:43-22.76842-42.88286119°51km/h18743m7.2m/s-63.1°C3.2%70.6hPa0V00:00:0000:00:0000:00:00
PU1XMG-162026-08-31 00:21:25-22.76733-42.88497106°37km/h18616m6.2m/s-63.7°C3.5%72.1hPa0V00:00:0000:00:0000:00:00
PU1XMG-162026-08-31 00:21:19-22.76720-42.88549115°38km/h18575m5.6m/s-63.5°C3.5%72.6hPa0V00:00:0000:00:0000:00:00
PU1XMG-162026-08-31 00:21:12-22.76689-42.88610114°40km/h18538m6.3m/s-64.2°C3.8%73.0hPa0V00:00:0000:00:0000:00:00
PU1XMG-162026-08-31 00:21:07-22.76681-42.8865891°31km/h18506m5.5m/s-64.2°C3.9%73.4hPa0V00:00:0000:00:0000:00:00
PU1XMG-162026-08-31 00:21:03-22.76673-42.88715109°42km/h18468m5.3m/s-64.0°C3.7%73.9hPa0V00:00:0000:00:0000:00:00
PU1XMG-162026-08-31 00:20:53-22.76656-42.8879182°29km/h18419m7.4m/s-63.8°C3.9%74.5hPa0V00:00:0000:00:0000:00:00
PU1XMG-162026-08-31 00:20:46-22.76661-42.8885198°37km/h18374m6.6m/s-63.9°C3.9%75.1hPa0V00:00:0000:00:0000:00:00
PU1XMG-162026-08-31 00:20:40-22.76658-42.8890882°37km/h18333m5.7m/s-64.9°C4.4%75.5hPa0V00:00:0000:00:0000:00:00
PU1XMG-162026-08-31 00:20:35-22.76677-42.8895561°44km/h18301m5.5m/s-64.8°C4.3%76.0hPa0V00:00:0000:00:0000:00:00
PU1XMG-162026-08-31 00:20:29-22.76707-42.8901767°40km/h18264m7.5m/s-64.7°C4.4%76.4hPa0V00:00:0000:00:0000:00:00
PU1XMG-162026-08-31 00:20:22-22.76739-42.8908263°40km/h18219m6.1m/s-64.6°C4.5%77.0hPa0V00:00:0000:00:0000:00:00
PU1XMG-162026-08-31 00:20:16-22.76768-42.8914766°46km/h18181m5.4m/s-65.5°C4.6%77.4hPa0V00:00:0000:00:0000:00:00
PU1XMG-162026-08-31 00:20:11-22.76788-42.8919867°29km/h18151m6.8m/s-65.9°C5.0%77.9hPa0V00:00:0000:00:0000:00:00
PU1XMG-162026-08-31 00:20:05-22.76804-42.8923366°29km/h18111m5.5m/s-65.8°C5.0%78.3hPa0V00:00:0000:00:0000:00:00
PU1XMG-162026-08-31 00:20:00-22.76822-42.8927364°33km/h18081m5.6m/s-65.7°C5.0%78.7hPa0V00:00:0000:00:0000:00:00
PU1XMG-162026-08-31 00:19:54-22.76848-42.8931346°29km/h18043m5.2m/s-66.4°C5.3%79.2hPa0V00:00:0000:00:0000:00:00
PU1XMG-162026-08-31 00:19:43-22.76906-42.8939458°26km/h17977m5.7m/s-66.5°C5.6%80.1hPa0V00:00:0000:00:0000:00:00
PU1XMG-162026-08-31 00:19:37-22.76933-42.8943251°31km/h17942m7.4m/s-66.5°C5.6%80.5hPa0V00:00:0000:00:0000:00:00
PU1XMG-162026-08-31 00:19:31-22.76960-42.8946349°20km/h17909m7.3m/s-67.2°C6.3%81.0hPa0V00:00:0000:00:0000:00:00
PU1XMG-162026-08-31 00:19:25-22.76968-42.8948481°15km/h17876m7.1m/s-67.2°C6.6%81.4hPa0V00:00:0000:00:0000:00:00
PU1XMG-162026-08-31 00:19:20-22.76971-42.8950278°13km/h17847m6.4m/s-67.0°C6.8%81.8hPa0V00:00:0000:00:0000:00:00
PU1XMG-162026-08-31 00:19:15-22.76973-42.8951683°7km/h17819m5.2m/s-66.8°C6.9%82.2hPa0V00:00:0000:00:0000:00:00
PU1XMG-162026-08-31 00:19:10-22.76978-42.8952973°16km/h17790m6.3m/s-66.6°C7.1%82.6hPa0V00:00:0000:00:0000:00:00
PU1XMG-162026-08-31 00:19:04-22.76994-42.8955749°15km/h17754m5.2m/s-66.3°C7.5%83.1hPa0V00:00:0000:00:0000:00:00
PU1XMG-162026-08-31 00:18:59-22.77001-42.8956533°5km/h17726m6.2m/s-66.1°C7.8%83.4hPa0V00:00:0000:00:0000:00:00
PU1XMG-162026-08-31 00:18:53-22.77009-42.8957758°15km/h17693m5.9m/s-65.8°C7.9%83.9hPa0V00:00:0000:00:0000:00:00
PU1XMG-162026-08-31 00:18:47-22.77019-42.8959134°4km/h17661m5.4m/s-65.5°C8.2%84.4hPa0V00:00:0000:00:0000:00:00
PU1XMG-162026-08-31 00:18:42-22.77023-42.8959257°9km/h17631m4.0m/s-65.4°C8.6%84.8hPa0V00:00:0000:00:0000:00:00
PU1XMG-162026-08-31 00:18:37-22.77033-42.8960654°15km/h17606m3.3m/s-65.2°C8.6%85.1hPa0V00:00:0000:00:0000:00:00
PU1XMG-162026-08-31 00:18:31-22.77045-42.8961548°13km/h17577m3.8m/s-65.1°C8.4%85.6hPa0V00:00:0000:00:0000:00:00
PU1XMG-162026-08-31 00:18:25-22.77059-42.8963039°15km/h17545m6.1m/s-66.0°C9.0%86.0hPa0V00:00:0000:00:0000:00:00
PU1XMG-162026-08-31 00:18:20-22.77077-42.8964546°24km/h17518m5.0m/s-66.4°C9.4%86.4hPa0V00:00:0000:00:0000:00:00
PU1XMG-162026-08-31 00:18:13-22.77103-42.8967951°27km/h17481m4.6m/s-68.3°C10.9%86.9hPa0V00:00:0000:00:0000:00:00
PU1XMG-162026-08-31 00:18:08-22.77129-42.8971454°37km/h17453m7.5m/s-68.9°C11.3%87.4hPa0V00:00:0000:00:0000:00:00
PU1XMG-162026-08-31 00:18:03-22.77156-42.8975658°42km/h17424m6.8m/s-69.0°C11.3%87.8hPa0V00:00:0000:00:0000:00:00
PU1XMG-162026-08-31 00:17:57-22.77188-42.8981864°49km/h17392m4.1m/s-69.8°C11.9%88.2hPa0V00:00:0000:00:0000:00:00
PU1XMG-162026-08-31 00:17:51-22.77225-42.8989158°53km/h17360m4.2m/s-70.4°C12.1%88.7hPa0V00:00:0000:00:0000:00:00
PU1XMG-162026-08-31 00:17:40-22.77279-42.9004378°55km/h17299m5.0m/s-72.2°C14.0%89.6hPa0V00:00:0000:00:0000:00:00
PU1XMG-162026-08-31 00:17:34-22.77308-42.9013072°58km/h17263m5.9m/s-73.1°C15.1%90.2hPa0V00:00:0000:00:0000:00:00
PU1XMG-162026-08-31 00:17:28-22.77320-42.9022389°55km/h17227m6.6m/s-73.7°C16.5%90.7hPa0V00:00:0000:00:0000:00:00
PU1XMG-162026-08-31 00:17:20-22.77336-42.9032773°42km/h17181m5.8m/s-73.6°C17.2%91.5hPa0V00:00:0000:00:0000:00:00
PU1XMG-162026-08-31 00:17:14-22.77349-42.9039084°40km/h17145m6.1m/s-73.4°C17.2%92.0hPa0V00:00:0000:00:0000:00:00
PU1XMG-162026-08-31 00:17:06-22.77361-42.9048480°33km/h17088m6.8m/s-73.1°C17.5%92.9hPa0V00:00:0000:00:0000:00:00
PU1XMG-162026-08-31 00:16:57-22.77377-42.9055980°38km/h17038m5.2m/s-72.8°C17.5%93.7hPa0V00:00:0000:00:0000:00:00
PU1XMG-162026-08-31 00:16:51-22.77386-42.9061785°29km/h17001m6.4m/s-72.5°C17.3%94.4hPa0V00:00:0000:00:0000:00:00
PU1XMG-162026-08-31 00:16:45-22.77390-42.9066390°26km/h16961m7.5m/s-72.3°C16.5%95.0hPa0V00:00:0000:00:0000:00:00
PU1XMG-162026-08-31 00:16:39-22.77390-42.9070087°20km/h16923m7.2m/s-72.1°C16.0%95.6hPa0V00:00:0000:00:0000:00:00
PU1XMG-162026-08-31 00:16:32-22.77399-42.9075980°27km/h16873m6.9m/s-73.0°C16.7%96.4hPa0V00:00:0000:00:0000:00:00
PU1XMG-162026-08-31 00:16:25-22.77408-42.9079974°24km/h16835m7.0m/s-73.5°C17.3%97.0hPa0V00:00:0000:00:0000:00:00
PU1XMG-162026-08-31 00:16:20-22.77420-42.9083268°27km/h16800m6.8m/s-74.0°C18.2%97.6hPa0V00:00:0000:00:0000:00:00
PU1XMG-162026-08-31 00:16:15-22.77432-42.9086577°27km/h16770m4.0m/s-74.4°C19.3%98.1hPa0V00:00:0000:00:0000:00:00
PU1XMG-162026-08-31 00:16:09-22.77433-42.9091297°31km/h16730m7.2m/s-74.5°C19.6%98.8hPa0V00:00:0000:00:0000:00:00
PU1XMG-162026-08-31 00:16:05-22.77434-42.9095386°31km/h16696m6.3m/s-74.3°C19.4%99.3hPa0V00:00:0000:00:0000:00:00
PU1XMG-162026-08-31 00:15:55-22.77434-42.9103796°37km/h16636m6.7m/s-74.2°C19.6%100.3hPa0V00:00:0000:00:0000:00:00
PU1XMG-162026-08-31 00:15:51-22.77431-42.9108093°27km/h16604m5.9m/s-73.9°C19.4%100.9hPa0V00:00:0000:00:0000:00:00
PU1XMG-162026-08-31 00:15:40-22.77422-42.9116096°33km/h16538m6.2m/s-73.5°C18.9%102.0hPa0V00:00:0000:00:0000:00:00
PU1XMG-162026-08-31 00:12:22-22.78520-42.9331276°93km/h15260m8.1m/s-68.3°C21.4%126.6hPa0V00:00:0000:00:0000:00:00
PU1XMG-162026-08-31 00:12:12-22.78579-42.9355375°88km/h15190m6.4m/s-68.3°C25.4%128.1hPa0V00:00:0000:00:0000:00:00
PU1XMG-162026-08-31 00:12:07-22.78610-42.9368175°108km/h15160m6.3m/s-68.0°C23.6%128.7hPa0V00:00:0000:00:0000:00:00
PU1XMG-162026-08-31 00:11:52-22.78693-42.9404586°106km/h15058m9.6m/s-67.1°C20.2%130.8hPa0V00:00:0000:00:0000:00:00
PU1XMG-162026-08-31 00:11:47-22.78717-42.9417879°82km/h15010m9.3m/s-66.7°C19.1%131.9hPa0V00:00:0000:00:0000:00:00
PU1XMG-162026-08-31 00:11:36-22.78752-42.9441486°102km/h14939m5.7m/s-66.2°C16.1%133.5hPa0V00:00:0000:00:0000:00:00
PU1XMG-162026-08-31 00:11:28-22.78797-42.9459691°84km/h14864m10.0m/s-66.0°C13.9%135.1hPa0V00:00:0000:00:0000:00:00
PU1XMG-162026-08-31 00:10:14-22.78591-42.9629397°80km/h14378m5.8m/s-62.5°C16.2%146.3hPa0V00:00:0000:00:0000:00:00
PU1XMG-162026-08-31 00:10:06-22.78558-42.96480101°97km/h14331m8.6m/s-62.0°C17.3%147.4hPa0V00:00:0000:00:0000:00:00
PU1XMG-162026-08-31 00:09:54-22.78516-42.96736106°88km/h14248m7.1m/s-61.3°C20.3%149.4hPa0V00:00:0000:00:0000:00:00
PU1XMG-162026-08-31 00:09:41-22.78503-42.9699589°60km/h14135m11.1m/s-61.0°C23.2%152.1hPa0V00:00:0000:00:0000:00:00
PU1XMG-162026-08-31 00:09:16-22.78523-42.9748497°75km/h13961m6.6m/s-60.0°C28.1%156.5hPa0V00:00:0000:00:0000:00:00
PU1XMG-162026-08-31 00:09:06-22.78514-42.9770288°88km/h13898m5.4m/s-59.4°C27.4%158.1hPa0V00:00:0000:00:0000:00:00
PU1XMG-162026-08-31 00:08:56-22.78505-42.9792691°78km/h13837m7.1m/s-59.1°C30.3%159.7hPa0V00:00:0000:00:0000:00:00
PU1XMG-162026-08-31 00:08:49-22.78501-42.98100103°104km/h13785m7.9m/s-58.6°C27.6%160.8hPa0V00:00:0000:00:0000:00:00
PU1XMG-162026-08-31 00:08:44-22.78481-42.9823986°73km/h13739m7.5m/s-58.4°C28.8%162.0hPa0V00:00:0000:00:0000:00:00
PU1XMG-162026-08-31 00:08:37-22.78478-42.9836398°82km/h13695m6.6m/s-58.2°C29.5%163.3hPa0V00:00:0000:00:0000:00:00
PU1XMG-162026-08-31 00:08:33-22.78475-42.9849293°99km/h13663m6.4m/s-59.1°C31.2%164.1hPa0V00:00:0000:00:0000:00:00
PU1XMG-162026-08-31 00:08:27-22.78466-42.9859184°53km/h13629m10.1m/s-58.8°C29.7%165.0hPa0V00:00:0000:00:0000:00:00
PU1XMG-162026-08-31 00:08:21-22.78489-42.9873594°110km/h13576m7.8m/s-58.4°C27.9%166.4hPa0V00:00:0000:00:0000:00:00
PU1XMG-162026-08-31 00:08:16-22.78496-42.9886667°62km/h13521m12.4m/s-58.0°C25.7%167.7hPa0V00:00:0000:00:0000:00:00
PU1XMG-162026-08-31 00:08:10-22.78529-42.9898885°117km/h13474m11.9m/s-57.6°C24.6%169.1hPa0V00:00:0000:00:0000:00:00
PU1XMG-162026-08-31 00:08:04-22.78532-42.9914477°82km/h13426m6.9m/s-57.9°C24.7%170.3hPa0V00:00:0000:00:0000:00:00
PU1XMG-162026-08-31 00:07:59-22.78568-42.9927580°113km/h13385m6.3m/s-58.2°C26.2%171.5hPa0V00:00:0000:00:0000:00:00
PU1XMG-162026-08-31 00:07:52-22.78606-42.9948280°110km/h13338m6.3m/s-58.1°C25.8%172.7hPa0V00:00:0000:00:0000:00:00
PU1XMG-162026-08-31 00:07:31-22.78766-43.0010268°120km/h13237m6.4m/s-57.5°C26.6%175.5hPa0V00:00:0000:00:0000:00:00
PU1XMG-162026-08-31 00:07:20-22.78863-43.0045680°137km/h13165m5.4m/s-56.8°C26.3%177.6hPa0V00:00:0000:00:0000:00:00
PU1XMG-162026-08-31 00:07:14-22.78925-43.0067171°137km/h13125m10.6m/s-56.5°C25.6%178.7hPa0V00:00:0000:00:0000:00:00
PU1XMG-162026-08-31 00:07:02-22.79019-43.0106479°141km/h13058m8.8m/s-57.1°C28.4%180.5hPa0V00:00:0000:00:0000:00:00
PU1XMG-162026-08-31 00:06:50-22.79161-43.0148970°133km/h12995m4.8m/s-57.2°C31.6%182.4hPa0V00:00:0000:00:0000:00:00
PU1XMG-162026-08-31 00:06:44-22.79236-43.0169268°133km/h12972m5.5m/s-57.1°C32.3%183.0hPa0V00:00:0000:00:0000:00:00
PU1XMG-162026-08-31 00:05:49-22.79864-43.0334965°110km/h12700m5.7m/s-56.5°C58.4%191.1hPa0V00:00:0000:00:0000:00:00
PU1XMG-162026-08-31 00:05:43-22.79926-43.0350570°102km/h12674m4.1m/s-56.4°C60.4%191.9hPa0V00:00:0000:00:0000:00:00
PU1XMG-162026-08-31 00:05:36-22.79994-43.0368368°104km/h12640m4.0m/s-56.4°C60.7%192.9hPa0V00:00:0000:00:0000:00:00
PU1XMG-162026-08-31 00:04:58-22.80333-43.0473674°117km/h12407m9.3m/s-54.3°C65.1%200.0hPa0V00:00:0000:00:0000:00:00
PU1XMG-162026-08-31 00:04:52-22.80374-43.0487277°91km/h12370m5.3m/s-53.9°C67.7%201.3hPa0V00:00:0000:00:0000:00:00
PU1XMG-162026-08-31 00:04:46-22.80425-43.0505673°115km/h12325m7.5m/s-53.5°C64.1%202.7hPa0V00:00:0000:00:0000:00:00
PU1XMG-162026-08-31 00:04:40-22.80475-43.0522273°99km/h12280m8.3m/s-53.0°C65.6%204.1hPa0V00:00:0000:00:0000:00:00
PU1XMG-162026-08-31 00:04:35-22.80515-43.0535874°88km/h12244m6.0m/s-52.7°C68.1%205.2hPa0V00:00:0000:00:0000:00:00
PU1XMG-162026-08-31 00:04:28-22.80563-43.0550973°106km/h12198m7.5m/s-52.3°C65.5%206.6hPa0V00:00:0000:00:0000:00:00
PU1XMG-162026-08-31 00:04:23-22.80596-43.0566182°106km/h12166m6.1m/s-52.0°C64.7%207.7hPa0V00:00:0000:00:0000:00:00
PU1XMG-162026-08-31 00:04:16-22.80635-43.0583974°95km/h12110m5.1m/s-51.7°C64.5%209.5hPa0V00:00:0000:00:0000:00:00
PU1XMG-162026-08-31 00:04:10-22.80672-43.0596776°102km/h12080m5.2m/s-51.5°C64.1%210.4hPa0V00:00:0000:00:0000:00:00
PU1XMG-162026-08-31 00:04:05-22.80705-43.0610776°104km/h12049m6.0m/s-51.2°C67.1%211.4hPa0V00:00:0000:00:0000:00:00
PU1XMG-162026-08-31 00:04:00-22.80754-43.0625868°88km/h12016m4.6m/s-51.0°C64.6%212.5hPa0V00:00:0000:00:0000:00:00
PU1XMG-162026-08-31 00:03:54-22.80788-43.0638480°99km/h11982m9.4m/s-50.6°C61.1%213.5hPa0V00:00:0000:00:0000:00:00
PU1XMG-162026-08-31 00:03:50-22.80817-43.0651775°108km/h11951m4.7m/s-50.3°C64.3%214.6hPa0V00:00:0000:00:0000:00:00
PU1XMG-162026-08-31 00:03:45-22.80856-43.0665876°108km/h11924m5.4m/s-50.1°C66.8%215.6hPa0V00:00:0000:00:0000:00:00
PU1XMG-162026-08-31 00:03:39-22.80901-43.0680671°88km/h11889m5.0m/s-49.9°C65.1%216.6hPa0V00:00:0000:00:0000:00:00
PU1XMG-162026-08-31 00:03:34-22.80938-43.0694173°113km/h11851m9.7m/s-49.6°C65.4%217.9hPa0V00:00:0000:00:0000:00:00
PU1XMG-162026-08-31 00:03:30-22.80988-43.0711674°111km/h11811m7.7m/s-49.3°C66.8%219.2hPa0V00:00:0000:00:0000:00:00
PU1XMG-162026-08-31 00:03:22-22.81029-43.0725772°106km/h11776m5.6m/s-49.0°C66.0%220.4hPa0V00:00:0000:00:0000:00:00
PU1XMG-162026-08-31 00:03:18-22.81094-43.0745373°110km/h11727m6.4m/s-48.6°C64.8%222.1hPa0V00:00:0000:00:0000:00:00
PU1XMG-162026-08-31 00:03:12-22.81138-43.0759372°106km/h11696m7.2m/s-48.3°C65.7%223.2hPa0V00:00:0000:00:0000:00:00
PU1XMG-162026-08-31 00:03:04-22.81184-43.0776275°113km/h11663m4.8m/s-48.2°C66.1%224.3hPa0V00:00:0000:00:0000:00:00
PU1XMG-162026-08-31 00:02:54-22.81633-43.0909171°106km/h11334m7.0m/s-45.6°C70.1%235.7hPa0V00:00:0000:00:0000:00:00
PU1XMG-162026-08-31 00:02:43-22.81691-43.0924866°100km/h11296m5.9m/s-45.4°C70.2%236.9hPa0V00:00:0000:00:0000:00:00
PU1XMG-162026-08-31 00:02:34-22.81753-43.0939967°102km/h11253m9.5m/s-45.0°C67.6%238.4hPa0V00:00:0000:00:0000:00:00
PU1XMG-162026-08-31 00:02:24-22.81803-43.0952668°99km/h11218m7.2m/s-44.8°C69.1%239.7hPa0V00:00:0000:00:0000:00:00
PU1XMG-162026-08-31 00:02:19-22.81866-43.0966965°97km/h11182m7.5m/s-44.5°C69.6%241.0hPa0V00:00:0000:00:0000:00:00
PU1XMG-162026-08-31 00:02:12-22.81917-43.0979369°100km/h11151m7.1m/s-44.2°C68.9%242.2hPa0V00:00:0000:00:0000:00:00
PU1XMG-162026-08-31 00:02:04-22.81966-43.0991466°95km/h11118m8.5m/s-43.9°C69.3%243.5hPa0V00:00:0000:00:0000:00:00
PU1XMG-162026-08-31 00:01:53-22.82043-43.1005659°100km/h11078m4.0m/s-43.6°C68.2%244.8hPa0V00:00:0000:00:0000:00:00
PU1XMG-162026-08-31 00:01:45-22.82099-43.1020369°99km/h11033m7.6m/s-43.3°C66.1%246.4hPa0V00:00:0000:00:0000:00:00
PU1XMG-162026-08-31 00:01:36-22.82145-43.1032568°95km/h10997m7.3m/s-43.0°C64.9%247.7hPa0V00:00:0000:00:0000:00:00
PU1XMG-162026-08-31 00:01:28-22.82206-43.1046767°89km/h10958m6.5m/s-42.7°C66.2%249.2hPa0V00:00:0000:00:0000:00:00
PU1XMG-162026-08-31 00:01:23-22.82245-43.1058270°93km/h10930m4.7m/s-42.5°C67.0%250.3hPa0V00:00:0000:00:0000:00:00
PU1XMG-162026-08-31 00:01:14-22.82305-43.1072765°95km/h10894m4.3m/s-42.2°C68.2%251.6hPa0V00:00:0000:00:0000:00:00
PU1XMG-162026-08-31 00:01:10-22.82352-43.1086078°80km/h10862m8.2m/s-42.0°C70.8%252.9hPa0V00:00:0000:00:0000:00:00
PU1XMG-162026-08-31 00:00:59-22.82388-43.1101067°99km/h10820m8.9m/s-41.7°C69.5%254.4hPa0V00:00:0000:00:0000:00:00
PU1XMG-162026-08-31 00:00:53-22.82448-43.1114675°95km/h10769m8.6m/s-41.2°C68.9%256.3hPa0V00:00:0000:00:0000:00:00
PU1XMG-162026-08-31 00:00:45-22.82469-43.1126483°86km/h10727m3.6m/s-40.8°C69.6%257.8hPa0V00:00:0000:00:0000:00:00
PU1XMG-162026-08-31 00:00:43-22.82497-43.1137272°84km/h10688m10.2m/s-40.5°C67.2%259.2hPa0V00:00:0000:00:0000:00:00
PU1XMG-162026-08-31 00:00:35-22.82533-43.1150874°86km/h10643m8.0m/s-40.1°C68.0%260.9hPa0V00:00:0000:00:0000:00:00
PU1XMG-162026-08-31 00:00:32-22.82570-43.1164576°84km/h10608m8.1m/s-39.8°C68.6%262.4hPa0V00:00:0000:00:0000:00:00
PU1XMG-162026-08-31 00:00:27-22.82592-43.1175680°82km/h10576m5.9m/s-39.5°C70.3%263.7hPa0V00:00:0000:00:0000:00:00
PU1XMG-162026-08-31 00:00:20-22.82622-43.1186869°84km/h10546m3.5m/s-39.3°C72.2%264.8hPa0V00:00:0000:00:0000:00:00
PU1XMG-162026-08-31 00:00:09-22.82682-43.1211071°82km/h10477m5.4m/s-38.7°C69.9%267.5hPa0V00:00:0000:00:0000:00:00
PU1XMG-162026-08-30 23:59:56-22.82737-43.1233179°91km/h10419m4.8m/s-38.2°C67.4%269.7hPa0V00:00:0000:00:0000:00:00
PU1XMG-162026-08-30 23:59:50-22.82775-43.1246471°82km/h10385m6.4m/s-37.8°C65.6%271.0hPa0V00:00:0000:00:0000:00:00
PU1XMG-162026-08-30 23:59:46-22.82804-43.1257377°88km/h10359m7.9m/s-37.6°C65.6%272.1hPa0V00:00:0000:00:0000:00:00
PU1XMG-162026-08-30 23:59:39-22.82841-43.1271069°82km/h10325m4.8m/s-37.3°C67.3%273.5hPa0V00:00:0000:00:0000:00:00
PU1XMG-162026-08-30 23:59:33-22.82878-43.1282877°82km/h10282m8.6m/s-37.0°C66.1%275.1hPa0V00:00:0000:00:0000:00:00
PU1XMG-162026-08-30 23:59:28-22.82906-43.1294175°86km/h10246m5.6m/s-36.6°C67.1%276.5hPa0V00:00:0000:00:0000:00:00
PU1XMG-162026-08-30 23:59:22-22.82937-43.1306278°78km/h10214m4.8m/s-36.3°C65.9%277.8hPa0V00:00:0000:00:0000:00:00
PU1XMG-162026-08-30 23:59:17-22.82963-43.1317474°86km/h10183m5.5m/s-36.1°C68.1%279.0hPa0V00:00:0000:00:0000:00:00
PU1XMG-162026-08-30 23:59:06-22.83037-43.1338271°77km/h10123m10.6m/s-35.5°C64.1%281.4hPa0V00:00:0000:00:0000:00:00
PU1XMG-162026-08-30 23:59:01-22.83071-43.1348777°86km/h10091m6.3m/s-35.2°C66.1%282.8hPa0V00:00:0000:00:0000:00:00
PU1XMG-162026-08-30 23:58:56-22.83087-43.1359785°75km/h10067m6.0m/s-35.1°C67.0%283.8hPa0V00:00:0000:00:0000:00:00
PU1XMG-162026-08-30 23:58:51-22.83107-43.1368474°60km/h10038m9.4m/s-34.8°C65.7%284.8hPa0V00:00:0000:00:0000:00:00
PU1XMG-162026-08-30 23:58:45-22.83143-43.1381462°91km/h9997m6.0m/s-34.5°C68.9%286.6hPa0V00:00:0000:00:0000:00:00
PU1XMG-162026-08-30 23:58:40-22.83194-43.1391573°77km/h9968m7.5m/s-34.3°C69.5%287.8hPa0V00:00:0000:00:0000:00:00
PU1XMG-162026-08-30 23:58:34-22.83228-43.1403468°73km/h9928m8.6m/s-34.1°C71.2%289.6hPa0V00:00:0000:00:0000:00:00
PU1XMG-162026-08-30 23:58:29-22.83277-43.1412662°78km/h9892m3.4m/s-33.9°C73.2%290.9hPa0V00:00:0000:00:0000:00:00
PU1XMG-162026-08-30 23:58:19-22.83344-43.1432165°78km/h9819m9.2m/s-33.3°C73.3%294.0hPa0V00:00:0000:00:0000:00:00
PU1XMG-162026-08-30 23:58:13-22.83387-43.1440369°62km/h9783m6.7m/s-33.1°C74.2%295.5hPa0V00:00:0000:00:0000:00:00
PU1XMG-162026-08-30 23:58:08-22.83424-43.1450261°84km/h9750m5.6m/s-32.8°C73.4%296.9hPa0V00:00:0000:00:0000:00:00
PU1XMG-162026-08-30 23:58:03-22.83481-43.1460162°71km/h9711m5.1m/s-32.5°C73.6%298.5hPa0V00:00:0000:00:0000:00:00
PU1XMG-162026-08-30 23:57:57-22.83521-43.1468658°73km/h9679m6.6m/s-32.3°C73.7%299.9hPa0V00:00:0000:00:0000:00:00
PU1XMG-162026-08-30 23:57:46-22.83645-43.1487951°60km/h9607m5.4m/s-31.7°C74.7%302.9hPa0V00:00:0000:00:0000:00:00
PU1XMG-162026-08-30 23:57:40-22.83698-43.1497055°82km/h9567m10.5m/s-31.4°C71.8%304.5hPa0V00:00:0000:00:0000:00:00
PU1XMG-162026-08-30 23:57:34-22.83767-43.1507067°60km/h9529m7.0m/s-31.1°C71.7%306.3hPa0V00:00:0000:00:0000:00:00
PU1XMG-162026-08-30 23:57:28-22.83810-43.1515560°64km/h9489m6.9m/s-30.8°C73.7%308.0hPa0V00:00:0000:00:0000:00:00
PU1XMG-162026-08-30 23:57:23-22.83845-43.1523160°69km/h9458m6.8m/s-30.5°C72.8%309.4hPa0V00:00:0000:00:0000:00:00
PU1XMG-162026-08-30 23:57:17-22.83910-43.1531757°66km/h9421m7.3m/s-30.2°C71.8%311.1hPa0V00:00:0000:00:0000:00:00
PU1XMG-162026-08-30 23:57:11-22.83962-43.1540964°69km/h9385m6.7m/s-30.0°C73.3%312.7hPa0V00:00:0000:00:0000:00:00
PU1XMG-162026-08-30 23:57:07-22.84007-43.1548361°53km/h9353m6.9m/s-29.8°C73.4%314.0hPa0V00:00:0000:00:0000:00:00
PU1XMG-162026-08-30 23:57:00-22.84061-43.1557348°69km/h9317m4.8m/s-29.5°C73.1%315.6hPa0V00:00:0000:00:0000:00:00
PU1XMG-162026-08-30 23:56:54-22.84101-43.1566575°60km/h9278m5.5m/s-29.1°C71.9%317.3hPa0V00:00:0000:00:0000:00:00
PU1XMG-162026-08-30 23:56:49-22.84150-43.1575144°51km/h9240m8.4m/s-28.8°C69.9%319.0hPa0V00:00:0000:00:0000:00:00
PU1XMG-162026-08-30 23:56:43-22.84193-43.1580456°62km/h9212m5.2m/s-28.5°C71.4%320.2hPa0V00:00:0000:00:0000:00:00
PU1XMG-162026-08-30 23:56:37-22.84238-43.1588666°62km/h9174m7.0m/s-28.3°C70.5%321.9hPa0V00:00:0000:00:0000:00:00
PU1XMG-162026-08-30 23:56:31-22.84286-43.1597471°55km/h9139m5.5m/s-28.0°C71.2%323.4hPa0V00:00:0000:00:0000:00:00
PU1XMG-162026-08-30 23:56:26-22.84315-43.1604261°49km/h9113m5.7m/s-27.8°C73.3%324.6hPa0V00:00:0000:00:0000:00:00
PU1XMG-162026-08-30 23:56:21-22.84346-43.1611562°68km/h9088m6.7m/s-27.6°C74.0%325.9hPa0V00:00:0000:00:0000:00:00
PU1XMG-162026-08-30 23:56:17-22.84381-43.1618173°51km/h9060m6.6m/s-27.3°C74.7%327.1hPa0V00:00:0000:00:0000:00:00
PU1XMG-162026-08-30 23:56:10-22.84421-43.1626956°51km/h9024m6.3m/s-27.1°C74.4%328.8hPa0V00:00:0000:00:0000:00:00
PU1XMG-162026-08-30 23:56:05-22.84456-43.1635359°69km/h8986m5.8m/s-26.8°C74.4%330.4hPa0V00:00:0000:00:0000:00:00
PU1XMG-162026-08-30 23:55:58-22.84503-43.1643368°57km/h8950m8.1m/s-26.4°C73.7%332.2hPa0V00:00:0000:00:0000:00:00
PU1XMG-162026-08-30 23:55:52-22.84540-43.1651472°51km/h8911m7.9m/s-26.1°C73.3%333.8hPa0V00:00:0000:00:0000:00:00
PU1XMG-162026-08-30 23:55:46-22.84580-43.1661356°64km/h8879m5.3m/s-25.8°C73.3%335.4hPa0V00:00:0000:00:0000:00:00
PU1XMG-162026-08-30 23:55:41-22.84610-43.1668072°57km/h8852m5.5m/s-25.6°C73.8%336.7hPa0V00:00:0000:00:0000:00:00
PU1XMG-162026-08-30 23:55:36-22.84649-43.1676367°64km/h8818m6.3m/s-25.3°C72.6%338.3hPa0V00:00:0000:00:0000:00:00
PU1XMG-162026-08-30 23:55:29-22.84685-43.1685279°44km/h8781m8.5m/s-25.0°C71.7%339.9hPa0V00:00:0000:00:0000:00:00
PU1XMG-162026-08-30 23:55:23-22.84714-43.1693157°57km/h8738m4.5m/s-24.7°C72.0%341.8hPa0V00:00:0000:00:0000:00:00
PU1XMG-162026-08-30 23:55:19-22.84749-43.1700663°66km/h8708m7.7m/s-24.5°C72.7%343.3hPa0V00:00:0000:00:0000:00:00
PU1XMG-162026-08-30 23:55:13-22.84773-43.1707388°53km/h8683m4.6m/s-24.2°C72.8%344.5hPa0V00:00:0000:00:0000:00:00
PU1XMG-162026-08-30 23:55:07-22.84801-43.1718062°68km/h8649m5.0m/s-24.1°C75.2%346.0hPa0V00:00:0000:00:0000:00:00
PU1XMG-162026-08-30 23:55:03-22.84834-43.1724371°44km/h8625m5.4m/s-23.9°C77.4%347.1hPa0V00:00:0000:00:0000:00:00
PU1XMG-162026-08-30 23:54:57-22.84861-43.1730859°57km/h8601m3.5m/s-23.8°C79.0%348.3hPa0V00:00:0000:00:0000:00:00
PU1XMG-162026-08-30 23:54:52-22.84875-43.1738495°62km/h8569m3.9m/s-23.7°C79.0%349.9hPa0V00:00:0000:00:0000:00:00
PU1XMG-162026-08-30 23:54:46-22.84884-43.1747872°69km/h8547m6.3m/s-23.5°C78.2%351.0hPa0V00:00:0000:00:0000:00:00
PU1XMG-162026-08-30 23:54:41-22.84908-43.1754989°47km/h8520m5.8m/s-23.4°C77.8%352.1hPa0V00:00:0000:00:0000:00:00
PU1XMG-162026-08-30 23:54:35-22.84914-43.1765077°64km/h8487m6.2m/s-23.2°C78.9%353.9hPa0V00:00:0000:00:0000:00:00
PU1XMG-162026-08-30 23:54:30-22.84928-43.1773785°75km/h8457m7.2m/s-23.0°C78.7%355.3hPa0V00:00:0000:00:0000:00:00
PU1XMG-162026-08-30 23:54:24-22.84947-43.1784284°49km/h8417m1.3m/s-22.8°C79.7%357.1hPa0V00:00:0000:00:0000:00:00
PU1XMG-162026-08-30 23:54:20-22.84965-43.1791074°69km/h8387m4.4m/s-22.6°C79.0%358.6hPa0V00:00:0000:00:0000:00:00
PU1XMG-162026-08-30 23:54:13-22.84975-43.1802292°55km/h8356m5.2m/s-22.3°C80.0%360.3hPa0V00:00:0000:00:0000:00:00
PU1XMG-162026-08-30 23:54:08-22.84990-43.1810379°75km/h8331m4.1m/s-22.1°C79.2%361.4hPa0V00:00:0000:00:0000:00:00
PU1XMG-162026-08-30 23:54:02-22.85001-43.1821196°53km/h8289m4.7m/s-21.8°C81.4%363.6hPa0V00:00:0000:00:0000:00:00
PU1XMG-162026-08-30 23:53:57-22.85003-43.1829690°78km/h8259m5.3m/s-21.7°C82.9%365.2hPa0V00:00:0000:00:0000:00:00
PU1XMG-162026-08-30 23:53:52-22.85012-43.1840776°73km/h8227m7.5m/s-21.5°C81.1%366.7hPa0V00:00:0000:00:0000:00:00
PU1XMG-162026-08-30 23:53:47-22.85027-43.1849598°55km/h8193m6.6m/s-21.3°C82.6%368.5hPa0V00:00:0000:00:0000:00:00
PU1XMG-162026-08-30 23:53:41-22.85027-43.1857586°57km/h8162m7.1m/s-21.1°C84.3%370.0hPa0V00:00:0000:00:0000:00:00
PU1XMG-162026-08-30 23:53:36-22.85024-43.1866391°75km/h8129m10.4m/s-20.9°C83.0%371.6hPa0V00:00:0000:00:0000:00:00
PU1XMG-162026-08-30 23:53:30-22.85025-43.18773106°62km/h8087m7.8m/s-20.6°C83.4%373.7hPa0V00:00:0000:00:0000:00:00
PU1XMG-162026-08-30 23:53:24-22.85007-43.1885688°57km/h8047m5.9m/s-20.3°C83.0%375.7hPa0V00:00:0000:00:0000:00:00
PU1XMG-162026-08-30 23:53:20-22.85000-43.18942104°60km/h8010m7.6m/s-20.0°C81.1%377.4hPa0V00:00:0000:00:0000:00:00
PU1XMG-162026-08-30 23:53:13-22.84982-43.19025107°49km/h7971m2.4m/s-19.7°C84.0%379.5hPa0V00:00:0000:00:0000:00:00
PU1XMG-162026-08-30 23:53:07-22.84975-43.19119102°71km/h7931m5.5m/s-19.5°C82.1%381.5hPa0V00:00:0000:00:0000:00:00
PU1XMG-162026-08-30 23:53:01-22.84942-43.19212108°42km/h7892m6.9m/s-19.3°C82.0%383.2hPa0V00:00:0000:00:0000:00:00
PU1XMG-162026-08-30 23:52:56-22.84934-43.19283104°64km/h7865m4.3m/s-19.1°C82.6%384.7hPa0V00:00:0000:00:0000:00:00
PU1XMG-162026-08-30 23:52:51-22.84903-43.19363102°44km/h7835m5.2m/s-18.9°C82.9%386.5hPa0V00:00:0000:00:0000:00:00
PU1XMG-162026-08-30 23:52:45-22.84884-43.19439121°62km/h7807m6.2m/s-18.7°C82.4%388.0hPa0V00:00:0000:00:0000:00:00
PU1XMG-162026-08-30 23:52:40-22.84856-43.1950498°44km/h7770m6.4m/s-18.6°C81.8%389.7hPa0V00:00:0000:00:0000:00:00
PU1XMG-162026-08-30 23:52:34-22.84833-43.19573126°53km/h7744m6.2m/s-18.5°C83.3%391.1hPa0V00:00:0000:00:0000:00:00
PU1XMG-162026-08-30 23:52:29-22.84802-43.19637112°55km/h7716m4.9m/s-18.4°C84.4%392.8hPa0V00:00:0000:00:0000:00:00
PU1XMG-162026-08-30 23:52:22-22.84754-43.19706135°35km/h7682m6.5m/s-18.2°C84.2%394.5hPa0V00:00:0000:00:0000:00:00
PU1XMG-162026-08-30 23:52:17-22.84736-43.19756112°55km/h7650m7.3m/s-18.3°C84.4%396.1hPa0V00:00:0000:00:0000:00:00
PU1XMG-162026-08-30 23:52:12-22.84700-43.19820123°49km/h7619m6.5m/s-18.1°C84.9%397.8hPa0V00:00:0000:00:0000:00:00
PU1XMG-162026-08-30 23:52:06-22.84657-43.19899130°55km/h7580m6.3m/s-17.9°C85.3%399.8hPa0V00:00:0000:00:0000:00:00
PU1XMG-162026-08-30 23:52:00-22.84628-43.19966112°44km/h7541m6.1m/s-17.6°C85.7%402.0hPa0V00:00:0000:00:0000:00:00
PU1XMG-162026-08-30 23:51:55-22.84607-43.20019121°42km/h7500m10.9m/s-17.3°C84.7%404.1hPa0V00:00:0000:00:0000:00:00
PU1XMG-162026-08-30 23:51:50-22.84564-43.20081118°62km/h7458m6.6m/s-17.1°C85.2%406.4hPa0V00:00:0000:00:0000:00:00
PU1XMG-162026-08-30 23:51:44-22.84530-43.20159127°58km/h7415m9.0m/s-16.9°C85.5%408.6hPa0V00:00:0000:00:0000:00:00
PU1XMG-162026-08-30 23:51:39-22.84478-43.20222126°60km/h7379m9.7m/s-16.9°C85.0%410.4hPa0V00:00:0000:00:0000:00:00
PU1XMG-162026-08-30 23:51:33-22.84433-43.20299138°46km/h7336m8.8m/s-16.7°C85.0%412.9hPa0V00:00:0000:00:0000:00:00
PU1XMG-162026-08-30 23:51:28-22.84395-43.20345129°58km/h7303m5.7m/s-16.4°C84.9%414.8hPa0V00:00:0000:00:0000:00:00
PU1XMG-162026-08-30 23:51:23-22.84322-43.20403153°42km/h7267m5.6m/s-16.3°C84.2%416.8hPa0V00:00:0000:00:0000:00:00
PU1XMG-162026-08-30 23:51:17-22.84284-43.20436142°38km/h7230m8.9m/s-16.0°C83.0%418.7hPa0V00:00:0000:00:0000:00:00
PU1XMG-162026-08-30 23:51:11-22.84223-43.20490136°51km/h7193m5.7m/s-15.9°C83.3%420.8hPa0V00:00:0000:00:0000:00:00
PU1XMG-162026-08-30 23:51:05-22.84159-43.20540140°58km/h7156m6.1m/s-15.7°C84.5%422.9hPa0V00:00:0000:00:0000:00:00
PU1XMG-162026-08-30 23:50:59-22.84103-43.20594148°58km/h7115m5.0m/s-15.5°C86.8%425.3hPa0V00:00:0000:00:0000:00:00
PU1XMG-162026-08-30 23:50:54-22.84034-43.20638140°60km/h7080m6.3m/s-15.2°C87.6%427.2hPa0V00:00:0000:00:0000:00:00
PU1XMG-162026-08-30 23:50:49-22.83977-43.20675163°58km/h7045m6.7m/s-15.2°C87.8%429.2hPa0V00:00:0000:00:0000:00:00
PU1XMG-162026-08-30 23:50:44-22.83903-43.20719138°62km/h7015m5.2m/s-15.0°C86.8%430.8hPa0V00:00:0000:00:0000:00:00
PU1XMG-162026-08-30 23:50:39-22.83836-43.20780155°64km/h6974m5.8m/s-14.7°C84.5%433.3hPa0V00:00:0000:00:0000:00:00
PU1XMG-162026-08-30 23:50:32-22.83762-43.20811145°44km/h6930m7.7m/s-14.5°C81.7%435.7hPa0V00:00:0000:00:0000:00:00
PU1XMG-162026-08-30 23:50:28-22.83707-43.20856149°58km/h6896m4.8m/s-15.1°C73.3%437.6hPa0V00:00:0000:00:0000:00:00
PU1XMG-162026-08-30 23:50:16-22.83575-43.20909181°40km/h6816m3.3m/s-15.4°C60.1%442.4hPa0V00:00:0000:00:0000:00:00
PU1XMG-162026-08-30 23:50:12-22.83525-43.20912179°33km/h6782m9.0m/s-15.1°C58.0%444.3hPa0V00:00:0000:00:0000:00:00
PU1XMG-162026-08-30 23:50:06-22.83474-43.20925152°42km/h6749m7.5m/s-14.9°C56.9%446.4hPa0V00:00:0000:00:0000:00:00
PU1XMG-162026-08-30 23:49:55-22.83394-43.20951152°27km/h6678m8.0m/s-14.7°C55.7%450.6hPa0V00:00:0000:00:0000:00:00
PU1XMG-162026-08-30 23:49:49-22.83352-43.20969162°20km/h6629m6.1m/s-14.3°C52.4%453.3hPa0V00:00:0000:00:0000:00:00
PU1XMG-162026-08-30 23:49:43-22.83324-43.20997140°29km/h6592m7.5m/s-14.0°C51.9%455.7hPa0V00:00:0000:00:0000:00:00
PU1XMG-162026-08-30 23:49:38-22.83297-43.21020131°31km/h6550m5.5m/s-13.7°C51.1%458.2hPa0V00:00:0000:00:0000:00:00
PU1XMG-162026-08-30 23:49:34-22.83291-43.21048117°11km/h6514m5.6m/s-13.4°C49.5%460.2hPa0V00:00:0000:00:0000:00:00
PU1XMG-162026-08-30 23:49:27-22.83258-43.21081121°42km/h6477m6.9m/s-13.0°C47.6%462.6hPa0V00:00:0000:00:0000:00:00
PU1XMG-162026-08-30 23:49:21-22.83246-43.21126115°22km/h6438m6.5m/s-12.6°C46.7%464.9hPa0V00:00:0000:00:0000:00:00
PU1XMG-162026-08-30 23:49:15-22.83231-43.21164126°16km/h6397m8.2m/s-12.2°C45.5%467.5hPa0V00:00:0000:00:0000:00:00
PU1XMG-162026-08-30 23:49:09-22.83212-43.2119699°20km/h6352m6.5m/s-11.8°C44.8%470.2hPa0V00:00:0000:00:0000:00:00
PU1XMG-162026-08-30 23:49:04-22.83200-43.21227110°29km/h6315m8.2m/s-11.6°C43.9%472.5hPa0V00:00:0000:00:0000:00:00
PU1XMG-162026-08-30 23:48:58-22.83178-43.21262127°29km/h6265m7.3m/s-11.1°C43.2%475.4hPa0V00:00:0000:00:0000:00:00
PU1XMG-162026-08-30 23:48:53-22.83154-43.21284153°31km/h6229m7.0m/s-10.8°C43.1%477.6hPa0V00:00:0000:00:0000:00:00
PU1XMG-162026-08-30 23:48:47-22.83132-43.21318129°11km/h6186m7.3m/s-10.4°C41.7%480.3hPa0V00:00:0000:00:0000:00:00
PU1XMG-162026-08-30 23:48:42-22.83112-43.21335127°33km/h6160m6.3m/s-10.2°C42.7%482.2hPa0V00:00:0000:00:0000:00:00
PU1XMG-162026-08-30 23:48:36-22.83093-43.21373114°24km/h6111m9.5m/s-9.7°C42.4%485.0hPa0V00:00:0000:00:0000:00:00
PU1XMG-162026-08-30 23:48:30-22.83063-43.21400136°24km/h6072m8.6m/s-9.4°C42.1%487.4hPa0V00:00:0000:00:0000:00:00
PU1XMG-162026-08-30 23:48:24-22.83028-43.21449132°35km/h6036m5.3m/s-9.0°C41.1%489.9hPa0V00:00:0000:00:0000:00:00
PU1XMG-162026-08-30 23:48:19-22.83004-43.21478126°27km/h6001m6.4m/s-8.6°C38.8%492.0hPa0V00:00:0000:00:0000:00:00
PU1XMG-162026-08-30 23:48:14-22.82983-43.21502151°29km/h5978m4.2m/s-8.4°C39.3%493.4hPa0V00:00:0000:00:0000:00:00
PU1XMG-162026-08-30 23:48:10-22.82951-43.21530125°38km/h5957m3.4m/s-8.2°C37.8%494.8hPa0V00:00:0000:00:0000:00:00
PU1XMG-162026-08-30 23:48:03-22.82928-43.21573118°24km/h5926m6.7m/s-8.1°C45.5%496.7hPa0V00:00:0000:00:0000:00:00
PU1XMG-162026-08-30 23:47:59-22.82914-43.21599150°24km/h5899m4.9m/s-7.9°C47.3%498.4hPa0V00:00:0000:00:0000:00:00
PU1XMG-162026-08-30 23:47:52-22.82873-43.21617150°26km/h5871m5.1m/s-7.7°C49.8%500.3hPa0V00:00:0000:00:0000:00:00
PU1XMG-162026-08-30 23:47:46-22.82842-43.21636159°20km/h5835m4.8m/s-7.6°C57.9%502.6hPa0V00:00:0000:00:0000:00:00
PU1XMG-162026-08-30 23:47:41-22.82806-43.21668146°37km/h5798m4.9m/s-7.7°C56.8%504.9hPa0V00:00:0000:00:0000:00:00
PU1XMG-162026-08-30 23:47:34-22.82780-43.21704119°35km/h5763m5.9m/s-7.5°C68.0%507.0hPa0V00:00:0000:00:0000:00:00
PU1XMG-162026-08-30 23:47:29-22.82749-43.21734141°22km/h5737m4.2m/s-7.6°C79.5%508.8hPa0V00:00:0000:00:0000:00:00
PU1XMG-162026-08-30 23:47:24-22.82723-43.21770130°29km/h5701m6.4m/s-7.5°C79.1%511.3hPa0V00:00:0000:00:0000:00:00
PU1XMG-162026-08-30 23:47:17-22.82693-43.21799131°31km/h5673m5.2m/s-7.6°C79.5%513.2hPa0V00:00:0000:00:0000:00:00
PU1XMG-162026-08-30 23:47:12-22.82665-43.21842135°33km/h5645m4.6m/s-7.9°C97.0%515.0hPa0V00:00:0000:00:0000:00:00
PU1XMG-162026-08-30 23:47:08-22.82636-43.21876119°40km/h5618m6.3m/s-7.7°C98.8%516.9hPa0V00:00:0000:00:0000:00:00
PU1XMG-162026-08-30 23:47:02-22.82607-43.21924127°38km/h5582m7.2m/s-7.4°C96.3%519.0hPa0V00:00:0000:00:0000:00:00
PU1XMG-162026-08-30 23:46:56-22.82592-43.21962122°22km/h5549m5.5m/s-7.2°C94.8%521.1hPa0V00:00:0000:00:0000:00:00
PU1XMG-162026-08-30 23:46:50-22.82561-43.21999136°38km/h5521m5.5m/s-6.9°C95.2%523.2hPa0V00:00:0000:00:0000:00:00
PU1XMG-162026-08-30 23:46:45-22.82540-43.22039116°44km/h5487m5.7m/s-6.5°C92.2%525.4hPa0V00:00:0000:00:0000:00:00
PU1XMG-162026-08-30 23:46:40-22.82506-43.22086129°35km/h5463m4.7m/s-6.3°C94.3%527.2hPa0V00:00:0000:00:0000:00:00
PU1XMG-162026-08-30 23:46:34-22.82471-43.22147135°53km/h5429m4.7m/s-6.2°C96.1%529.5hPa0V00:00:0000:00:0000:00:00
PU1XMG-162026-08-30 23:46:30-22.82435-43.22194121°33km/h5402m4.8m/s-5.9°C95.3%531.3hPa0V00:00:0000:00:0000:00:00
PU1XMG-162026-08-30 23:46:24-22.82403-43.22237117°38km/h5366m7.2m/s-5.7°C93.4%533.7hPa0V00:00:0000:00:0000:00:00
PU1XMG-162026-08-30 23:46:18-22.82383-43.22283127°42km/h5336m8.8m/s-5.4°C90.9%535.7hPa0V00:00:0000:00:0000:00:00
PU1XMG-162026-08-30 23:46:13-22.82344-43.22331130°33km/h5298m6.9m/s-5.1°C88.8%538.3hPa0V00:00:0000:00:0000:00:00
PU1XMG-162026-08-30 23:46:07-22.82313-43.22379130°49km/h5266m6.6m/s-4.8°C87.5%540.4hPa0V00:00:0000:00:0000:00:00
PU1XMG-162026-08-30 23:46:02-22.82270-43.22413141°33km/h5234m5.1m/s-4.5°C86.1%542.6hPa0V00:00:0000:00:0000:00:00
PU1XMG-162026-08-30 23:45:57-22.82240-43.22463122°49km/h5208m6.0m/s-4.3°C86.0%544.3hPa0V00:00:0000:00:0000:00:00
PU1XMG-162026-08-30 23:45:51-22.82206-43.22510132°42km/h5170m4.8m/s-4.2°C88.7%547.0hPa0V00:00:0000:00:0000:00:00
PU1XMG-162026-08-30 23:45:46-22.82171-43.22559134°44km/h5141m5.8m/s-4.4°C96.3%548.9hPa0V00:00:0000:00:0000:00:00
PU1XMG-162026-08-30 23:45:40-22.82127-43.22598130°46km/h5111m5.8m/s-4.1°C95.4%551.0hPa0V00:00:0000:00:0000:00:00
PU1XMG-162026-08-30 23:45:34-22.82089-43.22656139°44km/h5078m6.1m/s-3.9°C95.6%553.5hPa0V00:00:0000:00:0000:00:00
PU1XMG-162026-08-30 23:45:29-22.82035-43.22710140°37km/h5043m5.2m/s-3.6°C95.8%555.8hPa0V00:00:0000:00:0000:00:00
PU1XMG-162026-08-30 23:45:23-22.81998-43.22748126°47km/h5015m5.8m/s-3.4°C95.6%558.0hPa0V00:00:0000:00:0000:00:00
PU1XMG-162026-08-30 23:45:18-22.81969-43.22791138°38km/h4983m5.9m/s-3.2°C95.5%560.1hPa0V00:00:0000:00:0000:00:00
PU1XMG-162026-08-30 23:45:14-22.81924-43.22838142°51km/h4952m8.4m/s-3.0°C95.7%562.3hPa0V00:00:0000:00:0000:00:00
PU1XMG-162026-08-30 23:45:08-22.81868-43.22871149°44km/h4920m6.4m/s-2.7°C95.4%564.4hPa0V00:00:0000:00:0000:00:00
PU1XMG-162026-08-30 23:44:58-22.81787-43.22968125°49km/h4862m3.6m/s-2.4°C96.0%568.7hPa0V00:00:0000:00:0000:00:00
PU1XMG-162026-08-30 23:44:52-22.81744-43.23013145°47km/h4829m4.8m/s-2.2°C96.4%571.1hPa0V00:00:0000:00:0000:00:00
PU1XMG-162026-08-30 23:44:45-22.81686-43.23067128°44km/h4794m5.9m/s-2.1°C96.9%573.5hPa0V00:00:0000:00:0000:00:00
PU1XMG-162026-08-30 23:44:40-22.81644-43.23119145°51km/h4769m5.1m/s-2.0°C96.5%575.2hPa0V00:00:0000:00:0000:00:00
PU1XMG-162026-08-30 23:44:34-22.81593-43.23158143°40km/h4732m5.3m/s-1.8°C95.8%578.0hPa0V00:00:0000:00:0000:00:00
PU1XMG-162026-08-30 23:44:29-22.81546-43.23214142°37km/h4700m4.3m/s-1.6°C93.2%580.2hPa0V00:00:0000:00:0000:00:00
PU1XMG-162026-08-30 23:44:22-22.81511-43.23253128°40km/h4666m5.4m/s-1.3°C89.2%582.7hPa0V00:00:0000:00:0000:00:00
PU1XMG-162026-08-30 23:44:17-22.81478-43.23291127°40km/h4636m8.1m/s-1.2°C87.8%584.8hPa0V00:00:0000:00:0000:00:00
PU1XMG-162026-08-30 23:44:12-22.81448-43.23328146°26km/h4610m6.2m/s-1.0°C83.6%586.9hPa0V00:00:0000:00:0000:00:00
PU1XMG-162026-08-30 23:44:07-22.81425-43.23361131°35km/h4582m6.3m/s-1.0°C78.9%589.0hPa0V00:00:0000:00:0000:00:00
PU1XMG-162026-08-30 23:44:01-22.81397-43.23387133°29km/h4549m7.1m/s-0.8°C79.4%591.4hPa0V00:00:0000:00:0000:00:00
PU1XMG-162026-08-30 23:43:56-22.81367-43.23436131°35km/h4513m8.5m/s-0.6°C82.3%594.0hPa0V00:00:0000:00:0000:00:00
PU1XMG-162026-08-30 23:43:49-22.81333-43.23456138°13km/h4475m5.3m/s-0.4°C88.1%596.8hPa0V00:00:0000:00:0000:00:00
PU1XMG-162026-08-30 23:43:43-22.81306-43.23477160°26km/h4438m5.6m/s-0.1°C84.8%599.7hPa0V00:00:0000:00:0000:00:00
PU1XMG-162026-08-30 23:43:38-22.81278-43.23503113°9km/h4402m6.6m/s0.2°C77.9%602.3hPa0V00:00:0000:00:0000:00:00
PU1XMG-162026-08-30 23:43:31-22.81265-43.23516164°18km/h4364m6.0m/s0.5°C80.7%605.1hPa0V00:00:0000:00:0000:00:00
PU1XMG-162026-08-30 23:43:26-22.81248-43.23527118°9km/h4336m5.5m/s0.8°C74.4%607.2hPa0V00:00:0000:00:0000:00:00
PU1XMG-162026-08-30 23:43:21-22.81242-43.23537149°20km/h4316m5.3m/s0.9°C77.0%608.7hPa0V00:00:0000:00:0000:00:00
PU1XMG-162026-08-30 23:43:14-22.81203-43.23552184°27km/h4285m4.0m/s1.1°C76.4%611.0hPa0V00:00:0000:00:0000:00:00
PU1XMG-162026-08-30 23:43:09-22.81173-43.23557115°18km/h4254m7.0m/s1.3°C80.4%613.3hPa0V00:00:0000:00:0000:00:00
PU1XMG-162026-08-30 23:43:02-22.81163-43.23562186°16km/h4222m6.2m/s1.5°C87.5%616.1hPa0V00:00:0000:00:0000:00:00
PU1XMG-162026-08-30 23:42:57-22.81151-43.2358385°20km/h4193m5.8m/s1.7°C87.9%618.3hPa0V00:00:0000:00:0000:00:00
PU1XMG-162026-08-30 23:42:52-22.81143-43.23611142°16km/h4154m3.7m/s2.0°C85.7%621.1hPa0V00:00:0000:00:0000:00:00
PU1XMG-162026-08-30 23:42:45-22.81135-43.23627212°4km/h4119m6.8m/s2.3°C83.3%623.8hPa0V00:00:0000:00:0000:00:00
PU1XMG-162026-08-30 23:42:40-22.81120-43.23629124°15km/h4091m6.4m/s2.6°C81.7%626.1hPa0V00:00:0000:00:0000:00:00
PU1XMG-162026-08-30 23:42:35-22.81104-43.23637196°18km/h4054m8.2m/s2.9°C80.9%628.8hPa0V00:00:0000:00:0000:00:00
PU1XMG-162026-08-30 23:42:29-22.81093-43.23645110°18km/h4026m5.6m/s3.0°C81.6%631.0hPa0V00:00:0000:00:0000:00:00
PU1XMG-162026-08-30 23:42:24-22.81090-43.23648302°9km/h3994m5.1m/s3.3°C82.2%633.3hPa0V00:00:0000:00:0000:00:00
PU1XMG-162026-08-30 23:42:18-22.81075-43.23637184°20km/h3967m4.4m/s3.5°C82.1%635.4hPa0V00:00:0000:00:0000:00:00
PU1XMG-162026-08-30 23:42:12-22.81064-43.23637192°5km/h3941m5.8m/s3.7°C82.3%637.5hPa0V00:00:0000:00:0000:00:00
PU1XMG-162026-08-30 23:42:07-22.81041-43.23646161°9km/h3911m4.1m/s3.9°C84.0%639.9hPa0V00:00:0000:00:0000:00:00
PU1XMG-162026-08-30 23:42:01-22.81037-43.23654162°11km/h3875m6.7m/s4.2°C82.4%642.6hPa0V00:00:0000:00:0000:00:00
PU1XMG-162026-08-30 23:41:56-22.81023-43.23666120°11km/h3847m6.6m/s4.4°C83.9%644.8hPa0V00:00:0000:00:0000:00:00
PU1XMG-162026-08-30 23:41:49-22.81009-43.23671134°13km/h3815m3.7m/s4.7°C84.4%647.5hPa0V00:00:0000:00:0000:00:00
PU1XMG-162026-08-30 23:41:43-22.81005-43.23673333°13km/h3780m7.1m/s4.9°C84.7%650.0hPa0V00:00:0000:00:0000:00:00
PU1XMG-162026-08-30 23:41:38-22.81005-43.23673142°20km/h3751m6.3m/s5.2°C84.2%652.6hPa0V00:00:0000:00:0000:00:00
PU1XMG-162026-08-30 23:41:33-22.80988-43.23702108°7km/h3719m8.7m/s5.4°C84.6%655.6hPa0V00:00:0000:00:0000:00:00
PU1XMG-162026-08-30 23:41:27-22.80983-43.23710140°4km/h3683m9.5m/s5.6°C87.8%658.1hPa0V00:00:0000:00:0000:00:00
PU1XMG-162026-08-30 23:41:21-22.80972-43.23722137°18km/h3649m7.6m/s5.8°C89.8%660.9hPa0V00:00:0000:00:0000:00:00
PU1XMG-162026-08-30 23:41:16-22.80958-43.23731149°18km/h3619m4.9m/s5.9°C91.0%663.2hPa0V00:00:0000:00:0000:00:00
PU1XMG-162026-08-30 23:41:10-22.80923-43.23747142°29km/h3588m4.3m/s6.1°C90.0%665.6hPa0V00:00:0000:00:0000:00:00
PU1XMG-162026-08-30 23:41:05-22.80898-43.23763188°13km/h3558m5.9m/s6.3°C89.8%668.0hPa0V00:00:0000:00:0000:00:00
PU1XMG-162026-08-30 23:40:59-22.80882-43.23765169°16km/h3525m4.9m/s6.6°C89.4%670.5hPa0V00:00:0000:00:0000:00:00
PU1XMG-162026-08-30 23:40:55-22.80869-43.23773140°16km/h3497m3.1m/s6.8°C87.4%673.0hPa0V00:00:0000:00:0000:00:00
PU1XMG-162026-08-30 23:40:49-22.80843-43.23783132°20km/h3463m4.3m/s7.2°C80.6%676.0hPa0V00:00:0000:00:0000:00:00
PU1XMG-162026-08-30 23:40:43-22.80833-43.23799148°5km/h3429m7.2m/s7.5°C77.3%678.7hPa0V00:00:0000:00:0000:00:00
PU1XMG-162026-08-30 23:40:38-22.80827-43.23806187°13km/h3397m4.9m/s7.8°C74.7%681.4hPa0V00:00:0000:00:0000:00:00
PU1XMG-162026-08-30 23:40:31-22.80808-43.23805172°16km/h3368m5.2m/s8.1°C73.9%684.0hPa0V00:00:0000:00:0000:00:00
PU1XMG-162026-08-30 23:40:26-22.80788-43.23802160°15km/h3338m7.5m/s8.4°C73.2%686.4hPa0V00:00:0000:00:0000:00:00
PU1XMG-162026-08-30 23:40:21-22.80783-43.23810262°7km/h3304m6.2m/s8.7°C69.4%689.1hPa0V00:00:0000:00:0000:00:00
PU1XMG-162026-08-30 23:40:15-22.80762-43.23801177°24km/h3279m4.9m/s8.8°C67.2%691.1hPa0V00:00:0000:00:0000:00:00
PU1XMG-162026-08-30 23:40:11-22.80744-43.23803202°13km/h3251m6.0m/s9.0°C67.3%693.5hPa0V00:00:0000:00:0000:00:00
PU1XMG-162026-08-30 23:40:05-22.80725-43.23802158°9km/h3216m6.2m/s9.3°C67.1%696.2hPa0V00:00:0000:00:0000:00:00
PU1XMG-162026-08-30 23:39:59-22.80708-43.23788239°5km/h3179m4.7m/s9.6°C66.6%699.4hPa0V00:00:0000:00:0000:00:00
PU1XMG-162026-08-30 23:39:53-22.80689-43.23795168°16km/h3152m6.7m/s9.8°C63.8%701.7hPa0V00:00:0000:00:0000:00:00
PU1XMG-162026-08-30 23:39:46-22.80687-43.23789239°15km/h3117m4.8m/s10.1°C63.8%704.5hPa0V00:00:0000:00:0000:00:00
PU1XMG-162026-08-30 23:39:40-22.80664-43.23783188°4km/h3089m6.3m/s10.3°C63.1%707.1hPa0V00:00:0000:00:0000:00:00
PU1XMG-162026-08-30 23:39:35-22.80667-43.23778224°11km/h3059m6.4m/s10.6°C63.4%709.6hPa0V00:00:0000:00:0000:00:00
PU1XMG-162026-08-30 23:39:30-22.80655-43.23769276°4km/h3032m4.1m/s10.7°C63.7%711.9hPa0V00:00:0000:00:0000:00:00
PU1XMG-162026-08-30 23:39:25-22.80664-43.2376213°2km/h3004m6.3m/s10.9°C64.1%714.1hPa0V00:00:0000:00:0000:00:00
PU1XMG-162026-08-30 23:39:14-22.80633-43.23736212°18km/h2942m6.9m/s11.4°C63.9%719.4hPa0V00:00:0000:00:0000:00:00
PU1XMG-162026-08-30 23:39:08-22.80621-43.23727248°18km/h2912m6.9m/s11.6°C63.1%722.2hPa0V00:00:0000:00:0000:00:00
PU1XMG-162026-08-30 23:39:01-22.80592-43.23713165°15km/h2879m5.9m/s11.8°C63.2%725.0hPa0V00:00:0000:00:0000:00:00
PU1XMG-162026-08-30 23:38:56-22.80589-43.23709285°9km/h2856m4.7m/s11.9°C65.6%727.2hPa0V00:00:0000:00:0000:00:00
PU1XMG-162026-08-30 23:38:51-22.80581-43.23701209°20km/h2829m5.4m/s12.0°C68.8%729.2hPa0V00:00:0000:00:0000:00:00
PU1XMG-162026-08-30 23:38:47-22.80563-43.23684219°9km/h2807m4.8m/s12.0°C75.4%731.6hPa0V00:00:0000:00:0000:00:00
PU1XMG-162026-08-30 23:38:41-22.80552-43.23668207°15km/h2767m6.7m/s12.1°C85.6%734.8hPa0V00:00:0000:00:0000:00:00
PU1XMG-162026-08-30 23:38:35-22.80541-43.23667195°15km/h2738m7.7m/s12.3°C90.9%737.3hPa0V00:00:0000:00:0000:00:00
PU1XMG-162026-08-30 23:38:31-22.80521-43.23650231°13km/h2711m5.8m/s12.5°C96.2%739.7hPa0V00:00:0000:00:0000:00:00
PU1XMG-162026-08-30 23:38:25-22.80504-43.23645236°16km/h2675m7.4m/s12.8°C88.1%742.6hPa0V00:00:0000:00:0000:00:00
PU1XMG-162026-08-30 23:38:19-22.80485-43.23623198°24km/h2641m6.0m/s13.0°C84.8%745.7hPa0V00:00:0000:00:0000:00:00
PU1XMG-162026-08-30 23:38:15-22.80467-43.23611234°20km/h2613m6.3m/s13.2°C85.8%748.0hPa0V00:00:0000:00:0000:00:00
PU1XMG-162026-08-30 23:38:10-22.80444-43.23599179°16km/h2584m5.1m/s13.4°C89.6%750.6hPa0V00:00:0000:00:0000:00:00
PU1XMG-162026-08-30 23:38:03-22.80425-43.23585237°15km/h2548m9.3m/s13.6°C88.7%753.9hPa0V00:00:0000:00:0000:00:00
PU1XMG-162026-08-30 23:37:57-22.80415-43.23561219°11km/h2508m5.6m/s13.9°C88.8%757.6hPa0V00:00:0000:00:0000:00:00
PU1XMG-162026-08-30 23:37:52-22.80389-43.23550218°29km/h2479m4.2m/s14.1°C88.6%760.0hPa0V00:00:0000:00:0000:00:00
PU1XMG-162026-08-30 23:37:46-22.80370-43.23525195°9km/h2445m5.9m/s14.4°C88.7%763.2hPa0V00:00:0000:00:0000:00:00
PU1XMG-162026-08-30 23:37:40-22.80368-43.23510268°20km/h2411m5.6m/s14.6°C88.0%766.0hPa0V00:00:0000:00:0000:00:00
PU1XMG-162026-08-30 23:37:35-22.80355-43.23490205°15km/h2379m7.8m/s14.9°C87.1%769.0hPa0V00:00:0000:00:0000:00:00
PU1XMG-162026-08-30 23:37:30-22.80337-43.23484221°24km/h2346m7.0m/s15.1°C86.1%771.9hPa0V00:00:0000:00:0000:00:00
PU1XMG-162026-08-30 23:37:25-22.80317-43.23463176°18km/h2311m5.0m/s15.3°C85.7%775.3hPa0V00:00:0000:00:0000:00:00
PU1XMG-162026-08-30 23:37:19-22.80305-43.23461257°5km/h2278m6.7m/s15.5°C85.3%778.4hPa0V00:00:0000:00:0000:00:00
PU1XMG-162026-08-30 23:37:13-22.80288-43.23448233°20km/h2246m5.8m/s15.7°C85.4%781.3hPa0V00:00:0000:00:0000:00:00
PU1XMG-162026-08-30 23:37:09-22.80282-43.23438153°7km/h2215m5.3m/s15.8°C90.2%783.9hPa0V00:00:0000:00:0000:00:00
PU1XMG-162026-08-30 23:37:04-22.80272-43.23427270°22km/h2188m5.6m/s16.0°C90.4%786.4hPa0V00:00:0000:00:0000:00:00
PU1XMG-162026-08-30 23:36:58-22.80258-43.23405214°20km/h2152m6.5m/s16.2°C90.9%789.7hPa0V00:00:0000:00:0000:00:00
PU1XMG-162026-08-30 23:36:53-22.80243-43.23383224°20km/h2122m8.4m/s16.3°C88.6%792.4hPa0V00:00:0000:00:0000:00:00
PU1XMG-162026-08-30 23:36:47-22.80225-43.23361226°11km/h2085m7.0m/s16.4°C89.5%796.2hPa0V00:00:0000:00:0000:00:00
PU1XMG-162026-08-30 23:36:42-22.80209-43.23347241°20km/h2056m6.4m/s16.6°C94.5%798.9hPa0V00:00:0000:00:0000:00:00
PU1XMG-162026-08-30 23:36:35-22.80195-43.23319257°24km/h2015m7.5m/s16.7°C94.0%802.3hPa0V00:00:0000:00:0000:00:00
PU1XMG-162026-08-30 23:36:31-22.80190-43.23298212°18km/h1984m5.6m/s16.9°C93.4%805.3hPa0V00:00:0000:00:0000:00:00
PU1XMG-162026-08-30 23:36:19-22.80151-43.23268224°24km/h1908m6.5m/s17.0°C91.2%812.6hPa0V00:00:0000:00:0000:00:00
PU1XMG-162026-08-30 23:36:13-22.80121-43.23255192°15km/h1876m5.4m/s17.1°C91.2%815.6hPa0V00:00:0000:00:0000:00:00
PU1XMG-162026-08-30 23:36:08-22.80106-43.23239228°27km/h1848m5.8m/s17.2°C92.1%818.2hPa0V00:00:0000:00:0000:00:00
PU1XMG-162026-08-30 23:36:02-22.80070-43.23216180°20km/h1810m5.3m/s17.2°C94.2%821.7hPa0V00:00:0000:00:0000:00:00
PU1XMG-162026-08-30 23:35:56-22.80027-43.23219178°35km/h1771m9.0m/s17.4°C94.2%825.4hPa0V00:00:0000:00:0000:00:00
PU1XMG-162026-08-30 23:35:51-22.79976-43.23212188°38km/h1743m6.2m/s17.5°C94.6%828.0hPa0V00:00:0000:00:0000:00:00
PU1XMG-162026-08-30 23:35:46-22.79943-43.23219163°20km/h1715m6.1m/s17.6°C94.2%830.7hPa0V00:00:0000:00:0000:00:00
PU1XMG-162026-08-30 23:35:41-22.79906-43.23215191°33km/h1679m5.3m/s17.8°C94.7%834.3hPa0V00:00:0000:00:0000:00:00
PU1XMG-162026-08-30 23:35:35-22.79877-43.23217164°20km/h1651m4.5m/s17.8°C96.2%837.3hPa0V00:00:0000:00:0000:00:00
PU1XMG-162026-08-30 23:35:31-22.79861-43.23217185°5km/h1624m8.9m/s17.6°C99.8%839.6hPa0V00:00:0000:00:0000:00:00
PU1XMG-162026-08-30 23:35:25-22.79838-43.23219169°26km/h1591m6.6m/s17.8°C0%843.1hPa0V00:00:0000:00:0000:00:00
PU1XMG-162026-08-30 23:35:21-22.79813-43.23225189°22km/h1561m5.7m/s18.0°C0%845.8hPa0V00:00:0000:00:0000:00:00
PU1XMG-162026-08-30 23:35:15-22.79773-43.23224186°20km/h1529m5.4m/s18.1°C99.8%849.0hPa0V00:00:0000:00:0000:00:00
PU1XMG-162026-08-30 23:35:10-22.79756-43.23222185°18km/h1501m6.3m/s18.2°C99.8%851.8hPa0V00:00:0000:00:0000:00:00
PU1XMG-162026-08-30 23:35:05-22.79737-43.23221189°13km/h1472m9.0m/s18.2°C99.9%854.5hPa0V00:00:0000:00:0000:00:00
PU1XMG-162026-08-30 23:35:00-22.79725-43.23228148°16km/h1440m7.6m/s18.2°C99.8%857.9hPa0V00:00:0000:00:0000:00:00
PU1XMG-162026-08-30 23:34:54-22.79712-43.23232141°9km/h1411m5.1m/s18.4°C99.9%860.9hPa0V00:00:0000:00:0000:00:00
PU1XMG-162026-08-30 23:34:43-22.79690-43.23258183°11km/h1349m5.0m/s18.6°C100.0%867.1hPa0V00:00:0000:00:0000:00:00
PU1XMG-162026-08-30 23:34:38-22.79682-43.23269120°22km/h1320m6.2m/s18.6°C99.8%870.1hPa0V00:00:0000:00:0000:00:00
PU1XMG-162026-08-30 23:34:32-22.79671-43.2329076°15km/h1284m5.8m/s18.6°C99.9%873.5hPa0V00:00:0000:00:0000:00:00
PU1XMG-162026-08-30 23:34:26-22.79671-43.2330748°5km/h1247m8.1m/s18.7°C99.7%877.0hPa0V00:00:0000:00:0000:00:00
PU1XMG-162026-08-30 23:34:21-22.79668-43.23313156°15km/h1212m7.3m/s18.7°C99.4%880.7hPa0V00:00:0000:00:0000:00:00
PU1XMG-162026-08-30 23:34:16-22.79661-43.2333882°22km/h1182m7.0m/s18.7°C99.8%884.0hPa0V00:00:0000:00:0000:00:00
PU1XMG-162026-08-30 23:34:11-22.79673-43.2335459°18km/h1153m5.7m/s18.8°C99.8%887.0hPa0V00:00:0000:00:0000:00:00
PU1XMG-162026-08-30 23:34:05-22.79679-43.2337560°18km/h1120m5.3m/s18.8°C99.9%890.3hPa0V00:00:0000:00:0000:00:00
PU1XMG-162026-08-30 23:34:00-22.79683-43.2340794°24km/h1095m4.1m/s18.6°C99.7%892.9hPa0V00:00:0000:00:0000:00:00
PU1XMG-162026-08-30 23:33:53-22.79692-43.2343937°18km/h1064m5.6m/s18.6°C99.8%896.1hPa0V00:00:0000:00:0000:00:00
PU1XMG-162026-08-30 23:33:48-22.79705-43.2345243°18km/h1036m7.6m/s18.7°C99.8%899.0hPa0V00:00:0000:00:0000:00:00
PU1XMG-162026-08-30 23:33:43-22.79724-43.2346761°15km/h1006m3.8m/s18.8°C99.9%902.2hPa0V00:00:0000:00:0000:00:00
PU1XMG-162026-08-30 23:33:38-22.79748-43.2347913°16km/h969m7.3m/s18.7°C99.5%906.1hPa0V00:00:0000:00:0000:00:00
PU1XMG-162026-08-30 23:33:33-22.79767-43.2349144°26km/h936m5.5m/s18.8°C100.0%909.7hPa0V00:00:0000:00:0000:00:00
PU1XMG-162026-08-30 23:33:28-22.79783-43.2351532°20km/h906m4.9m/s18.9°C99.7%912.8hPa0V00:00:0000:00:0000:00:00
PU1XMG-162026-08-30 23:33:23-22.79808-43.2353866°24km/h880m5.4m/s18.8°C99.6%915.5hPa0V00:00:0000:00:0000:00:00
PU1XMG-162026-08-30 23:33:18-22.79829-43.2356233°37km/h854m5.6m/s18.8°C99.7%918.6hPa0V00:00:0000:00:0000:00:00
PU1XMG-162026-08-30 23:33:13-22.79871-43.2360041°42km/h831m7.3m/s18.9°C99.5%921.0hPa0V00:00:0000:00:0000:00:00
PU1XMG-162026-08-30 23:33:07-22.79907-43.2363440°35km/h796m6.5m/s19.0°C0%924.5hPa0V00:00:0000:00:0000:00:00
PU1XMG-162026-08-30 23:33:01-22.79936-43.2367560°33km/h768m5.3m/s19.1°C0%927.5hPa0V00:00:0000:00:0000:00:00
PU1XMG-162026-08-30 23:32:55-22.79964-43.2372677°40km/h734m6.8m/s19.3°C0%931.2hPa0V00:00:0000:00:0000:00:00
PU1XMG-162026-08-30 23:32:50-22.79985-43.2377955°38km/h695m5.6m/s19.4°C0%935.4hPa0V00:00:0000:00:0000:00:00
PU1XMG-162026-08-30 23:32:44-22.80016-43.2382551°37km/h659m5.3m/s19.4°C0%939.1hPa0V00:00:0000:00:0000:00:00
PU1XMG-162026-08-30 23:32:38-22.80048-43.2387358°47km/h634m4.6m/s19.3°C0%941.9hPa0V00:00:0000:00:0000:00:00
PU1XMG-162026-08-30 23:32:32-22.80098-43.2393342°53km/h607m4.5m/s19.3°C0%944.9hPa0V00:00:0000:00:0000:00:00
PU1XMG-162026-08-30 23:32:27-22.80142-43.2397745°55km/h580m8.1m/s19.4°C0%947.7hPa0V00:00:0000:00:0000:00:00
PU1XMG-162026-08-30 23:32:22-22.80182-43.2403850°49km/h553m3.5m/s19.5°C0%950.9hPa0V00:00:0000:00:0000:00:00
PU1XMG-162026-08-30 23:32:17-22.80222-43.2408644°40km/h526m6.5m/s19.7°C0%953.6hPa0V00:00:0000:00:0000:00:00
PU1XMG-162026-08-30 23:32:11-22.80272-43.2414054°44km/h493m6.4m/s19.6°C0%957.4hPa0V00:00:0000:00:0000:00:00
PU1XMG-162026-08-30 23:32:06-22.80316-43.2419958°60km/h464m7.8m/s0°C0%960.5hPa0V00:00:0000:00:0000:00:00
PU1XMG-162026-08-30 23:32:00-22.80363-43.2425337°60km/h437m6.3m/s0°C0%963.5hPa0V00:00:0000:00:0000:00:00
PU1XMG-162026-08-30 23:31:56-22.80416-43.2430746°49km/h409m6.2m/s0°C0%966.5hPa0V00:00:0000:00:0000:00:00
PU1XMG-162026-08-30 23:31:50-22.80474-43.2437641°55km/h376m5.5m/s0°C0%0hPa0V00:00:0000:00:0000:00:00
PU1XMG-162026-08-30 23:31:43-22.80532-43.2443643°55km/h348m4.1m/s0°C0%0hPa0V00:00:0000:00:0000:00:00
PU1XMG-162026-08-30 23:31:37-22.80602-43.2451842°68km/h309m4.3m/s0°C0%0hPa0V00:00:0000:00:0000:00:00
PU1XMG-162026-08-30 23:31:32-22.80660-43.2457254°58km/h282m4.3m/s0°C0%0hPa0V00:00:0000:00:0000:00:00
PU1XMG-162026-08-30 23:31:26-22.80700-43.2464347°49km/h251m5.8m/s0°C0%0hPa0V00:00:0000:00:0000:00:00


GPX KML Map

© wettersonde.net (DO2JMG) - 2026  -  -